Provisional Data: Little Mehoopany Creek near North Mehoopany, PA


Please select a monitoring station.
Please select start date.
Please select start date.

Toggle Unit: C/F Toggle Unit: C/F
Sample Time Temperature (C) Temperature (F) Specific Conductivity (mS/cm) pH   Turbidity (NTU+) DO (mg/L)
6/3/2022 12:00:00 AM 18.49 65.282 0.12 7.01 6.7 8.64
6/3/2022 12:15:00 AM 18.49 65.282 0.12 7.08 6.69 8.66
6/3/2022 12:30:00 AM 18.36 65.048 0.12 7.06 5.8 8.61
6/3/2022 12:45:00 AM 18.31 64.958 0.12 6.98 7.14 8.57
6/3/2022 1:00:00 AM 18.33 64.994 0.12 7.05 6.76 8.65
6/3/2022 1:15:00 AM 18.14 64.652 0.12 6.98 6.44 8.55
6/3/2022 1:30:00 AM 18.15 64.67 0.12 6.99 6.82 8.58
6/3/2022 1:45:00 AM 18.21 64.778 0.12 7.08 5.9 8.67
6/3/2022 2:00:00 AM 18.19 64.742 0.12 7.03 6.59 8.73
6/3/2022 2:15:00 AM 18.12 64.616 0.12 7.09 6.12 8.7
6/3/2022 2:30:00 AM 18.1 64.58 0.12 7.1 6.26 8.74
6/3/2022 2:45:00 AM 18.04 64.472 0.12 7.1 6.52 8.69
6/3/2022 3:00:00 AM 17.94 64.292 0.121 7.06 6.49 8.69
6/3/2022 3:15:00 AM 17.83 64.094 0.121 7.03 6.58 8.67
6/3/2022 3:30:00 AM 17.71 63.878 0.12 7.1 6.45 8.61
6/3/2022 3:45:00 AM 17.67 63.806 0.121 7.05 5.97 8.71
6/3/2022 4:00:00 AM 17.73 63.914 0.121 7.01 5.93 8.71
6/3/2022 4:15:00 AM 17.66 63.788 0.121 6.99 6.97 8.73
6/3/2022 4:30:00 AM 17.71 63.878 0.121 7.03 5.65 8.71
6/3/2022 4:45:00 AM 17.64 63.752 0.121 7.04 5.78 8.78
6/3/2022 5:00:00 AM 17.58 63.644 0.121 6.98 6.1 8.72
6/3/2022 5:15:00 AM 17.57 63.626 0.121 7.07 6.65 8.71
6/3/2022 5:30:00 AM 17.64 63.752 0.121 7.09 7.94 8.83
6/3/2022 5:45:00 AM 17.58 63.644 0.121 7.06 8.02 8.82
6/3/2022 6:00:00 AM 17.43 63.374 0.121 7.03 6.51 8.76
6/3/2022 6:15:00 AM 17.49 63.482 0.121 7.08 6.28 8.84
6/3/2022 6:30:00 AM 17.42 63.356 0.121 7.07 6.4 8.88
6/3/2022 6:45:00 AM 17.37 63.266 0.121 7.1 5.87 8.87
6/3/2022 7:00:00 AM 17.29 63.122 0.122 7.07 6.58 8.91
6/3/2022 7:15:00 AM 17.25 63.05 0.122 7.08 7.21 8.91
6/3/2022 7:30:00 AM 17.22 62.996 0.121 7.08 5.29 8.92
6/3/2022 7:45:00 AM 17.21 62.978 0.122 7.07 5.43 8.97
6/3/2022 8:00:00 AM 17.03 62.654 0.122 7.04 5.08 8.88
6/3/2022 8:15:00 AM 17.09 62.762 0.121 7.07 4.7 8.95
6/3/2022 8:30:00 AM 17.16 62.888 0.121 7.17 5.41 9.01
6/3/2022 8:45:00 AM 17.15 62.87 0.121 7.12 4.81 9.02
6/3/2022 9:00:00 AM 17.1 62.78 0.122 7.05 4.75 8.99
6/3/2022 9:15:00 AM 17.14 62.852 0.121 7.05 4.84 8.99
6/3/2022 9:30:00 AM 17.28 63.104 0.121 7.16 4.92 9.08
6/3/2022 9:45:00 AM 17.26 63.068 0.121 7.12 4.78 9.01
6/3/2022 10:00:00 AM 17.35 63.23 0.122 7.1 5.06 9.02
6/3/2022 10:15:00 AM 17.39 63.302 0.121 7.11 5.51 8.95
6/3/2022 10:30:00 AM 17.49 63.482 0.121 7.15 4.82 8.96
6/3/2022 10:45:00 AM 17.55 63.59 0.122 7.09 5.15 8.98
6/3/2022 11:00:00 AM 17.66 63.788 0.121 7.1 4.78 8.93
6/3/2022 11:15:00 AM 17.42 63.356 0.121 7.05 4.27 8.77
6/3/2022 11:30:00 AM 17.83 64.094 0.121 7.04 4.24 8.87
6/3/2022 11:45:00 AM 17.96 64.328 0.122 7.04 4.93 8.77
6/3/2022 12:00:00 PM 18.27 64.886 0.122 7.15 4.86 8.94
6/3/2022 12:15:00 PM 18.38 65.084 0.121 7.11 4.76 8.86
6/3/2022 12:30:00 PM 18.65 65.57 0.121 7.18 4.53 8.88
6/3/2022 12:45:00 PM 18.84 65.912 0.122 7.19 4.95 8.9
6/3/2022 1:00:00 PM 18.99 66.182 0.122 7.19 4.93 8.85
6/3/2022 1:15:00 PM 19.06 66.308 0.122 7.18 4.52 8.75
6/3/2022 1:30:00 PM 19.35 66.83 0.122 7.3 5.15 8.84
6/3/2022 1:45:00 PM 19.5 67.1 0.122 7.27 4.99 8.84
6/3/2022 2:00:00 PM 19.53 67.154 0.122 7.22 4.77 8.8
6/3/2022 2:15:00 PM 19.6 67.28 0.122 7.23 4.98 8.76
6/3/2022 2:30:00 PM 19.71 67.478 0.123 7.29 5.35 8.79
6/3/2022 2:45:00 PM 19.7 67.46 0.123 7.25 5.09 8.74
6/3/2022 3:00:00 PM 19.66 67.388 0.122 7.2 5.15 8.66
6/3/2022 3:15:00 PM 19.76 67.568 0.123 7.2 5.56 8.7
6/3/2022 3:30:00 PM 19.82 67.676 0.123 7.25 5.02 8.69
6/3/2022 3:45:00 PM 19.87 67.766 0.123 7.21 5.4 8.71
6/3/2022 4:00:00 PM 19.79 67.622 0.123 7.17 4.75 8.56
6/3/2022 4:15:00 PM 19.89 67.802 0.123 7.18 5.13 8.62
6/3/2022 4:30:00 PM 19.84 67.712 0.122 7.15 4.98 8.55
6/3/2022 4:45:00 PM 19.97 67.946 0.123 7.23 4.98 8.63
6/3/2022 5:00:00 PM 19.94 67.892 0.123 7.22 4.75 8.57
6/3/2022 5:15:00 PM 19.96 67.92799 0.123 7.23 5.38 8.61
6/3/2022 5:30:00 PM 19.8 67.64 0.124 7.15 5.24 8.54
6/3/2022 5:45:00 PM 19.71 67.478 0.123 7.12 4.97 8.45
6/3/2022 6:00:00 PM 19.76 67.568 0.123 7.13 4.76 8.55
6/3/2022 6:15:00 PM 19.71 67.478 0.124 7.19 4.96 8.61
6/3/2022 6:30:00 PM 19.6 67.28 0.124 7.14 4.85 8.57
6/3/2022 6:45:00 PM 19.34 66.812 0.124 7.09 4.91 8.46
6/3/2022 7:00:00 PM 19.39 66.902 0.124 7.14 4.93 8.54
6/3/2022 7:15:00 PM 19.29 66.722 0.124 7.12 4.72 8.57
6/3/2022 7:30:00 PM 19.18 66.524 0.124 7.09 4.85 8.54
6/3/2022 7:45:00 PM 19.07 66.326 0.125 7.11 4.98 8.54
6/3/2022 8:00:00 PM 18.88 65.984 0.124 7.09 5.19 8.5
6/3/2022 8:15:00 PM 18.86 65.948 0.125 7.14 4.76 8.57
6/3/2022 8:30:00 PM 18.64 65.552 0.125 7.06 4.44 8.51
6/3/2022 8:45:00 PM 18.55 65.39 0.125 7.12 5.27 8.59
6/3/2022 9:00:00 PM 18.3 64.94 0.125 7.06 5.66 8.54
6/3/2022 9:15:00 PM 18.18 64.724 0.125 7.07 6.17 8.63
6/3/2022 9:30:00 PM 18.06 64.508 0.125 7.1 5.79 8.67
6/3/2022 9:45:00 PM 17.9 64.22 0.125 7.11 6.01 8.71
6/3/2022 10:00:00 PM 17.76 63.968 0.125 7.07 5.44 8.77
6/3/2022 10:15:00 PM 17.65 63.77 0.125 7.09 5.81 8.78
6/3/2022 10:30:00 PM 17.5 63.5 0.125 7.06 5.45 8.77
6/3/2022 10:45:00 PM 17.42 63.356 0.125 7.07 5.45 8.82
6/3/2022 11:00:00 PM 17.3 63.14 0.125 7.08 4.93 8.82
6/3/2022 11:15:00 PM 17.13 62.834 0.125 7.02 5.06 8.79
6/3/2022 11:30:00 PM 17.01 62.618 0.125 7.01 5.3 8.77
6/3/2022 11:45:00 PM 16.99 62.582 0.126 7.11 5.11 8.92
6/4/2022 12:00:00 AM 16.87 62.366 0.126 7.04 5.1 8.92
6/4/2022 12:15:00 AM 16.76 62.168 0.126 7.05 5.69 8.92
6/4/2022 12:30:00 AM 16.7 62.06 0.126 7.08 5.58 8.98
6/4/2022 12:45:00 AM 16.57 61.826 0.126 7.05 5.29 8.92
6/4/2022 1:00:00 AM 16.5 61.7 0.126 7.07 4.99 9.02
6/4/2022 1:15:00 AM 16.41 61.538 0.126 7.02 5.43 9.02
6/4/2022 1:30:00 AM 16.28 61.304 0.126 7.01 5.32 8.94
6/4/2022 1:45:00 AM 16.19 61.142 0.126 7.02 5.4 9.03
6/4/2022 2:00:00 AM 16.15 61.07 0.126 7.08 5.77 9.08
6/4/2022 2:15:00 AM 15.96 60.728 0.126 7.01 5.15 8.98
6/4/2022 2:30:00 AM 15.94 60.692 0.127 7.03 5.33 9.08
6/4/2022 2:45:00 AM 15.88 60.584 0.127 7.08 5.96 9.15
6/4/2022 3:00:00 AM 15.73 60.314 0.127 7.01 4.49 9.04
6/4/2022 3:15:00 AM 15.7 60.26 0.127 7.07 5.76 9.19
6/4/2022 3:30:00 AM 15.65 60.17 0.127 7.11 4.92 9.23
6/4/2022 3:45:00 AM 15.55 59.99 0.127 7.09 4.77 9.21
6/4/2022 4:00:00 AM 15.46 59.828 0.127 7.06 4.98 9.24
6/4/2022 4:15:00 AM 15.39 59.702 0.127 7.09 4.58 9.23
6/4/2022 4:30:00 AM 15.33 59.594 0.127 7.09 4.86 9.28
6/4/2022 4:45:00 AM 15.27 59.486 0.127 7.1 5.62 9.29
6/4/2022 5:00:00 AM 15.24 59.432 0.127 7.14 2.55 9.35
6/4/2022 5:15:00 AM 15.1 59.18 0.127 7.07 8.29 9.28
6/4/2022 5:30:00 AM 15.02 59.036 0.127 7.01 8.71 9.32
6/4/2022 5:45:00 AM 15 59 0.128 7.1 5.66 9.38
6/4/2022 6:00:00 AM 14.93 58.874 0.128 7.1 5.25 9.39
6/4/2022 6:15:00 AM 14.88 58.784 0.128 7.11 4.91 9.4
6/4/2022 6:30:00 AM 14.88 58.784 0.128 7.13 4.75 9.46
6/4/2022 6:45:00 AM 14.82 58.676 0.128 7.08 4.65 9.41
6/4/2022 7:00:00 AM 14.86 58.748 0.128 7.16 4.12 9.52
6/4/2022 7:15:00 AM 14.83 58.694 0.128 7.17 4.45 9.54
6/4/2022 7:30:00 AM 14.79 58.622 0.128 7.08 5.63 9.48
6/4/2022 7:45:00 AM 14.84 58.712 0.128 7.16 4.74 9.57
6/4/2022 8:00:00 AM 14.81 58.658 0.128 7.12 2.27 9.55
6/4/2022 8:15:00 AM 14.85 58.73 0.128 7.15 4.93 9.54
6/4/2022 8:30:00 AM 14.89 58.802 0.128 7.15 4.86 9.53
6/4/2022 8:45:00 AM 14.96 58.928 0.128 7.13 4.71 9.51
6/4/2022 9:00:00 AM 15.09 59.162 0.128 7.14 4.26 9.53
6/4/2022 9:15:00 AM 15.24 59.432 0.127 7.18 4.19 9.54
6/4/2022 9:30:00 AM 15.35 59.63 0.128 7.16 4.01 9.51
6/4/2022 9:45:00 AM 15.52 59.936 0.128 7.22 3.99 9.53
6/4/2022 10:00:00 AM 15.67 60.206 0.128 7.21 4.5 9.5
6/4/2022 10:15:00 AM 15.84 60.512 0.128 7.22 4.44 9.48
6/4/2022 10:30:00 AM 16.01 60.818 0.128 7.21 4.27 9.47
6/4/2022 10:45:00 AM 16.21 61.178 0.128 7.25 4.05 9.46
6/4/2022 11:00:00 AM 16.33 61.394 0.128 7.21 4.99 9.35
6/4/2022 11:15:00 AM 16.56 61.808 0.128 7.21 4.53 9.34
6/4/2022 11:30:00 AM 16.66 61.988 0.128 7.18 4.35 9.26
6/4/2022 11:45:00 AM 16.99 62.582 0.128 7.2 4.26 9.32
6/4/2022 12:00:00 PM 17.11 62.798 0.128 7.2 4.53 9.16
6/4/2022 12:15:00 PM 17.28 63.104 0.128 7.19 5.22 9.11
6/4/2022 12:30:00 PM 17.57 63.626 0.128 7.22 5 9.19
6/4/2022 12:45:00 PM 17.7 63.86 0.128 7.19 4.55 9.08
6/4/2022 1:00:00 PM 17.96 64.328 0.128 7.23 5.47 9.12
6/4/2022 1:15:00 PM 18.16 64.688 0.128 7.26 5.34 9.11
6/4/2022 1:30:00 PM 18.34 65.012 0.128 7.31 4.72 9.1
6/4/2022 1:45:00 PM 18.43 65.174 0.128 7.27 4.22 9.02
6/4/2022 2:00:00 PM 18.51 65.318 0.128 7.25 4.64 8.96
6/4/2022 2:15:00 PM 18.65 65.57 0.128 7.29 4.5 8.99
6/4/2022 2:30:00 PM 18.68 65.624 0.128 7.21 4.29 8.94
6/4/2022 2:45:00 PM 18.73 65.714 0.128 7.24 4.37 8.93
6/4/2022 3:00:00 PM 18.78 65.804 0.129 7.24 4.31 8.95
6/4/2022 3:15:00 PM 18.79 65.82201 0.129 7.28 5.02 8.93
6/4/2022 3:30:00 PM 18.84 65.912 0.129 7.29 4.66 8.95
6/4/2022 3:45:00 PM 18.8 65.84 0.129 7.26 4.81 8.87
6/4/2022 4:00:00 PM 18.81 65.858 0.129 7.19 4.16 8.85
6/4/2022 4:15:00 PM 18.88 65.984 0.129 7.27 4.21 8.91
6/4/2022 4:30:00 PM 18.9 66.02 0.129 7.26 4.4 8.88
6/4/2022 4:45:00 PM 18.89 66.002 0.129 7.24 4.44 8.84
6/4/2022 5:00:00 PM 18.75 65.75 0.129 7.16 4.7 8.63
6/4/2022 5:15:00 PM 18.92 66.056 0.129 7.26 3.81 8.85
6/4/2022 5:30:00 PM 18.86 65.948 0.129 7.24 4.12 8.79
6/4/2022 5:45:00 PM 18.84 65.912 0.129 7.25 4.04 8.81
6/4/2022 6:00:00 PM 18.78 65.804 0.13 7.23 4.1 8.8
6/4/2022 6:15:00 PM 18.69 65.642 0.13 7.21 4.58 8.78
6/4/2022 6:30:00 PM 18.64 65.552 0.13 7.22 4.23 8.8
6/4/2022 6:45:00 PM 18.53 65.354 0.13 7.21 4.1 8.77
6/4/2022 7:00:00 PM 18.41 65.138 0.13 7.19 4.54 8.73
6/4/2022 7:15:00 PM 18.32 64.976 0.131 7.18 3.97 8.75
6/4/2022 7:30:00 PM 18.14 64.652 0.13 7.07 4.06 8.75
6/4/2022 7:45:00 PM 17.97 64.346 0.13 7.09 5.52 8.56
6/4/2022 8:00:00 PM 18.01 64.418 0.131 7.17 4.17 8.74
6/4/2022 8:15:00 PM 17.9 64.22 0.131 7.17 4.59 8.74
6/4/2022 8:30:00 PM 17.71 63.878 0.131 7.12 5.25 8.66
6/4/2022 8:45:00 PM 17.58 63.644 0.131 7.1 4.27 8.69
6/4/2022 9:00:00 PM 17.37 63.266 0.131 7.07 4.47 8.75
6/4/2022 9:15:00 PM 17.23 63.014 0.131 7.09 4.84 8.72
6/4/2022 9:30:00 PM 17.07 62.726 0.132 7.14 4.74 8.87
6/4/2022 9:45:00 PM 16.89 62.402 0.131 7.11 4.64 8.92
6/4/2022 10:00:00 PM 16.69 62.042 0.131 7.09 4.67 8.94
6/4/2022 10:15:00 PM 16.53 61.754 0.131 7.12 4.32 8.94
6/4/2022 10:30:00 PM 16.37 61.466 0.131 7.11 4.51 8.92
6/4/2022 10:45:00 PM 16.19 61.142 0.132 7.08 4.7 8.97
6/4/2022 11:00:00 PM 16.09 60.962 0.131 7.09 4.88 9.08
6/4/2022 11:15:00 PM 15.93 60.674 0.131 7.08 4.78 9.04
6/4/2022 11:30:00 PM 15.83 60.494 0.132 7.07 4.3 9.12
6/4/2022 11:45:00 PM 15.66 60.188 0.132 7.04 4.93 9
6/5/2022 12:00:00 AM 15.49 59.882 0.132 6.94 4.46 8.91
6/5/2022 12:15:00 AM 15.43 59.774 0.131 7 5.12 9.08
6/5/2022 12:30:00 AM 15.37 59.666 0.131 7.09 4.42 9.21
6/5/2022 12:45:00 AM 15.28 59.504 0.132 7.09 4.06 9.25
6/5/2022 1:00:00 AM 15.13 59.234 0.131 7.04 4.29 9.14
6/5/2022 1:15:00 AM 15.06 59.108 0.132 7.04 4.65 9.26
6/5/2022 1:30:00 AM 14.93 58.874 0.132 7.03 4.44 9.21
6/5/2022 1:45:00 AM 14.9 58.82 0.132 7.13 4.32 9.38
6/5/2022 2:00:00 AM 14.79 58.622 0.132 7.12 4.43 9.37
6/5/2022 2:15:00 AM 14.66 58.388 0.133 7.07 4.46 9.35
6/5/2022 2:30:00 AM 14.56 58.208 0.132 7.04 4.37 9.31
6/5/2022 2:45:00 AM 14.51 58.118 0.132 7.07 4.05 9.39
6/5/2022 3:00:00 AM 14.44 57.992 0.133 7.13 4.56 9.49
6/5/2022 3:15:00 AM 14.36 57.848 0.133 7.13 4.78 9.5
6/5/2022 3:30:00 AM 14.26 57.668 0.133 7.09 4.53 9.46
6/5/2022 3:45:00 AM 14.2 57.56 0.133 7.11 4.45 9.5
6/5/2022 4:00:00 AM 14.13 57.434 0.133 7.11 4.62 9.51
6/5/2022 4:15:00 AM 14.06 57.308 0.133 7.14 2.27 9.53
6/5/2022 4:30:00 AM 13.98 57.164 0.133 7.1 4.58 9.51
6/5/2022 4:45:00 AM 13.89 57.002 0.133 7.06 4.73 9.48
6/5/2022 5:00:00 AM 13.84 56.912 0.133 7.09 7.12 9.53
6/5/2022 5:15:00 AM 13.79 56.822 0.133 7.14 5.49 9.61
6/5/2022 5:30:00 AM 13.72 56.696 0.133 7.14 6.65 9.64
6/5/2022 5:45:00 AM 13.66 56.588 0.133 7.15 5.52 9.66
6/5/2022 6:00:00 AM 13.6 56.48 0.133 7.15 4.38 9.68
6/5/2022 6:15:00 AM 13.52 56.336 0.133 7.07 4.34 9.67
6/5/2022 6:30:00 AM 13.49 56.282 0.134 7.06 3.98 9.76
6/5/2022 6:45:00 AM 13.44 56.192 0.133 7.06 4.41 9.77
6/5/2022 7:00:00 AM 13.42 56.156 0.134 7.11 4.11 9.83
6/5/2022 7:15:00 AM 13.4 56.12 0.134 7.1 4.49 9.82
6/5/2022 7:30:00 AM 13.4 56.12 0.134 7.12 4.11 9.84
6/5/2022 7:45:00 AM 13.42 56.156 0.134 7.14 4.12 9.86
6/5/2022 8:00:00 AM 13.45 56.21 0.134 7.16 3.86 9.88
6/5/2022 8:15:00 AM 13.5 56.3 0.133 7.16 3.96 9.88
6/5/2022 8:30:00 AM 13.57 56.426 0.133 7.18 4.36 9.92
6/5/2022 8:45:00 AM 13.67 56.606 0.133 7.2 4.05 9.95
6/5/2022 9:00:00 AM 13.77 56.786 0.133 7.23 3.91 9.94
6/5/2022 9:15:00 AM 13.9 57.02 0.133 7.24 4.19 9.94
6/5/2022 9:30:00 AM 14.02 57.236 0.133 7.23 4.17 9.94
6/5/2022 9:45:00 AM 14.12 57.416 0.133 7.25 3.85 9.89
6/5/2022 10:00:00 AM 14.23 57.614 0.133 7.28 3.93 9.94
6/5/2022 10:15:00 AM 14.36 57.848 0.133 7.27 3.73 9.91
6/5/2022 10:30:00 AM 14.54 58.172 0.133 7.28 3.65 9.9
6/5/2022 10:45:00 AM 14.68 58.424 0.133 7.28 4.13 9.87
6/5/2022 11:00:00 AM 14.77 58.586 0.133 7.28 3.76 9.88
6/5/2022 11:15:00 AM 14.88 58.784 0.133 7.36 3.69 9.92
6/5/2022 11:30:00 AM 14.94 58.892 0.133 7.34 4.09 9.89
6/5/2022 11:45:00 AM 15.03 59.054 0.133 7.34 3.76 9.85
6/5/2022 12:00:00 PM 15.17 59.306 0.133 7.26 3.99 9.8
6/5/2022 12:15:00 PM 15.47 59.846 0.133 7.31 3.79 9.77
6/5/2022 12:30:00 PM 15.72 60.296 0.133 7.33 3.76 9.74
6/5/2022 12:45:00 PM 15.95 60.71 0.133 7.36 3.84 9.7
6/5/2022 1:00:00 PM 16.15 61.07 0.133 7.34 3.84 9.65
6/5/2022 1:15:00 PM 16.33 61.394 0.133 7.35 4.01 9.6
6/5/2022 1:30:00 PM 16.5 61.7 0.133 7.29 4.51 9.54
6/5/2022 1:45:00 PM 16.66 61.988 0.133 7.21 4.04 9.44
6/5/2022 2:00:00 PM 16.83 62.294 0.133 7.31 4.78 9.39
6/5/2022 2:15:00 PM 16.94 62.492 0.133 7.25 4.42 9.34
6/5/2022 2:30:00 PM 17.19 62.942 0.133 7.27 4.36 9.37
6/5/2022 2:45:00 PM 17.28 63.104 0.133 7.33 3.96 9.28
6/5/2022 3:00:00 PM 17.28 63.104 0.133 7.18 4.06 9.17
6/5/2022 3:15:00 PM 17.45 63.41 0.134 7.27 5.11 9.28
6/5/2022 3:30:00 PM 17.5 63.5 0.134 7.29 4.18 9.27
6/5/2022 3:45:00 PM 17.5 63.5 0.134 7.28 4.93 9.21
6/5/2022 4:00:00 PM 17.57 63.626 0.134 7.27 4.22 9.22
6/5/2022 4:15:00 PM 17.59 63.662 0.135 7.26 4.13 9.12
6/5/2022 4:30:00 PM 17.68 63.824 0.135 7.3 4.18 9.2
6/5/2022 4:45:00 PM 17.62 63.716 0.134 7.24 4.33 9.06
6/5/2022 5:00:00 PM 17.69 63.842 0.135 7.23 3.96 9.07
6/5/2022 5:15:00 PM 17.67 63.806 0.135 7.18 4.35 9
6/5/2022 5:30:00 PM 17.71 63.878 0.134 7.23 4.21 9
6/5/2022 5:45:00 PM 17.78 64.004 0.135 7.32 4.46 9.09
6/5/2022 6:00:00 PM 17.61 63.698 0.135 7.16 4.2 8.89
6/5/2022 6:15:00 PM 17.69 63.842 0.135 7.19 4.36 9
6/5/2022 6:30:00 PM 17.65 63.77 0.135 7.21 4.69 9.03
6/5/2022 6:45:00 PM 17.55 63.59 0.136 7.22 4.07 8.98
6/5/2022 7:00:00 PM 17.5 63.5 0.136 7.23 4.15 9
6/5/2022 7:15:00 PM 17.4 63.32 0.136 7.22 4.19 8.95
6/5/2022 7:30:00 PM 17.32 63.176 0.136 7.2 4.39 8.91
6/5/2022 7:45:00 PM 17.24 63.032 0.136 7.2 4.44 8.91
6/5/2022 8:00:00 PM 17.13 62.834 0.136 7.16 4.33 8.84
6/5/2022 8:15:00 PM 17.09 62.762 0.136 7.19 4.49 8.91
6/5/2022 8:30:00 PM 16.97 62.546 0.137 7.14 4.11 8.84
6/5/2022 8:45:00 PM 16.88 62.384 0.137 7.14 4.43 8.88
6/5/2022 9:00:00 PM 16.78 62.204 0.137 7.13 4.04 8.85
6/5/2022 9:15:00 PM 16.61 61.898 0.137 7.12 3.94 8.85
6/5/2022 9:30:00 PM 16.52 61.736 0.137 7.12 4.46 8.86
6/5/2022 9:45:00 PM 16.41 61.538 0.137 7.13 5.61 8.94
6/5/2022 10:00:00 PM 16.3 61.34 0.137 7.15 4.29 8.98
6/5/2022 10:15:00 PM 16.16 61.088 0.138 7.12 4.53 8.99
6/5/2022 10:30:00 PM 16.05 60.89 0.138 7.14 4.25 9.04
6/5/2022 10:45:00 PM 15.92 60.656 0.138 7.12 4.01 9.04
6/5/2022 11:00:00 PM 15.78 60.404 0.138 7.11 4.39 9.02
6/5/2022 11:15:00 PM 15.68 60.224 0.138 7.12 4.7 9.09
6/5/2022 11:30:00 PM 15.59 60.062 0.138 7.16 4.38 9.16
6/5/2022 11:45:00 PM 15.48 59.864 0.138 7.1 4.27 9.19
6/6/2022 12:00:00 AM 15.38 59.684 0.138 7.16 4.19 9.24
6/6/2022 12:15:00 AM 15.28 59.504 0.138 7.13 4.33 9.23
6/6/2022 12:30:00 AM 15.2 59.36 0.138 7.15 4.43 9.27
6/6/2022 12:45:00 AM 15.11 59.198 0.137 7.13 4.1 9.23
6/6/2022 1:00:00 AM 15.05 59.09 0.138 7.14 3.99 9.31
6/6/2022 1:15:00 AM 14.98 58.964 0.138 7.12 8.46 9.28
6/6/2022 1:30:00 AM 14.91 58.838 0.138 7.12 5.49 9.27
6/6/2022 1:45:00 AM 14.86 58.748 0.138 7.12 4.84 9.3
6/6/2022 2:00:00 AM 14.75 58.55 0.138 7.06 5.34 9.14
6/6/2022 2:15:00 AM 14.76 58.568 0.138 7.11 4.62 9.33
6/6/2022 2:30:00 AM 14.72 58.496 0.138 7.11 5.17 9.36
6/6/2022 2:45:00 AM 14.67 58.406 0.138 7.14 4.03 9.39
6/6/2022 3:00:00 AM 14.63 58.334 0.138 7.13 4.24 9.38
6/6/2022 3:15:00 AM 14.58 58.244 0.138 7.12 4.11 9.41
6/6/2022 3:30:00 AM 14.5 58.1 0.138 7.11 3.84 9.35
6/6/2022 3:45:00 AM 14.45 58.01 0.139 7.11 4.59 9.39
6/6/2022 4:00:00 AM 14.4 57.92 0.139 7.14 4.43 9.44
6/6/2022 4:15:00 AM 14.26 57.668 0.139 7.04 4.29 9.26
6/6/2022 4:30:00 AM 14.26 57.668 0.139 7.12 4.15 9.46
6/6/2022 4:45:00 AM 14.19 57.542 0.138 7.1 4.55 9.47
6/6/2022 5:00:00 AM 14.14 57.452 0.139 7.15 4.54 9.51
6/6/2022 5:15:00 AM 14.07 57.326 0.139 7.14 4.68 9.53
6/6/2022 5:30:00 AM 14 57.2 0.139 7.13 5.47 9.53
6/6/2022 5:45:00 AM 13.93 57.074 0.139 7.13 5.78 9.51
6/6/2022 6:00:00 AM 13.87 56.966 0.139 7.12 4.27 9.56
6/6/2022 6:15:00 AM 13.8 56.84 0.139 7.11 6.46 9.57
6/6/2022 6:30:00 AM 13.75 56.75 0.139 7.1 4.23 9.56
6/6/2022 6:45:00 AM 13.71 56.678 0.139 7.14 3.94 9.68
6/6/2022 7:00:00 AM 13.69 56.642 0.139 7.16 3.88 9.69
6/6/2022 7:15:00 AM 13.66 56.588 0.138 7.14 3.75 9.69
6/6/2022 7:30:00 AM 13.64 56.552 0.139 7.12 4.08 9.65
6/6/2022 7:45:00 AM 13.68 56.624 0.139 7.16 3.92 9.73
6/6/2022 8:00:00 AM 13.67 56.606 0.139 7.11 4.12 9.66
6/6/2022 8:15:00 AM 13.74 56.732 0.139 7.13 3.7 9.72
6/6/2022 8:30:00 AM 13.81 56.858 0.139 7.15 3.85 9.75
6/6/2022 8:45:00 AM 13.86 56.948 0.139 7.14 3.74 9.69
6/6/2022 9:00:00 AM 13.96 57.128 0.139 7.13 3.56 9.72
6/6/2022 9:15:00 AM 14.13 57.434 0.139 7.22 3.69 9.81
6/6/2022 9:30:00 AM 14.25 57.65 0.139 7.15 3.39 9.72
6/6/2022 9:45:00 AM 14.34 57.812 0.138 7.1 3.67 9.53
6/6/2022 10:00:00 AM 14.58 58.244 0.139 7.14 3.53 9.71
6/6/2022 10:15:00 AM 14.77 58.586 0.139 7.13 3.66 9.62
6/6/2022 10:30:00 AM 14.91 58.838 0.137 7.11 3.98 9.56
6/6/2022 10:45:00 AM 15.26 59.468 0.138 7.18 4.06 9.6
6/6/2022 11:00:00 AM 15.47 59.846 0.139 7.2 3.46 9.58
6/6/2022 11:15:00 AM 15.75 60.35 0.139 7.2 4.36 9.55
6/6/2022 11:30:00 AM 16.04 60.872 0.139 7.25 4.06 9.56
6/6/2022 11:45:00 AM 16.33 61.394 0.139 7.29 3.95 9.55
6/6/2022 12:00:00 PM 16.6 61.88 0.139 7.29 3.7 9.54
6/6/2022 12:15:00 PM 16.79 62.222 0.138 7.29 3.94 9.47
6/6/2022 12:30:00 PM 17.12 62.816 0.138 7.35 4.16 9.45
6/6/2022 12:45:00 PM 17.26 63.068 0.139 7.29 4.25 9.4
6/6/2022 1:00:00 PM 17.53 63.554 0.139 7.36 4.13 9.34
6/6/2022 1:15:00 PM 17.69 63.842 0.138 7.29 4.06 9.31
6/6/2022 1:30:00 PM 17.99 64.382 0.139 7.38 3.93 9.32
6/6/2022 1:45:00 PM 18.15 64.67 0.139 7.34 3.84 9.27
6/6/2022 2:00:00 PM 18.38 65.084 0.138 7.39 3.82 9.22
6/6/2022 2:15:00 PM 18.55 65.39 0.139 7.4 3.87 9.21
6/6/2022 2:30:00 PM 18.68 65.624 0.139 7.39 3.8 9.19
6/6/2022 2:45:00 PM 18.74 65.732 0.139 7.32 4.13 9.18
6/6/2022 3:00:00 PM 18.76 65.768 0.138 7.36 3.86 9.14
6/6/2022 3:15:00 PM 18.76 65.768 0.139 7.37 3.92 9.11
6/6/2022 3:30:00 PM 18.82 65.876 0.14 7.39 4.12 9.12
6/6/2022 3:45:00 PM 18.7 65.66 0.139 7.3 4.48 8.98
6/6/2022 4:00:00 PM 18.78 65.804 0.14 7.38 4.07 9.09
6/6/2022 4:15:00 PM 18.77 65.786 0.14 7.38 3.88 9.1
6/6/2022 4:30:00 PM 18.77 65.786 0.14 7.39 3.86 9.08
6/6/2022 4:45:00 PM 18.78 65.804 0.14 7.39 3.88 9.08
6/6/2022 5:00:00 PM 18.69 65.642 0.14 7.31 4.18 9.01
6/6/2022 5:15:00 PM 18.73 65.714 0.14 7.37 4.36 9.04
6/6/2022 5:30:00 PM 18.61 65.498 0.14 7.24 4.05 8.92
6/6/2022 5:45:00 PM 18.6 65.48 0.14 7.28 3.89 8.92
6/6/2022 6:00:00 PM 18.54 65.372 0.14 7.27 4.09 8.87
6/6/2022 6:15:00 PM 18.56 65.408 0.14 7.32 4.17 8.97
6/6/2022 6:30:00 PM 18.51 65.318 0.14 7.32 4.16 8.95
6/6/2022 6:45:00 PM 18.46 65.228 0.141 7.28 4.28 8.9
6/6/2022 7:00:00 PM 18.4 65.12 0.141 7.29 4.47 8.89
6/6/2022 7:15:00 PM 18.28 64.904 0.141 7.26 4.67 8.84
6/6/2022 7:30:00 PM 18.24 64.832 0.141 7.25 4.44 8.83
6/6/2022 7:45:00 PM 18.12 64.616 0.141 7.24 4.29 8.69
6/6/2022 8:00:00 PM 17.99 64.382 0.141 7.15 4.11 8.58
6/6/2022 8:15:00 PM 17.95 64.31 0.142 7.18 4.35 8.67
6/6/2022 8:30:00 PM 17.94 64.292 0.142 7.24 4.22 8.77
6/6/2022 8:45:00 PM 17.76 63.968 0.142 7.16 4.6 8.62
6/6/2022 9:00:00 PM 17.69 63.842 0.142 7.14 4.06 8.64
6/6/2022 9:15:00 PM 17.61 63.698 0.142 7.16 4.09 8.65
6/6/2022 9:30:00 PM 17.53 63.554 0.142 7.16 5.14 8.66
6/6/2022 9:45:00 PM 17.46 63.428 0.143 7.18 4.5 8.71
6/6/2022 10:00:00 PM 17.3 63.14 0.143 7.14 4.45 8.58
6/6/2022 10:15:00 PM 17.24 63.032 0.143 7.12 5.53 8.61
6/6/2022 10:30:00 PM 17.18 62.924 0.143 7.14 4.24 8.72
6/6/2022 10:45:00 PM 17.03 62.654 0.143 7.11 4.33 8.62
6/6/2022 11:00:00 PM 16.95 62.51 0.143 7.09 4.68 8.68
6/6/2022 11:15:00 PM 16.86 62.348 0.143 7.09 4.41 8.58
6/6/2022 11:30:00 PM 16.82 62.276 0.143 7.12 4.76 8.78
6/6/2022 11:45:00 PM 16.76 62.168 0.144 7.17 5.31 8.88
6/7/2022 12:00:00 AM 16.63 61.934 0.143 7.07 5.23 8.62
6/7/2022 12:15:00 AM 16.56 61.808 0.144 7.08 5.69 8.77
6/7/2022 12:30:00 AM 16.48 61.664 0.143 7.11 4.35 8.83
6/7/2022 12:45:00 AM 16.41 61.538 0.144 7.13 5.28 8.9
6/7/2022 1:00:00 AM 16.34 61.412 0.144 7.11 5.71 8.87
6/7/2022 1:15:00 AM 16.27 61.286 0.144 7.07 4.55 8.86
6/7/2022 1:30:00 AM 16.25 61.25 0.144 7.13 4.45 8.93
6/7/2022 1:45:00 AM 16.15 61.07 0.144 7.05 4.29 8.82
6/7/2022 2:00:00 AM 16.11 60.998 0.144 7.1 4.08 8.86
6/7/2022 2:15:00 AM 16.1 60.98 0.144 7.12 4.36 8.94
6/7/2022 2:30:00 AM 16.08 60.944 0.144 7.16 4.54 9.03
6/7/2022 2:45:00 AM 16.02 60.836 0.144 7.15 3.77 9.02
6/7/2022 3:00:00 AM 15.87 60.566 0.144 7.07 4.29 8.82
6/7/2022 3:15:00 AM 15.88 60.584 0.144 7.08 3.98 8.93
6/7/2022 3:30:00 AM 15.83 60.494 0.144 7.09 4.39 8.97
6/7/2022 3:45:00 AM 15.79 60.422 0.145 7.09 4.28 8.85
6/7/2022 4:00:00 AM 15.74 60.332 0.144 7.12 4.16 9.05
6/7/2022 4:15:00 AM 15.7 60.26 0.144 7.13 3.86 9.05
6/7/2022 4:30:00 AM 15.65 60.17 0.144 7.11 4.34 9.01
6/7/2022 4:45:00 AM 15.59 60.062 0.144 7.09 4.17 9.02
6/7/2022 5:00:00 AM 15.54 59.972 0.142 7.07 4.19 9.03
6/7/2022 5:15:00 AM 15.49 59.882 0.143 7.09 4.92 9
6/7/2022 5:30:00 AM 15.46 59.828 0.145 7.11 5.36 9.08
6/7/2022 5:45:00 AM 15.44 59.792 0.145 7.14 5.02 9.09
6/7/2022 6:00:00 AM 15.29 59.522 0.144 7.01 3.38 8.86
6/7/2022 6:15:00 AM 15.32 59.576 0.144 7.06 5.94 9.06
6/7/2022 6:30:00 AM 15.3 59.54 0.144 7.1 4.62 9.11
6/7/2022 6:45:00 AM 15.32 59.576 0.144 7.09 4.11 9.19
6/7/2022 7:00:00 AM 15.33 59.594 0.145 7.14 4.78 9.25
6/7/2022 7:15:00 AM 15.33 59.594 0.145 7.12 5.54 9.22
6/7/2022 7:30:00 AM 15.31 59.558 0.144 7.11 4.3 9.14
6/7/2022 7:45:00 AM 15.38 59.684 0.144 7.14 5.26 9.3
6/7/2022 8:00:00 AM 15.39 59.702 0.145 7.14 4.3 9.31
6/7/2022 8:15:00 AM 15.4 59.72 0.144 7.16 4.16 9.23
6/7/2022 8:30:00 AM 15.47 59.846 0.144 7.2 3.56 9.4
6/7/2022 8:45:00 AM 15.52 59.936 0.144 7.21 3.84 9.41
6/7/2022 9:00:00 AM 15.6 60.08 0.144 7.22 3.58 9.47
6/7/2022 9:15:00 AM 15.67 60.206 0.144 7.24 4.16 9.47
6/7/2022 9:30:00 AM 15.76 60.368 0.144 7.28 3.77 9.53
6/7/2022 9:45:00 AM 15.79 60.422 0.144 7.26 3.79 9.49
6/7/2022 10:00:00 AM 15.8 60.44 0.144 7.23 3.75 9.44
6/7/2022 10:15:00 AM 15.95 60.71 0.144 7.28 3.69 9.55
6/7/2022 10:30:00 AM 16.13 61.034 0.144 7.3 3.78 9.5
6/7/2022 10:45:00 AM 16.34 61.412 0.144 7.33 4.09 9.59
6/7/2022 11:00:00 AM 16.49 61.682 0.144 7.33 5.22 9.57
6/7/2022 11:15:00 AM 16.63 61.934 0.144 7.35 3.68 9.57
6/7/2022 11:30:00 AM 16.71 62.078 0.144 7.35 3.37 9.55
6/7/2022 11:45:00 AM 16.86 62.348 0.142 7.31 3.72 9.45
6/7/2022 12:00:00 PM 16.99 62.582 0.143 7.31 3.72 9.5
6/7/2022 12:15:00 PM 17.01 62.618 0.143 7.37 3.71 9.48
6/7/2022 12:30:00 PM 16.94 62.492 0.144 7.34 3.69 9.32
6/7/2022 12:45:00 PM 16.91 62.438 0.144 7.32 3.79 9.23
6/7/2022 1:00:00 PM 16.88 62.384 0.144 7.35 3.32 9.29
6/7/2022 1:15:00 PM 16.82 62.276 0.144 7.31 4.15 9.26
6/7/2022 1:30:00 PM 16.76 62.168 0.144 7.28 3.68 9.19
6/7/2022 1:45:00 PM 16.74 62.132 0.144 7.28 3.66 9.21
6/7/2022 2:00:00 PM 16.74 62.132 0.144 7.3 4.09 9.21
6/7/2022 2:15:00 PM 16.73 62.114 0.145 7.29 3.99 9.19
6/7/2022 2:30:00 PM 16.68 62.024 0.145 7.21 3.96 9.07
6/7/2022 2:45:00 PM 16.7 62.06 0.145 7.25 3.6 9.15
6/7/2022 3:00:00 PM 16.71 62.078 0.145 7.27 3.57 9.15
6/7/2022 3:15:00 PM 16.66 61.988 0.144 7.23 3.85 9.06
6/7/2022 3:30:00 PM 16.72 62.096 0.145 7.26 3.95 9.18
6/7/2022 3:45:00 PM 16.81 62.258 0.145 7.26 4.56 9.25
6/7/2022 4:00:00 PM 16.85 62.33 0.145 7.3 3.94 9.25
6/7/2022 4:15:00 PM 16.88 62.384 0.145 7.32 3.67 9.26
6/7/2022 4:30:00 PM 16.85 62.33 0.145 7.26 4.27 9.18
6/7/2022 4:45:00 PM 16.83 62.294 0.144 7.25 4.17 9.11
6/7/2022 5:00:00 PM 16.86 62.348 0.145 7.28 3.81 9.17
6/7/2022 5:15:00 PM 16.83 62.294 0.145 7.26 3.75 9.04
6/7/2022 5:30:00 PM 16.81 62.258 0.145 7.24 4.18 9.08
6/7/2022 5:45:00 PM 16.73 62.114 0.145 7.18 3.88 9
6/7/2022 6:00:00 PM 16.76 62.168 0.145 7.21 4.18 9.07
6/7/2022 6:15:00 PM 16.71 62.078 0.145 7.21 4.89 8.97
6/7/2022 6:30:00 PM 16.73 62.114 0.144 7.23 4.88 9.01
6/7/2022 6:45:00 PM 16.73 62.114 0.144 7.23 4.79 8.98
6/7/2022 7:00:00 PM 16.69 62.042 0.144 7.21 4.3 8.87
6/7/2022 7:15:00 PM 16.64 61.952 0.144 7.17 5.12 8.91
6/7/2022 7:30:00 PM 16.61 61.898 0.144 7.17 4.46 8.85
6/7/2022 7:45:00 PM 16.54 61.772 0.143 7.11 4.17 8.74
6/7/2022 8:00:00 PM 16.59 61.862 0.144 7.18 4.13 8.89
6/7/2022 8:15:00 PM 16.52 61.736 0.144 7.14 4.16 8.77
6/7/2022 8:30:00 PM 16.52 61.736 0.144 7.15 4.82 8.84
6/7/2022 8:45:00 PM 16.47 61.646 0.144 7.14 4.81 8.84
6/7/2022 9:00:00 PM 16.46 61.628 0.144 7.15 4.36 8.78
6/7/2022 9:15:00 PM 16.43 61.574 0.144 7.13 4.89 8.83
6/7/2022 9:30:00 PM 16.4 61.52 0.144 7.13 4.34 8.77
6/7/2022 9:45:00 PM 16.37 61.466 0.144 7.12 5.01 8.82
6/7/2022 10:00:00 PM 16.35 61.43 0.145 7.14 4.72 8.83
6/7/2022 10:15:00 PM 16.31 61.358 0.145 7.11 8.41 8.79
6/7/2022 10:30:00 PM 16.25 61.25 0.145 7.07 4.78 8.68
6/7/2022 10:45:00 PM 16.23 61.214 0.144 7.09 5.58 8.77
6/7/2022 11:00:00 PM 16.26 61.268 0.145 7.15 4.22 8.94
6/7/2022 11:15:00 PM 16.21 61.178 0.145 7.11 4.66 8.82
6/7/2022 11:30:00 PM 16.19 61.142 0.145 7.11 5.23 8.87
6/7/2022 11:45:00 PM 16.16 61.088 0.145 7.1 4.29 8.92
6/8/2022 12:00:00 AM 16.09 60.962 0.145 7.09 4.41 8.74
6/8/2022 12:15:00 AM 16.14 61.052 0.146 7.14 4.7 8.92
6/8/2022 12:30:00 AM 16.07 60.926 0.146 7.06 4.45 8.77
6/8/2022 12:45:00 AM 16.06 60.908 0.146 7.08 4.19 8.81
6/8/2022 1:00:00 AM 16.09 60.962 0.146 7.12 4.44 8.98
6/8/2022 1:15:00 AM 16.07 60.926 0.146 7.12 4.04 8.98
6/8/2022 1:30:00 AM 16.02 60.836 0.146 7.08 4.09 8.8
6/8/2022 1:45:00 AM 16.03 60.854 0.146 7.11 4.21 8.94
6/8/2022 2:00:00 AM 15.99 60.782 0.146 7.07 4.99 8.87
6/8/2022 2:15:00 AM 15.99 60.782 0.146 7.11 5.17 8.92
6/8/2022 2:30:00 AM 15.99 60.782 0.146 7.1 4.42 9
6/8/2022 2:45:00 AM 15.93 60.674 0.147 7.06 3.67 8.88
6/8/2022 3:00:00 AM 15.91 60.638 0.146 7.06 4.6 8.9
6/8/2022 3:15:00 AM 15.89 60.602 0.146 7.07 4.23 8.86
6/8/2022 3:30:00 AM 15.87 60.566 0.146 7.09 4.51 8.99
6/8/2022 3:45:00 AM 15.82 60.476 0.145 7.08 4.1 8.93
6/8/2022 4:00:00 AM 15.79 60.422 0.146 7.08 6.3 8.93
6/8/2022 4:15:00 AM 15.78 60.404 0.147 7.07 5.45 8.99
6/8/2022 4:30:00 AM 15.8 60.44 0.147 7.1 4.09 9.02
6/8/2022 4:45:00 AM 15.78 60.404 0.147 7.14 5.1 9.06
6/8/2022 5:00:00 AM 15.73 60.314 0.147 7.13 4.24 9.04
6/8/2022 5:15:00 AM 15.69 60.242 0.147 7.12 6.69 9.04
6/8/2022 5:30:00 AM 15.61 60.098 0.147 7.07 4.7 8.88
6/8/2022 5:45:00 AM 15.65 60.17 0.147 7.14 7.21 9.09
6/8/2022 6:00:00 AM 15.56 60.008 0.146 7.01 8.74 8.87
6/8/2022 6:15:00 AM 15.6 60.08 0.147 7.15 4.49 9.15
6/8/2022 6:30:00 AM 15.58 60.044 0.147 7.18 3.9 9.17
6/8/2022 6:45:00 AM 15.51 59.918 0.146 7.14 3.91 9.09
6/8/2022 7:00:00 AM 15.49 59.882 0.146 7.16 3.87 9.14
6/8/2022 7:15:00 AM 15.49 59.882 0.147 7.2 4.48 9.21
6/8/2022 7:30:00 AM 15.42 59.756 0.146 7.15 6.36 9.18
6/8/2022 7:45:00 AM 15.42 59.756 0.147 7.18 3.93 9.27
6/8/2022 8:00:00 AM 15.4 59.72 0.146 7.17 3.89 9.27
6/8/2022 8:15:00 AM 15.38 59.684 0.146 7.2 3.66 9.24
6/8/2022 8:30:00 AM 15.39 59.702 0.146 7.2 4.03 9.3
6/8/2022 8:45:00 AM 15.44 59.792 0.146 7.23 4.38 9.38
6/8/2022 9:00:00 AM 15.49 59.882 0.146 7.21 3.72 9.37
6/8/2022 9:15:00 AM 15.51 59.918 0.146 7.21 3.66 9.32
6/8/2022 9:30:00 AM 15.63 60.134 0.146 7.25 5.89 9.43
6/8/2022 9:45:00 AM 15.68 60.224 0.146 7.18 3.92 9.35
6/8/2022 10:00:00 AM 15.83 60.494 0.146 7.26 4.07 9.42
6/8/2022 10:15:00 AM 16.01 60.818 0.146 7.28 3.83 9.44
6/8/2022 10:30:00 AM 16.18 61.124 0.146 7.28 3.9 9.43
6/8/2022 10:45:00 AM 16.39 61.502 0.146 7.34 3.6 9.41
6/8/2022 11:00:00 AM 16.6 61.88 0.146 7.34 3.97 9.42
6/8/2022 11:15:00 AM 16.66 61.988 0.146 7.31 3.7 9.36
6/8/2022 11:30:00 AM 16.88 62.384 0.146 7.32 3.79 9.37
6/8/2022 11:45:00 AM 17.09 62.762 0.146 7.39 3.19 9.44
6/8/2022 12:00:00 PM 17.24 63.032 0.146 7.38 3.64 9.44
6/8/2022 12:15:00 PM 17.39 63.302 0.146 7.41 4.12 9.41
6/8/2022 12:30:00 PM 17.5 63.5 0.146 7.39 3.85 9.41
6/8/2022 12:45:00 PM 17.65 63.77 0.146 7.45 3.8 9.42
6/8/2022 1:00:00 PM 17.81 64.058 0.146 7.44 3.57 9.43
6/8/2022 1:15:00 PM 17.85 64.13 0.146 7.41 3.93 9.32
6/8/2022 1:30:00 PM 18.11 64.598 0.146 7.45 5.36 9.34
6/8/2022 1:45:00 PM 18.23 64.814 0.145 7.44 4.3 9.29
6/8/2022 2:00:00 PM 18.42 65.156 0.146 7.41 4.99 9.25
6/8/2022 2:15:00 PM 18.53 65.354 0.145 7.41 3.71 9.16
6/8/2022 2:30:00 PM 18.75 65.75 0.146 7.48 3.77 9.21
6/8/2022 2:45:00 PM 18.79 65.82201 0.146 7.42 4.2 9.15
6/8/2022 3:00:00 PM 18.81 65.858 0.146 7.41 4.37 9.01
6/8/2022 3:15:00 PM 18.85 65.93 0.146 7.45 3.97 9.14
6/8/2022 3:30:00 PM 18.83 65.894 0.146 7.43 99.76 9.09
6/8/2022 3:45:00 PM 18.87 65.966 0.146 7.43 4.08 9.09
6/8/2022 4:00:00 PM 18.81 65.858 0.146 7.39 4.77 9.02
6/8/2022 4:15:00 PM 18.84 65.912 0.147 7.43 3.74 9.07
6/8/2022 4:30:00 PM 18.8 65.84 0.147 7.43 3.79 9.05
6/8/2022 4:45:00 PM 18.77 65.786 0.146 7.4 3.91 9
6/8/2022 5:00:00 PM 18.76 65.768 0.146 7.4 3.7 8.98
6/8/2022 5:15:00 PM 18.77 65.786 0.146 7.4 3.8 9.01
6/8/2022 5:30:00 PM 18.73 65.714 0.147 7.4 4.07 8.98
6/8/2022 5:45:00 PM 18.7 65.66 0.147 7.39 2.85 8.96
6/8/2022 6:00:00 PM 18.66 65.588 0.147 7.38 4.7 8.96
6/8/2022 6:15:00 PM 18.62 65.516 0.147 7.36 4.46 8.95
6/8/2022 6:30:00 PM 18.55 65.39 0.147 7.35 3.85 8.95
6/8/2022 6:45:00 PM 18.44 65.192 0.147 7.34 4.13 8.9
6/8/2022 7:00:00 PM 18.39 65.102 0.147 7.35 4.17 8.91
6/8/2022 7:15:00 PM 18.28 64.904 0.147 7.31 3.95 8.88
6/8/2022 7:30:00 PM 18.2 64.76 0.147 7.3 3.65 8.82
6/8/2022 7:45:00 PM 18.15 64.67 0.147 7.32 3.78 8.85
6/8/2022 8:00:00 PM 18.04 64.472 0.147 7.27 4 8.79
6/8/2022 8:15:00 PM 18.01 64.418 0.147 7.29 3.98 8.78
6/8/2022 8:30:00 PM 17.91 64.238 0.148 7.22 4.88 8.72
6/8/2022 8:45:00 PM 17.84 64.112 0.148 7.22 4.02 8.7
6/8/2022 9:00:00 PM 17.77 63.986 0.148 7.22 4.22 8.67
6/8/2022 9:15:00 PM 17.69 63.842 0.148 7.19 4.5 8.66
6/8/2022 9:30:00 PM 17.62 63.716 0.148 7.22 4.03 8.66
6/8/2022 9:45:00 PM 17.49 63.482 0.147 7.2 4.48 8.58
6/8/2022 10:00:00 PM 17.46 63.428 0.148 7.18 4.09 8.59
6/8/2022 10:15:00 PM 17.36 63.248 0.148 7.15 4.22 8.61
6/8/2022 10:30:00 PM 17.27 63.086 0.148 7.16 4.27 8.6
6/8/2022 10:45:00 PM 17.21 62.978 0.148 7.16 4.5 8.68
6/8/2022 11:00:00 PM 17.13 62.834 0.148 7.18 4.49 8.69
6/8/2022 11:15:00 PM 17.05 62.69 0.148 7.18 5.18 8.75
6/8/2022 11:30:00 PM 16.96 62.528 0.148 7.19 6.43 8.78
6/8/2022 11:45:00 PM 16.88 62.384 0.148 7.16 4.51 8.75
6/9/2022 12:00:00 AM 16.77 62.186 0.148 7.14 4.37 8.76
6/9/2022 12:15:00 AM 16.7 62.06 0.149 7.14 4.27 8.71
6/9/2022 12:30:00 AM 16.65 61.97 0.148 7.16 4.33 8.81
6/9/2022 12:45:00 AM 16.59 61.862 0.148 7.16 4.46 8.81
6/9/2022 1:00:00 AM 16.53 61.754 0.147 7.17 4.64 8.84
6/9/2022 1:15:00 AM 16.48 61.664 0.147 7.17 4.89 8.85
6/9/2022 1:30:00 AM 16.44 61.592 0.146 7.18 4.75 8.89
6/9/2022 1:45:00 AM 16.34 61.412 0.146 7.11 5.15 8.78
6/9/2022 2:00:00 AM 16.3 61.34 0.146 7.15 6.95 8.85
6/9/2022 2:15:00 AM 16.21 61.178 0.144 7.12 4.48 8.73
6/9/2022 2:30:00 AM 16.21 61.178 0.142 7.15 5.54 8.88
6/9/2022 2:45:00 AM 16.2 61.16 0.138 7.14 7.27 8.91
6/9/2022 3:00:00 AM 16.15 61.07 0.136 7.14 10.06 8.93
6/9/2022 3:15:00 AM 16.1 60.98 0.133 7.1 7.56 8.93
6/9/2022 3:30:00 AM 16.06 60.908 0.129 7.1 10.26 8.9
6/9/2022 3:45:00 AM 16.02 60.836 0.128 7.12 7.85 8.94
6/9/2022 4:00:00 AM 15.95 60.71 0.129 7.09 9.21 8.97
6/9/2022 4:15:00 AM 15.89 60.602 0.13 7.08 7.2 8.92
6/9/2022 4:30:00 AM 15.84 60.512 0.133 7.08 7.59 8.92
6/9/2022 4:45:00 AM 15.83 60.494 0.137 7.13 8.2 9.04
6/9/2022 5:00:00 AM 15.81 60.458 0.138 7.1 10.58 9.02
6/9/2022 5:15:00 AM 15.83 60.494 0.138 7.15 7.75 9.1
6/9/2022 5:30:00 AM 15.82 60.476 0.137 7.15 7.4 9.08
6/9/2022 5:45:00 AM 15.8 60.44 0.136 7.15 7.17 9.09
6/9/2022 6:00:00 AM 15.78 60.404 0.135 7.15 10 9.09
6/9/2022 6:15:00 AM 15.77 60.386 0.134 7.15 10.04 9.12
6/9/2022 6:30:00 AM 15.76 60.368 0.134 7.14 8.87 9.11
6/9/2022 6:45:00 AM 15.74 60.332 0.133 7.16 8.93 9.14
6/9/2022 7:00:00 AM 15.77 60.386 0.133 7.2 8.02 9.22
6/9/2022 7:15:00 AM 15.77 60.386 0.132 7.2 7.47 9.23
6/9/2022 7:30:00 AM 15.77 60.386 0.132 7.18 7.16 9.24
6/9/2022 7:45:00 AM 15.8 60.44 0.132 7.22 6.98 9.27
6/9/2022 8:00:00 AM 15.84 60.512 0.132 7.23 7.78 9.29
6/9/2022 8:15:00 AM 15.87 60.566 0.132 7.23 7.22 9.3
6/9/2022 8:30:00 AM 15.9 60.62 0.132 7.24 5.83 9.3
6/9/2022 8:45:00 AM 15.94 60.692 0.132 7.24 6.52 9.3
6/9/2022 9:00:00 AM 16 60.8 0.132 7.25 5.38 9.3
6/9/2022 9:15:00 AM 16.03 60.854 0.132 7.24 6.67 9.28
6/9/2022 9:30:00 AM 16.04 60.872 0.132 7.23 6.7 9.26
6/9/2022 9:45:00 AM 16.06 60.908 0.132 7.22 7.39 9.25
6/9/2022 10:00:00 AM 16.12 61.016 0.131 7.27 7.53 9.27
6/9/2022 10:15:00 AM 16.27 61.286 0.131 7.28 8.18 9.31
6/9/2022 10:30:00 AM 16.45 61.61 0.131 7.28 7.72 9.29
6/9/2022 10:45:00 AM 16.61 61.898 0.131 7.31 7.48 9.32
6/9/2022 11:00:00 AM 16.66 61.988 0.131 7.32 7.58 9.31
6/9/2022 11:15:00 AM 16.62 61.916 0.131 7.32 6.88 9.29
6/9/2022 11:30:00 AM 16.56 61.808 0.132 7.33 7.01 9.26
6/9/2022 11:45:00 AM 16.51 61.718 0.132 7.31 6.81 9.24
6/9/2022 12:00:00 PM 16.54 61.772 0.132 7.31 6.61 9.26
6/9/2022 12:15:00 PM 16.57 61.826 0.132 7.31 6.01 9.27
6/9/2022 12:30:00 PM 16.82 62.276 0.132 7.34 6.4 9.32
6/9/2022 12:45:00 PM 16.98 62.564 0.133 7.37 6.44 9.32
6/9/2022 1:00:00 PM 17.08 62.744 0.133 7.29 5.26 9.31
6/9/2022 1:15:00 PM 17.09 62.762 0.133 7.38 6.04 9.31
6/9/2022 1:30:00 PM 17.18 62.924 0.133 7.38 5.95 9.31
6/9/2022 1:45:00 PM 17.16 62.888 0.133 7.4 5.8 9.28
6/9/2022 2:00:00 PM 17.14 62.852 0.133 7.41 5.16 9.26
6/9/2022 2:15:00 PM 17.1 62.78 0.133 7.37 5.65 9.21
6/9/2022 2:30:00 PM 17.22 62.996 0.132 7.37 5.6 9.22
6/9/2022 2:45:00 PM 17.38 63.284 0.132 7.37 5.43 9.21
6/9/2022 3:00:00 PM 17.4 63.32 0.131 7.38 5.5 9.22
6/9/2022 3:15:00 PM 17.48 63.464 0.131 7.39 5.81 9.22
6/9/2022 3:30:00 PM 17.54 63.572 0.131 7.38 6.92 9.2
6/9/2022 3:45:00 PM 17.56 63.608 0.13 7.4 5.79 9.2
6/9/2022 4:00:00 PM 17.65 63.77 0.13 7.42 5.58 9.2
6/9/2022 4:15:00 PM 17.66 63.788 0.129 7.41 5.64 9.19
6/9/2022 4:30:00 PM 17.72 63.896 0.129 7.37 5.41 9.17
6/9/2022 4:45:00 PM 17.74 63.932 0.129 7.34 5.93 9.14
6/9/2022 5:00:00 PM 17.76 63.968 0.129 7.4 5.05 9.15
6/9/2022 5:15:00 PM 17.72 63.896 0.128 7.38 5.27 9.09
6/9/2022 5:30:00 PM 17.66 63.788 0.128 7.34 5.91 9.04
6/9/2022 5:45:00 PM 17.7 63.86 0.128 7.35 8.84 9.08
6/9/2022 6:00:00 PM 17.75 63.95 0.127 7.34 6.43 9.08
6/9/2022 6:15:00 PM 17.71 63.878 0.127 7.34 4.75 9.05
6/9/2022 6:30:00 PM 17.66 63.788 0.127 7.34 6.94 9.06
6/9/2022 6:45:00 PM 17.58 63.644 0.127 7.33 5.09 9.05
6/9/2022 7:00:00 PM 17.45 63.41 0.127 7.28 5.58 9.01
6/9/2022 7:15:00 PM 17.4 63.32 0.127 7.28 4.92 9.03
6/9/2022 7:30:00 PM 17.33 63.194 0.127 7.27 5.55 9.01
6/9/2022 7:45:00 PM 17.27 63.086 0.126 7.29 5.36 9.04
6/9/2022 8:00:00 PM 17.18 62.924 0.126 7.26 6 9.01
6/9/2022 8:15:00 PM 17.11 62.798 0.126 7.18 5.93 9.03
6/9/2022 8:30:00 PM 17.06 62.708 0.126 7.24 6.33 9.04
6/9/2022 8:45:00 PM 16.95 62.51 0.126 7.18 6.05 8.98
6/9/2022 9:00:00 PM 16.87 62.366 0.126 7.17 5.78 8.99
6/9/2022 9:15:00 PM 16.8 62.24 0.126 7.2 5.53 9.04
6/9/2022 9:30:00 PM 16.71 62.078 0.126 7.21 5.68 9.06
6/9/2022 9:45:00 PM 16.63 61.934 0.126 7.22 6.68 9.1
6/9/2022 10:00:00 PM 16.53 61.754 0.126 7.21 5.9 9.09
6/9/2022 10:15:00 PM 16.46 61.628 0.126 7.22 6.31 9.12
6/9/2022 10:30:00 PM 16.38 61.484 0.126 7.2 5.58 9.13
6/9/2022 10:45:00 PM 16.31 61.358 0.126 7.21 6.36 9.16
6/9/2022 11:00:00 PM 16.24 61.232 0.126 7.21 5.94 9.18
6/9/2022 11:15:00 PM 16.16 61.088 0.126 7.18 5.92 9.17
6/9/2022 11:30:00 PM 16.09 60.962 0.125 7.19 5.83 9.13
6/9/2022 11:45:00 PM 16.04 60.872 0.126 7.19 6.62 9.21
6/10/2022 12:00:00 AM 15.98 60.764 0.125 7.19 7 9.23
6/10/2022 12:15:00 AM 15.93 60.674 0.126 7.17 13.63 9.19
6/10/2022 12:30:00 AM 15.88 60.584 0.125 7.17 10.47 9.24
6/10/2022 12:45:00 AM 15.83 60.494 0.125 7.18 7.51 9.25
6/10/2022 1:00:00 AM 15.78 60.404 0.125 7.17 6.2 9.24
6/10/2022 1:15:00 AM 15.74 60.332 0.125 7.19 6.49 9.28
6/10/2022 1:30:00 AM 15.69 60.242 0.125 7.19 5.95 9.28
6/10/2022 1:45:00 AM 15.64 60.152 0.126 7.19 5.93 9.3
6/10/2022 2:00:00 AM 15.53 59.954 0.125 7.1 5.64 9.19
6/10/2022 2:15:00 AM 15.53 59.954 0.126 7.18 6.23 9.29
6/10/2022 2:30:00 AM 15.46 59.828 0.126 7.13 6.61 9.25
6/10/2022 2:45:00 AM 15.41 59.738 0.126 7.16 5.3 9.31
6/10/2022 3:00:00 AM 15.34 59.612 0.126 7.13 6.26 9.28
6/10/2022 3:15:00 AM 15.31 59.558 0.126 7.17 10.93 9.28
6/10/2022 3:30:00 AM 15.26 59.468 0.126 7.17 7.38 9.34
6/10/2022 3:45:00 AM 15.21 59.378 0.126 7.18 6.68 9.35
6/10/2022 4:00:00 AM 15.14 59.252 0.125 7.15 7.24 9.37
6/10/2022 4:15:00 AM 15.08 59.144 0.126 7.11 5.97 9.34
6/10/2022 4:30:00 AM 15.05 59.09 0.12 7.16 6.26 9.39
6/10/2022 4:45:00 AM 15 59 0.126 7.16 5.96 9.36
6/10/2022 5:00:00 AM 14.95 58.91 0.126 7.16 5.48 9.42
6/10/2022 5:15:00 AM 14.87 58.766 0.126 7.11 6.13 9.37
6/10/2022 5:30:00 AM 14.87 58.766 0.12 7.17 8.25 9.42
6/10/2022 5:45:00 AM 14.82 58.676 0.126 7.19 5.44 9.47
6/10/2022 6:00:00 AM 14.76 58.568 0.126 7.15 6.53 9.46
6/10/2022 6:15:00 AM 14.73 58.514 0.126 7.19 5.27 9.51
6/10/2022 6:30:00 AM 14.69 58.442 0.126 7.17 5.29 9.51
6/10/2022 6:45:00 AM 14.66 58.388 0.126 7.17 12.47 9.49
6/10/2022 7:00:00 AM 14.66 58.388 0.126 7.2 5.75 9.55
6/10/2022 7:15:00 AM 14.57 58.226 0.126 7.08 5.95 9.43
6/10/2022 7:30:00 AM 14.64 58.352 0.12 7.18 5.02 9.54
6/10/2022 7:45:00 AM 14.69 58.442 0.12 7.22 5.33 9.59
6/10/2022 8:00:00 AM 14.72 58.496 0.126 7.21 5.44 9.58
6/10/2022 8:15:00 AM 14.75 58.55 0.126 7.13 4.58 9.58
6/10/2022 8:30:00 AM 14.81 58.658 0.126 7.21 4.97 9.58
6/10/2022 8:45:00 AM 14.88 58.784 0.12 7.23 4.69 9.57
6/10/2022 9:00:00 AM 14.97 58.946 0.126 7.22 5.03 9.57
6/10/2022 9:15:00 AM 15.09 59.162 0.119 7.26 147.99 9.54
6/10/2022 9:30:00 AM 15.24 59.432 0.126 7.28 10.4 9.59
6/10/2022 9:45:00 AM 15.29 59.522 0.126 7.21 5.39 9.51
6/10/2022 10:00:00 AM 15.49 59.882 0.126 7.29 4.44 9.57
6/10/2022 10:15:00 AM 15.63 60.134 0.126 7.28 5.9 9.54
6/10/2022 10:30:00 AM 15.65 60.17 0.125 7.17 5.14 9.4
6/10/2022 10:45:00 AM 15.86 60.548 0.126 7.25 4.97 9.47
6/10/2022 11:00:00 AM 16.05 60.89 0.126 7.29 4.58 9.51
6/10/2022 11:15:00 AM 16.18 61.124 0.126 7.29 4.36 9.49
6/10/2022 11:30:00 AM 16.32 61.376 0.126 7.3 4.37 9.47
6/10/2022 11:45:00 AM 16.42 61.556 0.126 7.33 5 9.47
6/10/2022 12:00:00 PM 16.48 61.664 0.126 7.2 4.34 9.29
6/10/2022 12:15:00 PM 16.77 62.186 0.126 7.29 4.52 9.36
6/10/2022 12:30:00 PM 16.95 62.51 0.126 7.32 4.54 9.36
6/10/2022 12:45:00 PM 17.14 62.852 0.126 7.3 4.54 9.36
6/10/2022 1:00:00 PM 17.22 62.996 0.126 7.34 4.45 9.3
6/10/2022 1:15:00 PM 17.2 62.96 0.125 7.31 4.67 9.27
6/10/2022 1:30:00 PM 17.3 63.14 0.126 7.27 4.64 9.22
6/10/2022 1:45:00 PM 17.38 63.284 0.126 7.33 4.51 9.24
6/10/2022 2:00:00 PM 17.43 63.374 0.126 7.35 6.28 9.24
6/10/2022 2:15:00 PM 17.66 63.788 0.126 7.37 4.88 9.27
6/10/2022 2:30:00 PM 17.73 63.914 0.126 7.32 4.77 9.19
6/10/2022 2:45:00 PM 17.68 63.824 0.126 7.33 5.22 9.2
6/10/2022 3:00:00 PM 17.7 63.86 0.126 7.37 5.1 9.21
6/10/2022 3:15:00 PM 17.64 63.752 0.126 7.33 5.39 9.2
6/10/2022 3:30:00 PM 17.71 63.878 0.126 7.34 4.69 9.18
6/10/2022 3:45:00 PM 17.7 63.86 0.125 7.31 4.79 9.17
6/10/2022 4:00:00 PM 17.8 64.04 0.126 7.38 4.74 9.18
6/10/2022 4:15:00 PM 17.81 64.058 0.126 7.36 5.17 9.16
6/10/2022 4:30:00 PM 17.9 64.22 0.126 7.36 4.41 9.12
6/10/2022 4:45:00 PM 17.97 64.346 0.126 7.34 4.38 9.14
6/10/2022 5:00:00 PM 18.03 64.454 0.126 7.35 4.82 9.1
6/10/2022 5:15:00 PM 18.09 64.562 0.126 7.38 4.48 9.11
6/10/2022 5:30:00 PM 18.09 64.562 0.126 7.36 4.78 9.09
6/10/2022 5:45:00 PM 18.03 64.454 0.126 7.33 4.78 9.05
6/10/2022 6:00:00 PM 18.01 64.418 0.126 7.29 4.84 9.02
6/10/2022 6:15:00 PM 17.94 64.292 0.127 7.21 5.05 8.98
6/10/2022 6:30:00 PM 17.9 64.22 0.126 7.24 4.89 8.91
6/10/2022 6:45:00 PM 17.93 64.274 0.127 7.28 4.96 9
6/10/2022 7:00:00 PM 17.85 64.13 0.127 7.22 4.88 8.94
6/10/2022 7:15:00 PM 17.76 63.968 0.127 7.2 4.66 8.89
6/10/2022 7:30:00 PM 17.75 63.95 0.127 7.2 5.61 8.94
6/10/2022 7:45:00 PM 17.72 63.896 0.127 7.22 5.15 8.93
6/10/2022 8:00:00 PM 17.65 63.77 0.127 7.22 5.8 8.91
6/10/2022 8:15:00 PM 17.58 63.644 0.127 7.18 5.61 8.91
6/10/2022 8:30:00 PM 17.49 63.482 0.127 7.2 5.55 8.93
6/10/2022 8:45:00 PM 17.39 63.302 0.127 7.23 4.93 8.94
6/10/2022 9:00:00 PM 17.26 63.068 0.127 7.21 5.46 8.96
6/10/2022 9:15:00 PM 17.1 62.78 0.127 7.17 5.54 8.9
6/10/2022 9:30:00 PM 17.01 62.618 0.127 7.19 5.47 8.99
6/10/2022 9:45:00 PM 16.89 62.402 0.127 7.2 5.54 9.02
6/10/2022 10:00:00 PM 16.71 62.078 0.128 7.09 17.39 8.9
6/10/2022 10:15:00 PM 16.68 62.024 0.129 7.19 8.26 9.05
6/10/2022 10:30:00 PM 16.58 61.844 0.129 7.17 7.87 9.08
6/10/2022 10:45:00 PM 16.49 61.682 0.13 7.19 5.65 9.1
6/10/2022 11:00:00 PM 16.41 61.538 0.13 7.21 5.78 9.15
6/10/2022 11:15:00 PM 16.29 61.322 0.13 7.19 5.16 9.12
6/10/2022 11:30:00 PM 16.24 61.232 0.131 7.21 6.19 9.17
6/10/2022 11:45:00 PM 16.15 61.07 0.131 7.19 6.26 9.17
6/11/2022 12:00:00 AM 16.09 60.962 0.131 7.21 5.36 9.21
6/11/2022 12:15:00 AM 16 60.8 0.131 7.2 5.1 9.2
6/11/2022 12:30:00 AM 15.94 60.692 0.131 7.21 5.73 9.25
6/11/2022 12:45:00 AM 15.85 60.53 0.131 7.17 6.21 9.24
6/11/2022 1:00:00 AM 15.79 60.422 0.131 7.21 6.03 9.28
6/11/2022 1:15:00 AM 15.7 60.26 0.131 7.18 5.84 9.24
6/11/2022 1:30:00 AM 15.66 60.188 0.131 7.21 6.34 9.31
6/11/2022 1:45:00 AM 15.56 60.008 0.131 7.18 5.06 9.28
6/11/2022 2:00:00 AM 15.5 59.9 0.131 7.2 5.49 9.33
6/11/2022 2:15:00 AM 15.42 59.756 0.131 7.19 4.85 9.33
6/11/2022 2:30:00 AM 15.33 59.594 0.131 7.16 5.73 9.33
6/11/2022 2:45:00 AM 15.28 59.504 0.131 7.19 5.61 9.36
6/11/2022 3:00:00 AM 15.21 59.378 0.131 7.2 5.78 9.39
6/11/2022 3:15:00 AM 15.13 59.234 0.131 7.18 5.47 9.39
6/11/2022 3:30:00 AM 15.07 59.126 0.131 7.2 5.52 9.41
6/11/2022 3:45:00 AM 14.98 58.964 0.131 7.15 5.95 9.37
6/11/2022 4:00:00 AM 14.94 58.892 0.131 7.19 5.24 9.43
6/11/2022 4:15:00 AM 14.89 58.802 0.131 7.19 6.07 9.46
6/11/2022 4:30:00 AM 14.83 58.694 0.131 7.2 5.92 9.47
6/11/2022 4:45:00 AM 14.66 58.388 0.131 6.98 5.14 9.4
6/11/2022 5:00:00 AM 14.7 58.46 0.131 7.2 5.43 9.5
6/11/2022 5:15:00 AM 14.64 58.352 0.131 7.18 6.54 9.48
6/11/2022 5:30:00 AM 14.59 58.262 0.131 7.19 5.99 9.51
6/11/2022 5:45:00 AM 14.55 58.19 0.132 7.18 7.14 9.52
6/11/2022 6:00:00 AM 14.5 58.1 0.132 7.19 5 9.52
6/11/2022 6:15:00 AM 14.48 58.064 0.132 7.21 4.51 9.58
6/11/2022 6:30:00 AM 14.45 58.01 0.132 7.2 6.51 9.59
6/11/2022 6:45:00 AM 14.42 57.956 0.132 7.21 4.8 9.62
6/11/2022 7:00:00 AM 14.39 57.902 0.132 7.21 4.58 9.64
6/11/2022 7:15:00 AM 14.38 57.884 0.132 7.22 4.73 9.66
6/11/2022 7:30:00 AM 14.36 57.848 0.132 7.19 4.75 9.62
6/11/2022 7:45:00 AM 14.39 57.902 0.132 7.25 5.53 9.72
6/11/2022 8:00:00 AM 14.42 57.956 0.132 7.25 4.11 9.73
6/11/2022 8:15:00 AM 14.44 57.992 0.132 7.24 4.15 9.72
6/11/2022 8:30:00 AM 14.45 58.01 0.132 7.13 4.03 9.7
6/11/2022 8:45:00 AM 14.5 58.1 0.132 7.22 4.57 9.72
6/11/2022 9:00:00 AM 14.55 58.19 0.131 7.24 4.37 9.76
6/11/2022 9:15:00 AM 14.6 58.28 0.132 7.27 4.66 9.78
6/11/2022 9:30:00 AM 14.63 58.334 0.132 7.18 3.63 9.75
6/11/2022 9:45:00 AM 14.7 58.46 0.131 7.27 3.86 9.76
6/11/2022 10:00:00 AM 14.78 58.604 0.132 7.24 4.9 9.78
6/11/2022 10:15:00 AM 14.87 58.766 0.131 7.17 3.86 9.69
6/11/2022 10:30:00 AM 15.14 59.252 0.131 7.26 4.25 9.77
6/11/2022 10:45:00 AM 15.31 59.558 0.131 7.28 4.27 9.71
6/11/2022 11:00:00 AM 15.46 59.828 0.132 7.29 3.87 9.74
6/11/2022 11:15:00 AM 15.55 59.99 0.131 7.31 4.57 9.71
6/11/2022 11:30:00 AM 15.59 60.062 0.131 7.3 4.85 9.67
6/11/2022 11:45:00 AM 15.71 60.278 0.132 7.33 4.15 9.71
6/11/2022 12:00:00 PM 15.83 60.494 0.131 7.29 3.7 9.69
6/11/2022 12:15:00 PM 15.89 60.602 0.131 7.26 4.63 9.57
6/11/2022 12:30:00 PM 15.93 60.674 0.132 7.32 4.29 9.58
6/11/2022 12:45:00 PM 15.96 60.728 0.132 7.22 4.16 9.56
6/11/2022 1:00:00 PM 16.02 60.836 0.132 7.29 4.37 9.51
6/11/2022 1:15:00 PM 16.07 60.926 0.131 7.27 3.99 9.49
6/11/2022 1:30:00 PM 16.17 61.106 0.131 7.31 3.67 9.53
6/11/2022 1:45:00 PM 16.21 61.178 0.131 7.12 3.83 9.52
6/11/2022 2:00:00 PM 16.27 61.286 0.131 7.31 4.3 9.42
6/11/2022 2:15:00 PM 16.38 61.484 0.131 7.36 4.11 9.51
6/11/2022 2:30:00 PM 16.45 61.61 0.131 7.37 3.74 9.5
6/11/2022 2:45:00 PM 16.61 61.898 0.131 7.36 4.22 9.5
6/11/2022 3:00:00 PM 16.84 62.312 0.131 7.35 3.62 9.47
6/11/2022 3:15:00 PM 17.03 62.654 0.13 7.35 5.1 9.43
6/11/2022 3:30:00 PM 17.13 62.834 0.131 7.38 4.46 9.42
6/11/2022 3:45:00 PM 17.2 62.96 0.131 7.4 4.06 9.44
6/11/2022 4:00:00 PM 17.28 63.104 0.131 7.39 3.77 9.4
6/11/2022 4:15:00 PM 17.35 63.23 0.131 7.36 3.7 9.35
6/11/2022 4:30:00 PM 17.41 63.338 0.131 7.38 4.33 9.31
6/11/2022 4:45:00 PM 17.43 63.374 0.131 7.36 3.96 9.28
6/11/2022 5:00:00 PM 17.4 63.32 0.131 7.24 4.37 9.18
6/11/2022 5:15:00 PM 17.47 63.446 0.131 7.26 3.77 9.2
6/11/2022 5:30:00 PM 17.53 63.554 0.132 7.34 6.04 9.2
6/11/2022 5:45:00 PM 17.55 63.59 0.131 7.3 5.12 9.15
6/11/2022 6:00:00 PM 17.54 63.572 0.131 7.27 4.2 9.08
6/11/2022 6:15:00 PM 17.6 63.68 0.132 7.33 4.22 9.13
6/11/2022 6:30:00 PM 17.48 63.464 0.13 7.28 3.75 9.07
6/11/2022 6:45:00 PM 17.43 63.374 0.132 7.25 4.11 8.98
6/11/2022 7:00:00 PM 17.44 63.392 0.132 7.29 4.12 9.06
6/11/2022 7:15:00 PM 17.31 63.158 0.132 7.23 4.09 8.96
6/11/2022 7:30:00 PM 17.26 63.068 0.132 7.23 5.17 8.94
6/11/2022 7:45:00 PM 17.27 63.086 0.132 7.27 4.28 9.01
6/11/2022 8:00:00 PM 17.17 62.906 0.132 7.21 4.21 8.91
6/11/2022 8:15:00 PM 17.15 62.87 0.132 7.24 4.45 9
6/11/2022 8:30:00 PM 17.06 62.708 0.133 7.22 4.75 8.97
6/11/2022 8:45:00 PM 16.98 62.564 0.133 7.21 4.54 8.97
6/11/2022 9:00:00 PM 16.87 62.366 0.133 7.19 4.11 8.93
6/11/2022 9:15:00 PM 16.74 62.132 0.133 7.17 4.43 8.96
6/11/2022 9:30:00 PM 16.62 61.916 0.132 7.19 6.51 8.94
6/11/2022 9:45:00 PM 16.49 61.682 0.133 7.14 4.6 8.99
6/11/2022 10:00:00 PM 16.39 61.502 0.133 7.18 4.67 9.05
6/11/2022 10:15:00 PM 16.15 61.07 0.133 7.18 4.59 9.02
6/11/2022 10:30:00 PM 16.15 61.07 0.133 7.17 4.57 9.11
6/11/2022 10:45:00 PM 16.05 60.89 0.133 7.19 4.34 9.15
6/11/2022 11:00:00 PM 15.94 60.692 0.133 7.19 5.24 9.15
6/11/2022 11:15:00 PM 15.86 60.548 0.133 7.2 4.69 9.2
6/11/2022 11:30:00 PM 15.76 60.368 0.133 7.2 5.54 9.22
6/11/2022 11:45:00 PM 15.68 60.224 0.133 7.21 4.97 9.26
6/12/2022 12:00:00 AM 15.58 60.044 0.133 7.2 4.8 9.27
6/12/2022 12:15:00 AM 15.51 59.918 0.133 7.21 6.42 9.3
6/12/2022 12:30:00 AM 15.42 59.756 0.133 7.2 4.72 9.31
6/12/2022 12:45:00 AM 15.36 59.648 0.133 7.2 5.28 9.34
6/12/2022 1:00:00 AM 15.27 59.486 0.133 7.17 4.82 9.29
6/12/2022 1:15:00 AM 15.22 59.396 0.133 7.19 5.04 9.35
6/12/2022 1:30:00 AM 15.15 59.27 0.133 7.19 4.47 9.36
6/12/2022 1:45:00 AM 15.09 59.162 0.133 7.18 4.73 9.35
6/12/2022 2:00:00 AM 15.04 59.072 0.133 7.19 5.03 9.4
6/12/2022 2:15:00 AM 14.99 58.982 0.133 7.18 5.49 9.38
6/12/2022 2:30:00 AM 14.93 58.874 0.133 7.19 5.21 9.4
6/12/2022 2:45:00 AM 14.9 58.82 0.133 7.2 4.7 9.43
6/12/2022 3:00:00 AM 14.84 58.712 0.134 7.19 4.92 9.44
6/12/2022 3:15:00 AM 14.79 58.622 0.134 7.19 4.59 9.45
6/12/2022 3:30:00 AM 14.75 58.55 0.134 7.19 4.61 9.45
6/12/2022 3:45:00 AM 14.71 58.478 0.134 7.18 10.48 9.47
6/12/2022 4:00:00 AM 14.67 58.406 0.134 7.19 4.87 9.48
6/12/2022 4:15:00 AM 14.62 58.316 0.134 7.17 4.33 9.47
6/12/2022 4:30:00 AM 14.6 58.28 0.134 7.18 4.29 9.49
6/12/2022 4:45:00 AM 14.57 58.226 0.134 7.19 4.11 9.5
6/12/2022 5:00:00 AM 14.52 58.136 0.134 7.17 4.5 9.48
6/12/2022 5:15:00 AM 14.5 58.1 0.134 7.18 4.76 9.5
6/12/2022 5:30:00 AM 14.47 58.046 0.134 7.19 5.24 9.52
6/12/2022 5:45:00 AM 14.45 58.01 0.134 7.18 4.93 9.55
6/12/2022 6:00:00 AM 14.42 57.956 0.134 7.17 7.25 9.52
6/12/2022 6:15:00 AM 14.39 57.902 0.134 7.15 6.1 9.51
6/12/2022 6:30:00 AM 14.38 57.884 0.134 7.13 4.38 9.54
6/12/2022 6:45:00 AM 14.39 57.902 0.134 7.19 4.43 9.59
6/12/2022 7:00:00 AM 14.39 57.902 0.134 7.22 3.83 9.64
6/12/2022 7:15:00 AM 14.4 57.92 0.134 7.21 4.25 9.65
6/12/2022 7:30:00 AM 14.42 57.956 0.134 7.19 4.05 9.67
6/12/2022 7:45:00 AM 14.46 58.028 0.134 7.25 4.22 9.71
6/12/2022 8:00:00 AM 14.51 58.118 0.134 7.24 3.91 9.73
6/12/2022 8:15:00 AM 14.58 58.244 0.134 7.28 3.69 9.75
6/12/2022 8:30:00 AM 14.64 58.352 0.134 7.25 3.76 9.75
6/12/2022 8:45:00 AM 14.72 58.496 0.134 7.28 4.62 9.74
6/12/2022 9:00:00 AM 14.77 58.586 0.134 7.21 4.07 9.74
6/12/2022 9:15:00 AM 14.91 58.838 0.134 7.32 3.73 9.78
6/12/2022 9:30:00 AM 15.02 59.036 0.134 7.32 3.77 9.77
6/12/2022 9:45:00 AM 15.12 59.216 0.134 7.31 4.53 9.73
6/12/2022 10:00:00 AM 15.21 59.378 0.134 7.33 3.94 9.7
6/12/2022 10:15:00 AM 15.42 59.756 0.134 7.35 3.68 9.74
6/12/2022 10:30:00 AM 15.53 59.954 0.134 7.38 4.1 9.74
6/12/2022 10:45:00 AM 15.56 60.008 0.134 7.36 4.27 9.68
6/12/2022 11:00:00 AM 15.6 60.08 0.134 7.35 3.87 9.67
6/12/2022 11:15:00 AM 15.64 60.152 0.134 7.4 4.17 9.68
6/12/2022 11:30:00 AM 15.64 60.152 0.134 7.37 3.75 9.61
6/12/2022 11:45:00 AM 15.81 60.458 0.134 7.38 4.45 9.67
6/12/2022 12:00:00 PM 15.89 60.602 0.134 7.38 3.87 9.65
6/12/2022 12:15:00 PM 15.93 60.674 0.134 7.38 3.94 9.59
6/12/2022 12:30:00 PM 15.93 60.674 0.134 7.35 3.86 9.52
6/12/2022 12:45:00 PM 15.98 60.764 0.134 7.37 3.67 9.57
6/12/2022 1:00:00 PM 16.01 60.818 0.134 7.35 3.68 9.55
6/12/2022 1:15:00 PM 16.12 61.016 0.134 7.29 4.04 9.5
6/12/2022 1:30:00 PM 16.34 61.412 0.134 7.37 3.75 9.54
6/12/2022 1:45:00 PM 16.49 61.682 0.134 7.36 4.18 9.47
6/12/2022 2:00:00 PM 16.73 62.114 0.134 7.39 3.91 9.52
6/12/2022 2:15:00 PM 16.89 62.402 0.134 7.39 3.9 9.46
6/12/2022 2:30:00 PM 17.03 62.654 0.134 7.44 4.03 9.48
6/12/2022 2:45:00 PM 17.05 62.69 0.134 7.45 4.3 9.46
6/12/2022 3:00:00 PM 17.05 62.69 0.134 7.41 3.89 9.43
6/12/2022 3:15:00 PM 17.06 62.708 0.134 7.37 4.29 9.32
6/12/2022 3:30:00 PM 17.11 62.798 0.134 7.35 4.05 9.28
6/12/2022 3:45:00 PM 17.16 62.888 0.134 7.42 4.19 9.36
6/12/2022 4:00:00 PM 17.15 62.87 0.134 7.33 4.07 9.25
6/12/2022 4:15:00 PM 17.28 63.104 0.134 7.39 3.79 9.33
6/12/2022 4:30:00 PM 17.32 63.176 0.134 7.36 3.99 9.27
6/12/2022 4:45:00 PM 17.33 63.194 0.135 7.4 3.99 9.23
6/12/2022 5:00:00 PM 17.36 63.248 0.135 7.38 4.22 9.24
6/12/2022 5:15:00 PM 17.34 63.212 0.135 7.32 4 9.18
6/12/2022 5:30:00 PM 17.37 63.266 0.135 7.36 3.94 9.17
6/12/2022 5:45:00 PM 17.39 63.302 0.135 7.34 3.96 9.17
6/12/2022 6:00:00 PM 17.37 63.266 0.135 7.32 3.55 9.13
6/12/2022 6:15:00 PM 17.32 63.176 0.135 7.28 4.03 9.08
6/12/2022 6:30:00 PM 17.35 63.23 0.135 7.33 3.92 9.11
6/12/2022 6:45:00 PM 17.31 63.158 0.135 7.3 6.09 9.05
6/12/2022 7:00:00 PM 17.29 63.122 0.136 7.3 4.48 9.07
6/12/2022 7:15:00 PM 17.22 62.996 0.135 7.26 4.3 8.99
6/12/2022 7:30:00 PM 17.21 62.978 0.136 7.27 2.26 9.01
6/12/2022 7:45:00 PM 17.14 62.852 0.136 7.23 4.26 8.96
6/12/2022 8:00:00 PM 17.12 62.816 0.136 7.23 4.91 8.98
6/12/2022 8:15:00 PM 17.1 62.78 0.135 7.22 4.5 8.96
6/12/2022 8:30:00 PM 17.06 62.708 0.134 7.21 5.09 8.93
6/12/2022 8:45:00 PM 17.02 62.636 0.134 7.2 4.5 8.94
6/12/2022 9:00:00 PM 16.96 62.528 0.135 7.19 9.46 8.93
6/12/2022 9:15:00 PM 16.9 62.42 0.135 7.19 8.24 8.94
6/12/2022 9:30:00 PM 16.82 62.276 0.135 7.16 4.78 8.91
6/12/2022 9:45:00 PM 16.78 62.204 0.135 7.17 4.71 8.96
6/12/2022 10:00:00 PM 16.74 62.132 0.135 7.17 5.45 8.97
6/12/2022 10:15:00 PM 16.7 62.06 0.135 7.18 4.55 8.99
6/12/2022 10:30:00 PM 16.66 61.988 0.135 7.18 4.86 9.02
6/12/2022 10:45:00 PM 16.61 61.898 0.135 7.15 4.97 9.01
6/12/2022 11:00:00 PM 16.56 61.808 0.136 7.15 5.4 8.99
6/12/2022 11:15:00 PM 16.52 61.736 0.136 7.16 4.76 9.03
6/12/2022 11:30:00 PM 16.5 61.7 0.136 7.16 4.19 9.05
6/12/2022 11:45:00 PM 16.47 61.646 0.136 7.16 5.44 9.06
6/13/2022 12:00:00 AM 16.43 61.574 0.136 7.17 4.5 9.07
6/13/2022 12:15:00 AM 16.38 61.484 0.136 7.15 5.19 9.04
6/13/2022 12:30:00 AM 16.38 61.484 0.136 7.16 4.96 9.09
6/13/2022 12:45:00 AM 16.34 61.412 0.136 7.18 4.52 9.1
6/13/2022 1:00:00 AM 16.31 61.358 0.136 7.16 4.41 9.09
6/13/2022 1:15:00 AM 16.26 61.268 0.136 7.15 4.47 9.07
6/13/2022 1:30:00 AM 16.26 61.268 0.136 7.18 4.69 9.11
6/13/2022 1:45:00 AM 16.24 61.232 0.136 7.16 4.09 9.13
6/13/2022 2:00:00 AM 16.21 61.178 0.136 7.15 4.46 9.13
6/13/2022 2:15:00 AM 16.18 61.124 0.136 7.16 4.7 9.14
6/13/2022 2:30:00 AM 16.15 61.07 0.136 7.15 4.71 9.15
6/13/2022 2:45:00 AM 16.13 61.034 0.136 7.16 4.17 9.15
6/13/2022 3:00:00 AM 16.11 60.998 0.136 7.16 4.62 9.16
6/13/2022 3:15:00 AM 16.09 60.962 0.136 7.15 5.18 9.15
6/13/2022 3:30:00 AM 16.09 60.962 0.136 7.17 4.5 9.17
6/13/2022 3:45:00 AM 16.08 60.944 0.136 7.17 4.89 9.17
6/13/2022 4:00:00 AM 16.05 60.89 0.136 7.18 4.2 9.17
6/13/2022 4:15:00 AM 16.04 60.872 0.136 7.19 6.38 9.18
6/13/2022 4:30:00 AM 16.02 60.836 0.136 7.18 4.22 9.19
6/13/2022 4:45:00 AM 16.01 60.818 0.136 7.18 4.98 9.2
6/13/2022 5:00:00 AM 15.99 60.782 0.136 7.19 5.29 9.2
6/13/2022 5:15:00 AM 15.97 60.746 0.136 7.2 4.53 9.21
6/13/2022 5:30:00 AM 15.95 60.71 0.136 7.19 5.16 9.2
6/13/2022 5:45:00 AM 15.94 60.692 0.136 7.2 7.22 9.21
6/13/2022 6:00:00 AM 15.93 60.674 0.136 7.2 5.19 9.2
6/13/2022 6:15:00 AM 15.92 60.656 0.136 7.21 4.87 9.24
6/13/2022 6:30:00 AM 15.88 60.584 0.136 7.16 4.78 9.22
6/13/2022 6:45:00 AM 15.91 60.638 0.136 7.21 4.19 9.28
6/13/2022 7:00:00 AM 15.9 60.62 0.136 7.2 4.29 9.27
6/13/2022 7:15:00 AM 15.92 60.656 0.136 7.23 4.5 9.32
6/13/2022 7:30:00 AM 15.93 60.674 0.136 7.24 4.65 9.35
6/13/2022 7:45:00 AM 15.96 60.728 0.136 7.27 4.18 9.39
6/13/2022 8:00:00 AM 15.99 60.782 0.136 7.28 4.15 9.4
6/13/2022 8:15:00 AM 16.01 60.818 0.136 7.27 3.94 9.41
6/13/2022 8:30:00 AM 16.05 60.89 0.136 7.29 4.06 9.44
6/13/2022 8:45:00 AM 16.08 60.944 0.136 7.28 4.11 9.45
6/13/2022 9:00:00 AM 16.12 61.016 0.136 7.29 4.02 9.46
6/13/2022 9:15:00 AM 16.17 61.106 0.136 7.3 3.99 9.46
6/13/2022 9:30:00 AM 16.19 61.142 0.136 7.27 3.95 9.41
6/13/2022 9:45:00 AM 16.31 61.358 0.136 7.34 5.17 9.48
6/13/2022 10:00:00 AM 16.41 61.538 0.136 7.33 3.87 9.53
6/13/2022 10:15:00 AM 16.52 61.736 0.136 7.31 3.95 9.49
6/13/2022 10:30:00 AM 16.71 62.078 0.136 7.34 3.88 9.49
6/13/2022 10:45:00 AM 16.94 62.492 0.136 7.37 3.91 9.46
6/13/2022 11:00:00 AM 17.19 62.942 0.136 7.38 3.99 9.45
6/13/2022 11:15:00 AM 17.39 63.302 0.136 7.34 3.95 9.4
6/13/2022 11:30:00 AM 17.57 63.626 0.136 7.4 3.81 9.38
6/13/2022 11:45:00 AM 17.66 63.788 0.136 7.37 3.75 9.35
6/13/2022 12:00:00 PM 17.8 64.04 0.135 7.27 3.93 9.21
6/13/2022 12:15:00 PM 18.13 64.634 0.136 7.4 3.75 9.27
6/13/2022 12:30:00 PM 18.31 64.958 0.135 7.35 3.88 9.2
6/13/2022 12:45:00 PM 18.58 65.444 0.136 7.42 4.13 9.23
6/13/2022 1:00:00 PM 18.8 65.84 0.136 7.4 4.27 9.14
6/13/2022 1:15:00 PM 19.09 66.362 0.136 7.44 4.01 9.15
6/13/2022 1:30:00 PM 19.27 66.686 0.136 7.41 4.38 9.07
6/13/2022 1:45:00 PM 19.51 67.118 0.136 7.4 3.86 9.03
6/13/2022 2:00:00 PM 19.72 67.496 0.136 7.47 4.02 9.01
6/13/2022 2:15:00 PM 19.74 67.532 0.136 7.43 3.89 8.96
6/13/2022 2:30:00 PM 19.8 67.64 0.136 7.42 4.4 8.91
6/13/2022 2:45:00 PM 19.86 67.748 0.136 7.42 3.94 8.89
6/13/2022 3:00:00 PM 19.89 67.802 0.136 7.44 4.07 8.89
6/13/2022 3:15:00 PM 19.9 67.82 0.136 7.39 4.23 8.88
6/13/2022 3:30:00 PM 19.95 67.91 0.136 7.44 4.05 8.9
6/13/2022 3:45:00 PM 19.97 67.946 0.136 7.42 4.36 8.87
6/13/2022 4:00:00 PM 19.96 67.92799 0.136 7.39 3.92 8.83
6/13/2022 4:15:00 PM 19.96 67.92799 0.136 7.39 4.62 8.81
6/13/2022 4:30:00 PM 19.95 67.91 0.136 7.36 4.44 8.76
6/13/2022 4:45:00 PM 20.02 68.036 0.136 7.43 5.05 8.81
6/13/2022 5:00:00 PM 19.96 67.92799 0.136 7.35 5.35 8.76
6/13/2022 5:15:00 PM 19.96 67.92799 0.136 7.39 4.48 8.78
6/13/2022 5:30:00 PM 19.85 67.73 0.136 7.32 4.83 8.61
6/13/2022 5:45:00 PM 19.9 67.82 0.136 7.37 4.15 8.74
6/13/2022 6:00:00 PM 19.94 67.892 0.136 7.35 4.38 8.75
6/13/2022 6:15:00 PM 19.88 67.784 0.137 7.38 4.32 8.72
6/13/2022 6:30:00 PM 19.81 67.658 0.137 7.35 4.61 8.69
6/13/2022 6:45:00 PM 19.67 67.406 0.137 7.3 4.11 8.61
6/13/2022 7:00:00 PM 19.62 67.316 0.137 7.33 4.72 8.64
6/13/2022 7:15:00 PM 19.54 67.172 0.137 7.3 4.67 8.62
6/13/2022 7:30:00 PM 19.45 67.01 0.137 7.28 4.35 8.6
6/13/2022 7:45:00 PM 19.4 66.92 0.138 7.32 3.94 8.63
6/13/2022 8:00:00 PM 19.28 66.704 0.138 7.27 7.99 8.57
6/13/2022 8:15:00 PM 19.21 66.578 0.138 7.27 5.89 8.58
6/13/2022 8:30:00 PM 19.12 66.416 0.138 7.25 4.43 8.54
6/13/2022 8:45:00 PM 19.06 66.308 0.138 7.27 5.06 8.6
6/13/2022 9:00:00 PM 18.88 65.984 0.138 7.17 5.04 8.44
6/13/2022 9:15:00 PM 18.82 65.876 0.138 7.23 2.3 8.59
6/13/2022 9:30:00 PM 18.72 65.696 0.138 7.22 5.56 8.61
6/13/2022 9:45:00 PM 18.6 65.48 0.138 7.24 5.09 8.63
6/13/2022 10:00:00 PM 18.49 65.282 0.138 7.24 4.77 8.66
6/13/2022 10:15:00 PM 18.33 64.994 0.138 7.17 4.4 8.63
6/13/2022 10:30:00 PM 18.22 64.796 0.138 7.22 4.99 8.68
6/13/2022 10:45:00 PM 18.08 64.544 0.138 7.22 4.56 8.74
6/13/2022 11:00:00 PM 17.96 64.328 0.138 7.22 4.02 8.76
6/13/2022 11:15:00 PM 17.81 64.058 0.138 7.2 4.8 8.74
6/13/2022 11:30:00 PM 17.69 63.842 0.139 7.18 4.75 8.74
6/13/2022 11:45:00 PM 17.6 63.68 0.139 7.22 4.43 8.83
6/14/2022 12:00:00 AM 17.49 63.482 0.138 7.21 4.38 8.85
6/14/2022 12:15:00 AM 17.38 63.284 0.139 7.19 4.32 8.87
6/14/2022 12:30:00 AM 17.28 63.104 0.138 7.18 4.51 8.87
6/14/2022 12:45:00 AM 17.18 62.924 0.138 7.18 4.42 8.83
6/14/2022 1:00:00 AM 17.13 62.834 0.139 7.21 2.65 8.92
6/14/2022 1:15:00 AM 17.05 62.69 0.139 7.19 4.52 8.92
6/14/2022 1:30:00 AM 16.98 62.564 0.139 7.19 4.29 8.92
6/14/2022 1:45:00 AM 16.92 62.456 0.139 7.19 5.31 8.93
6/14/2022 2:00:00 AM 16.87 62.366 0.139 7.21 4.35 8.98
6/14/2022 2:15:00 AM 16.78 62.204 0.139 7.16 4.42 8.9
6/14/2022 2:30:00 AM 16.74 62.132 0.139 7.18 4.08 8.96
6/14/2022 2:45:00 AM 16.69 62.042 0.139 7.19 5.03 8.99
6/14/2022 3:00:00 AM 16.64 61.952 0.139 7.15 4.15 8.97
6/14/2022 3:15:00 AM 16.61 61.898 0.139 7.18 4.16 8.99
6/14/2022 3:30:00 AM 16.56 61.808 0.139 7.18 3.94 9.01
6/14/2022 3:45:00 AM 16.5 61.7 0.139 7.16 4.51 8.99
6/14/2022 4:00:00 AM 16.47 61.646 0.139 7.16 8.4 9.01
6/14/2022 4:15:00 AM 16.44 61.592 0.139 7.16 4.29 9.04
6/14/2022 4:30:00 AM 16.42 61.556 0.139 7.18 4.17 9.05
6/14/2022 4:45:00 AM 16.36 61.448 0.139 7.16 4.75 8.97
6/14/2022 5:00:00 AM 16.36 61.448 0.139 7.2 4.51 9.1
6/14/2022 5:15:00 AM 16.31 61.358 0.139 7.16 4.2 9.03
6/14/2022 5:30:00 AM 16.29 61.322 0.139 7.19 4.41 9.08
6/14/2022 5:45:00 AM 16.23 61.214 0.139 7.14 4.63 9.04
6/14/2022 6:00:00 AM 16.23 61.214 0.139 7.19 6.08 9.1
6/14/2022 6:15:00 AM 16.19 61.142 0.139 7.17 4.44 9.08
6/14/2022 6:30:00 AM 16.17 61.106 0.139 7.2 5.23 9.13
6/14/2022 6:45:00 AM 16.16 61.088 0.139 7.2 4.05 9.17
6/14/2022 7:00:00 AM 16.14 61.052 0.139 7.17 4.63 9.16
6/14/2022 7:15:00 AM 16.16 61.088 0.139 7.21 4.16 9.24
6/14/2022 7:30:00 AM 16.17 61.106 0.139 7.23 3.89 9.26
6/14/2022 7:45:00 AM 16.15 61.07 0.139 7.21 4.29 9.21
6/14/2022 8:00:00 AM 16.17 61.106 0.139 7.23 3.62 9.28
6/14/2022 8:15:00 AM 16.17 61.106 0.139 7.24 3.62 9.29
6/14/2022 8:30:00 AM 16.17 61.106 0.139 7.26 4 9.32
6/14/2022 8:45:00 AM 16.15 61.07 0.139 7.21 4.06 9.25
6/14/2022 9:00:00 AM 16.2 61.16 0.139 7.26 3.84 9.34
6/14/2022 9:15:00 AM 16.25 61.25 0.139 7.27 3.91 9.38
6/14/2022 9:30:00 AM 16.3 61.34 0.139 7.29 3.91 9.42
6/14/2022 9:45:00 AM 16.35 61.43 0.139 7.26 3.81 9.38
6/14/2022 10:00:00 AM 16.45 61.61 0.139 7.32 3.79 9.44
6/14/2022 10:15:00 AM 16.53 61.754 0.139 7.27 3.64 9.37
6/14/2022 10:30:00 AM 16.68 62.024 0.139 7.31 3.82 9.4
6/14/2022 10:45:00 AM 16.81 62.258 0.138 7.22 4.14 9.35
6/14/2022 11:00:00 AM 17.06 62.708 0.139 7.37 3.5 9.4
6/14/2022 11:15:00 AM 17.28 63.104 0.139 7.4 3.95 9.41
6/14/2022 11:30:00 AM 17.48 63.464 0.139 7.39 3.79 9.38
6/14/2022 11:45:00 AM 17.7 63.86 0.139 7.38 3.8 9.36
6/14/2022 12:00:00 PM 17.93 64.274 0.139 7.41 3.8 9.33
6/14/2022 12:15:00 PM 18.11 64.598 0.139 7.39 3.71 9.29
6/14/2022 12:30:00 PM 18.35 65.03 0.139 7.43 3.88 9.28
6/14/2022 12:45:00 PM 18.56 65.408 0.139 7.42 3.84 9.22
6/14/2022 1:00:00 PM 18.73 65.714 0.139 7.42 4.06 9.16
6/14/2022 1:15:00 PM 18.93 66.074 0.139 7.43 3.9 9.1
6/14/2022 1:30:00 PM 19.14 66.452 0.138 7.43 4.45 9.08
6/14/2022 1:45:00 PM 19.21 66.578 0.139 7.37 3.7 8.93
6/14/2022 2:00:00 PM 19.55 67.19 0.139 7.46 4.17 9.04
6/14/2022 2:15:00 PM 19.73 67.514 0.139 7.51 3.78 9.01
6/14/2022 2:30:00 PM 19.82 67.676 0.139 7.48 3.78 8.98
6/14/2022 2:45:00 PM 19.87 67.766 0.139 7.47 3.61 8.98
6/14/2022 3:00:00 PM 19.88 67.784 0.139 7.44 3.94 8.91
6/14/2022 3:15:00 PM 19.92 67.856 0.139 7.46 4.1 8.93
6/14/2022 3:30:00 PM 19.91 67.838 0.139 7.44 4.42 8.91
6/14/2022 3:45:00 PM 19.92 67.856 0.14 7.44 4.16 8.9
6/14/2022 4:00:00 PM 19.95 67.91 0.14 7.46 4.16 8.91
6/14/2022 4:15:00 PM 19.86 67.748 0.139 7.37 4.12 8.79
6/14/2022 4:30:00 PM 19.94 67.892 0.14 7.44 3.75 8.87
6/14/2022 4:45:00 PM 19.92 67.856 0.14 7.44 5.27 8.84
6/14/2022 5:00:00 PM 19.92 67.856 0.14 7.42 4.6 8.81
6/14/2022 5:15:00 PM 19.87 67.766 0.14 7.38 4.05 8.75
6/14/2022 5:30:00 PM 19.88 67.784 0.14 7.39 12.76 8.78
6/14/2022 5:45:00 PM 19.86 67.748 0.14 7.41 4.93 8.77
6/14/2022 6:00:00 PM 19.83 67.694 0.14 7.39 10.28 8.75
6/14/2022 6:15:00 PM 19.76 67.568 0.14 7.37 4.39 8.73
6/14/2022 6:30:00 PM 19.64 67.352 0.14 7.35 4.08 8.69
6/14/2022 6:45:00 PM 19.59 67.262 0.14 7.34 4.06 8.65
6/14/2022 7:00:00 PM 19.5 67.1 0.141 7.34 4.03 8.68
6/14/2022 7:15:00 PM 19.41 66.938 0.141 7.31 4.21 8.64
6/14/2022 7:30:00 PM 19.33 66.794 0.141 7.32 3.94 8.63
6/14/2022 7:45:00 PM 19.26 66.668 0.141 7.31 4.34 8.63
6/14/2022 8:00:00 PM 19.17 66.506 0.141 7.26 4.13 8.56
6/14/2022 8:15:00 PM 19.08 66.344 0.141 7.24 4.3 8.53
6/14/2022 8:30:00 PM 19.02 66.236 0.141 7.24 4.7 8.55
6/14/2022 8:45:00 PM 18.9 66.02 0.141 7.19 4.41 8.45
6/14/2022 9:00:00 PM 18.86 65.948 0.141 7.23 4.07 8.56
6/14/2022 9:15:00 PM 18.77 65.786 0.141 7.24 4.48 8.56
6/14/2022 9:30:00 PM 18.67 65.606 0.142 7.23 4.12 8.58
6/14/2022 9:45:00 PM 18.54 65.372 0.142 7.22 4.59 8.58
6/14/2022 10:00:00 PM 18.42 65.156 0.142 7.17 3.98 8.52
6/14/2022 10:15:00 PM 18.36 65.048 0.141 7.23 4.39 8.65
6/14/2022 10:30:00 PM 18.24 64.832 0.142 7.23 4.08 8.67
6/14/2022 10:45:00 PM 18.12 64.616 0.142 7.22 4.09 8.7
6/14/2022 11:00:00 PM 17.99 64.382 0.142 7.22 4.23 8.72
6/14/2022 11:15:00 PM 17.84 64.112 0.142 7.18 4.35 8.66
6/14/2022 11:30:00 PM 17.76 63.968 0.142 7.2 4.06 8.75
6/14/2022 11:45:00 PM 17.66 63.788 0.142 7.22 4.16 8.79
6/15/2022 12:00:00 AM 17.5 63.5 0.142 7.16 4.06 8.72
6/15/2022 12:15:00 AM 17.43 63.374 0.142 7.21 4.08 8.82
6/15/2022 12:30:00 AM 17.32 63.176 0.142 7.21 4.16 8.83
6/15/2022 12:45:00 AM 17.23 63.014 0.142 7.21 4.22 8.87
6/15/2022 1:00:00 AM 17.14 62.852 0.142 7.22 4.41 8.9
6/15/2022 1:15:00 AM 17.03 62.654 0.142 7.19 4.14 8.89
6/15/2022 1:30:00 AM 16.95 62.51 0.142 7.19 4.1 8.9
6/15/2022 1:45:00 AM 16.87 62.366 0.142 7.19 4.06 8.95
6/15/2022 2:00:00 AM 16.78 62.204 0.141 7.2 4.37 8.95
6/15/2022 2:15:00 AM 16.72 62.096 0.142 7.21 3.73 9.01
6/15/2022 2:30:00 AM 16.62 61.916 0.142 7.19 3.94 8.98
6/15/2022 2:45:00 AM 16.51 61.718 0.142 7.16 3.95 8.9
6/15/2022 3:00:00 AM 16.48 61.664 0.143 7.21 3.74 9.05
6/15/2022 3:15:00 AM 16.4 61.52 0.143 7.18 3.69 8.98
6/15/2022 3:30:00 AM 16.32 61.376 0.143 7.19 3.97 9.01
6/15/2022 3:45:00 AM 16.26 61.268 0.143 7.17 3.78 9
6/15/2022 4:00:00 AM 16.19 61.142 0.143 7.19 4.05 9.07
6/15/2022 4:15:00 AM 16.12 61.016 0.143 7.14 3.84 9.07
6/15/2022 4:30:00 AM 16.05 60.89 0.143 7.16 4.26 9.08
6/15/2022 4:45:00 AM 15.99 60.782 0.143 7.18 4.12 9.13
6/15/2022 5:00:00 AM 15.93 60.674 0.143 7.19 6.4 9.15
6/15/2022 5:15:00 AM 15.86 60.548 0.143 7.18 4.04 9.15
6/15/2022 5:30:00 AM 15.79 60.422 0.143 7.17 3.97 9.17
6/15/2022 5:45:00 AM 15.75 60.35 0.143 7.2 4.29 9.19
6/15/2022 6:00:00 AM 15.69 60.242 0.144 7.2 4.3 9.23
6/15/2022 6:15:00 AM 15.62 60.116 0.143 7.2 4.55 9.23
6/15/2022 6:30:00 AM 15.56 60.008 0.144 7.17 4.73 9.24
6/15/2022 6:45:00 AM 15.51 59.918 0.143 7.15 4.28 9.18
6/15/2022 7:00:00 AM 15.52 59.936 0.144 7.21 4.11 9.34
6/15/2022 7:15:00 AM 15.5 59.9 0.144 7.2 4.64 9.37
6/15/2022 7:30:00 AM 15.49 59.882 0.144 7.22 3.84 9.38
6/15/2022 7:45:00 AM 15.47 59.846 0.144 7.17 4.02 9.35
6/15/2022 8:00:00 AM 15.51 59.918 0.144 7.23 3.62 9.41
6/15/2022 8:15:00 AM 15.55 59.99 0.144 7.24 3.82 9.43
6/15/2022 8:30:00 AM 15.6 60.08 0.144 7.24 4.03 9.43
6/15/2022 8:45:00 AM 15.66 60.188 0.144 7.22 4.87 9.42
6/15/2022 9:00:00 AM 15.77 60.386 0.144 7.26 3.96 9.47
6/15/2022 9:15:00 AM 15.88 60.584 0.143 7.25 3.92 9.44
6/15/2022 9:30:00 AM 16.02 60.836 0.143 7.26 4.09 9.42
6/15/2022 9:45:00 AM 16.16 61.088 0.143 7.24 3.93 9.37
6/15/2022 10:00:00 AM 16.36 61.448 0.143 7.26 4.89 9.4
6/15/2022 10:15:00 AM 16.53 61.754 0.143 7.26 3.48 9.33
6/15/2022 10:30:00 AM 16.76 62.168 0.143 7.28 3.6 9.31
6/15/2022 10:45:00 AM 16.96 62.528 0.143 7.26 3.84 9.2
6/15/2022 11:00:00 AM 17.26 63.068 0.143 7.29 3.7 9.32
6/15/2022 11:15:00 AM 17.54 63.572 0.144 7.36 4.06 9.34
6/15/2022 11:30:00 AM 17.76 63.968 0.143 7.36 3.54 9.3
6/15/2022 11:45:00 AM 18.01 64.418 0.144 7.36 3.94 9.26
6/15/2022 12:00:00 PM 18.28 64.904 0.143 7.39 3.53 9.25
6/15/2022 12:15:00 PM 18.58 65.444 0.143 7.44 3.65 9.29
6/15/2022 12:30:00 PM 18.74 65.732 0.144 7.43 3.62 9.24
6/15/2022 12:45:00 PM 18.96 66.128 0.144 7.48 3.59 9.22
6/15/2022 1:00:00 PM 19.2 66.56 0.143 7.46 3.77 9.23
6/15/2022 1:15:00 PM 19.41 66.938 0.144 7.48 3.68 9.19
6/15/2022 1:30:00 PM 19.64 67.352 0.144 7.52 3.64 9.13
6/15/2022 1:45:00 PM 19.84 67.712 0.144 7.51 3.54 9.1
6/15/2022 2:00:00 PM 19.88 67.784 0.143 7.46 3.93 9.1
6/15/2022 2:15:00 PM 19.96 67.92799 0.144 7.52 4.94 9.11
6/15/2022 2:30:00 PM 20.01 68.018 0.144 7.54 4.25 9.12
6/15/2022 2:45:00 PM 19.98 67.964 0.144 7.54 4.22 9.1
6/15/2022 3:00:00 PM 19.98 67.964 0.144 7.53 3.54 9.12
6/15/2022 3:15:00 PM 19.99 67.982 0.144 7.56 3.61 9.11
6/15/2022 3:30:00 PM 19.88 67.784 0.144 7.5 3.88 9.04
6/15/2022 3:45:00 PM 19.85 67.73 0.144 7.51 3.99 9.04
6/15/2022 4:00:00 PM 19.9 67.82 0.144 7.51 3.92 9.04
6/15/2022 4:15:00 PM 19.98 67.964 0.144 7.54 3.81 9.05
6/15/2022 4:30:00 PM 19.96 67.92799 0.144 7.45 3.97 8.94
6/15/2022 4:45:00 PM 19.98 67.964 0.145 7.49 3.81 8.96
6/15/2022 5:00:00 PM 19.99 67.982 0.145 7.47 3.76 8.93
6/15/2022 5:15:00 PM 19.98 67.964 0.145 7.44 3.64 8.9
6/15/2022 5:30:00 PM 19.93 67.874 0.145 7.41 3.87 8.76
6/15/2022 5:45:00 PM 19.93 67.874 0.145 7.43 3.55 8.83
6/15/2022 6:00:00 PM 19.87 67.766 0.145 7.35 3.84 8.8
6/15/2022 6:15:00 PM 19.82 67.676 0.145 7.39 3.4 8.8
6/15/2022 6:30:00 PM 19.77 67.586 0.146 7.39 3.6 8.78
6/15/2022 6:45:00 PM 19.68 67.424 0.146 7.33 3.69 8.74
6/15/2022 7:00:00 PM 19.58 67.244 0.146 7.32 3.95 8.69
6/15/2022 7:15:00 PM 19.51 67.118 0.146 7.33 3.96 8.71
6/15/2022 7:30:00 PM 19.41 66.938 0.146 7.31 4.1 8.67
6/15/2022 7:45:00 PM 19.34 66.812 0.147 7.29 3.85 8.63
6/15/2022 8:00:00 PM 19.26 66.668 0.147 7.27 4.04 8.62
6/15/2022 8:15:00 PM 19.2 66.56 0.147 7.26 3.87 8.58
6/15/2022 8:30:00 PM 19.13 66.434 0.147 7.24 5.73 8.54
6/15/2022 8:45:00 PM 19.09 66.362 0.148 7.25 4.05 8.55
6/15/2022 9:00:00 PM 19 66.2 0.147 7.21 4.26 8.43
6/15/2022 9:15:00 PM 18.98 66.164 0.148 7.2 4.38 8.48
6/15/2022 9:30:00 PM 18.93 66.074 0.148 7.19 4.58 8.44
6/15/2022 9:45:00 PM 18.91 66.038 0.148 7.2 4.78 8.47
6/15/2022 10:00:00 PM 18.85 65.93 0.148 7.18 4.12 8.44
6/15/2022 10:15:00 PM 18.81 65.858 0.148 7.18 4.03 8.38
6/15/2022 10:30:00 PM 18.75 65.75 0.148 7.14 4.12 8.44
6/15/2022 10:45:00 PM 18.7 65.66 0.148 7.14 3.97 8.42
6/15/2022 11:00:00 PM 18.63 65.534 0.148 7.14 4.53 8.4
6/15/2022 11:15:00 PM 18.59 65.462 0.148 7.15 3.95 8.49
6/15/2022 11:30:00 PM 18.53 65.354 0.148 7.16 3.82 8.52
6/15/2022 11:45:00 PM 18.47 65.246 0.148 7.14 4.29 8.47
6/16/2022 12:00:00 AM 18.37 65.066 0.148 7.13 4.38 8.4
6/16/2022 12:15:00 AM 18.37 65.066 0.147 7.16 4.2 8.56
6/16/2022 12:30:00 AM 18.35 65.03 0.149 7.19 3.98 8.61
6/16/2022 12:45:00 AM 18.22 64.796 0.148 7.1 4.23 8.36
6/16/2022 1:00:00 AM 18.25 64.85 0.148 7.15 3.85 8.58
6/16/2022 1:15:00 AM 18.22 64.796 0.148 7.18 4.08 8.56
6/16/2022 1:30:00 AM 18.12 64.616 0.149 7.15 4.46 8.46
6/16/2022 1:45:00 AM 18.1 64.58 0.148 7.13 3.92 8.58
6/16/2022 2:00:00 AM 18.07 64.526 0.148 7.18 3.95 8.62
6/16/2022 2:15:00 AM 18.02 64.436 0.148 7.17 3.76 8.64
6/16/2022 2:30:00 AM 17.97 64.346 0.149 7.17 3.92 8.64
6/16/2022 2:45:00 AM 17.92 64.256 0.149 7.15 4.35 8.65
6/16/2022 3:00:00 AM 17.88 64.184 0.148 7.17 4.21 8.66
6/16/2022 3:15:00 AM 17.83 64.094 0.149 7.18 4.25 8.69
6/16/2022 3:30:00 AM 17.75 63.95 0.149 7.12 4.38 8.57
6/16/2022 3:45:00 AM 17.72 63.896 0.148 7.14 4.18 8.57
6/16/2022 4:00:00 AM 17.69 63.842 0.149 7.17 3.98 8.54
6/16/2022 4:15:00 AM 17.67 63.806 0.149 7.15 4.36 8.73
6/16/2022 4:30:00 AM 17.62 63.716 0.149 7.14 4.43 8.6
6/16/2022 4:45:00 AM 17.62 63.716 0.149 7.18 4 8.72
6/16/2022 5:00:00 AM 17.58 63.644 0.149 7.12 4.45 8.68
6/16/2022 5:15:00 AM 17.57 63.626 0.149 7.2 4.56 8.77
6/16/2022 5:30:00 AM 17.48 63.464 0.149 7.13 4.94 8.61
6/16/2022 5:45:00 AM 17.48 63.464 0.149 7.17 4.27 8.72
6/16/2022 6:00:00 AM 17.37 63.266 0.148 7.12 4.21 8.49
6/16/2022 6:15:00 AM 17.39 63.302 0.149 7.16 4.82 8.71
6/16/2022 6:30:00 AM 17.37 63.266 0.149 7.16 4.5 8.72
6/16/2022 6:45:00 AM 17.3 63.14 0.148 7.13 4.12 8.54
6/16/2022 7:00:00 AM 17.34 63.212 0.149 7.17 3.92 8.82
6/16/2022 7:15:00 AM 17.28 63.104 0.148 7.19 3.88 8.78
6/16/2022 7:30:00 AM 17.3 63.14 0.148 7.2 3.8 8.86
6/16/2022 7:45:00 AM 17.29 63.122 0.149 7.18 3.54 8.9
6/16/2022 8:00:00 AM 17.31 63.158 0.148 7.23 3.33 8.99
6/16/2022 8:15:00 AM 17.33 63.194 0.149 7.26 3.63 9.05
6/16/2022 8:30:00 AM 17.37 63.266 0.148 7.26 5.49 9.1
6/16/2022 8:45:00 AM 17.39 63.302 0.148 7.28 5.88 9.12
6/16/2022 9:00:00 AM 17.4 63.32 0.148 7.29 4.14 9.15
6/16/2022 9:15:00 AM 17.45 63.41 0.148 7.32 3.57 9.19
6/16/2022 9:30:00 AM 17.44 63.392 0.148 7.31 3.56 9.16
6/16/2022 9:45:00 AM 17.39 63.302 0.148 7.23 3.76 9.05
6/16/2022 10:00:00 AM 17.45 63.41 0.148 7.31 3.39 9.16
6/16/2022 10:15:00 AM 17.45 63.41 0.148 7.31 3.56 9.05
6/16/2022 10:30:00 AM 17.56 63.608 0.148 7.34 3.57 9.23
6/16/2022 10:45:00 AM 17.65 63.77 0.148 7.36 3.64 9.31
6/16/2022 11:00:00 AM 17.68 63.824 0.148 7.36 3.3 9.3
6/16/2022 11:15:00 AM 17.7 63.86 0.148 7.36 4.26 9.24
6/16/2022 11:30:00 AM 17.71 63.878 0.147 7.34 3.76 9.2
6/16/2022 11:45:00 AM 17.8 64.04 0.148 7.42 3.44 9.3
6/16/2022 12:00:00 PM 17.73 63.914 0.148 7.35 3.49 9.16
6/16/2022 12:15:00 PM 17.86 64.148 0.148 7.38 3.56 9.3
6/16/2022 12:30:00 PM 17.93 64.274 0.148 7.37 4.42 9.31
6/16/2022 12:45:00 PM 18.04 64.472 0.148 7.41 5.39 9.34
6/16/2022 1:00:00 PM 18.17 64.706 0.147 7.41 3.82 9.32
6/16/2022 1:15:00 PM 18.28 64.904 0.147 7.45 4.44 9.34
6/16/2022 1:30:00 PM 18.32 64.976 0.147 7.46 3.59 9.31
6/16/2022 1:45:00 PM 18.39 65.102 0.147 7.46 3.92 9.31
6/16/2022 2:00:00 PM 18.46 65.228 0.147 7.51 3.71 9.31
6/16/2022 2:15:00 PM 18.51 65.318 0.147 7.45 3.33 9.26
6/16/2022 2:30:00 PM 18.7 65.66 0.147 7.52 3.14 9.33
6/16/2022 2:45:00 PM 18.88 65.984 0.147 7.54 3.32 9.34
6/16/2022 3:00:00 PM 19.11 66.398 0.147 7.57 3.79 9.33
6/16/2022 3:15:00 PM 19.27 66.686 0.147 7.57 3.73 9.31
6/16/2022 3:30:00 PM 19.37 66.866 0.147 7.58 3.66 9.28
6/16/2022 3:45:00 PM 19.45 67.01 0.147 7.57 4.01 9.23
6/16/2022 4:00:00 PM 19.48 67.064 0.147 7.57 3.84 9.18
6/16/2022 4:15:00 PM 19.45 67.01 0.147 7.52 4.18 9.1
6/16/2022 4:30:00 PM 19.44 66.992 0.147 7.54 4.08 9.06
6/16/2022 4:45:00 PM 19.42 66.956 0.148 7.52 3.56 9.03
6/16/2022 5:00:00 PM 19.38 66.884 0.147 7.47 3.78 8.97
6/16/2022 5:15:00 PM 19.44 66.992 0.148 7.51 3.61 8.98
6/16/2022 5:30:00 PM 19.5 67.1 0.147 7.49 4.51 8.98
6/16/2022 5:45:00 PM 19.55 67.19 0.148 7.51 3.71 9.01
6/16/2022 6:00:00 PM 19.52 67.136 0.148 7.5 3.47 9
6/16/2022 6:15:00 PM 19.46 67.028 0.148 7.49 5.75 8.91
6/16/2022 6:30:00 PM 19.39 66.902 0.148 7.43 3.82 8.79
6/16/2022 6:45:00 PM 19.33 66.794 0.148 7.41 3.81 8.76
6/16/2022 7:00:00 PM 19.27 66.686 0.149 7.38 3.57 8.68
6/16/2022 7:15:00 PM 19.2 66.56 0.149 7.34 3.57 8.63
6/16/2022 7:30:00 PM 19.14 66.452 0.149 7.32 3.45 8.54
6/16/2022 7:45:00 PM 19.01 66.218 0.149 7.21 3.34 8.35
6/16/2022 8:00:00 PM 19.02 66.236 0.149 7.28 3.71 8.49
6/16/2022 8:15:00 PM 18.98 66.164 0.149 7.27 3.49 8.48
6/16/2022 8:30:00 PM 18.9 66.02 0.149 7.24 3.55 8.44
6/16/2022 8:45:00 PM 18.84 65.912 0.149 7.23 3.39 8.41
6/16/2022 9:00:00 PM 18.8 65.84 0.149 7.19 3.56 8.4
6/16/2022 9:15:00 PM 18.76 65.768 0.149 7.22 3.77 8.45
6/16/2022 9:30:00 PM 18.71 65.67799 0.149 7.2 4.33 8.45
6/16/2022 9:45:00 PM 18.67 65.606 0.149 7.2 4.03 8.44
6/16/2022 10:00:00 PM 18.63 65.534 0.149 7.21 3.88 8.49
6/16/2022 10:15:00 PM 18.59 65.462 0.149 7.2 4.4 8.48
6/16/2022 10:30:00 PM 18.53 65.354 0.149 7.14 3.86 8.43
6/16/2022 10:45:00 PM 18.49 65.282 0.15 7.19 3.58 8.42
6/16/2022 11:00:00 PM 18.46 65.228 0.15 7.16 3.76 8.39
6/16/2022 11:15:00 PM 18.47 65.246 0.15 7.19 3.65 8.49
6/16/2022 11:30:00 PM 18.46 65.228 0.15 7.19 3.62 8.45
6/16/2022 11:45:00 PM 18.44 65.192 0.15 7.22 4.02 8.55
6/17/2022 12:00:00 AM 18.39 65.102 0.15 7.2 3.52 8.53
6/17/2022 12:15:00 AM 18.35 65.03 0.15 7.18 3.9 8.49
6/17/2022 12:30:00 AM 18.28 64.904 0.15 7.12 3.78 8.41
6/17/2022 12:45:00 AM 18.28 64.904 0.15 7.2 3.72 8.56
6/17/2022 1:00:00 AM 18.21 64.778 0.15 7.18 4.35 8.52
6/17/2022 1:15:00 AM 18.19 64.742 0.15 7.21 3.89 8.58
6/17/2022 1:30:00 AM 18.12 64.616 0.15 7.19 4.22 8.56
6/17/2022 1:45:00 AM 18.07 64.526 0.15 7.19 4.28 8.57
6/17/2022 2:00:00 AM 18 64.4 0.15 7.14 3.87 8.56
6/17/2022 2:15:00 AM 17.95 64.31 0.15 7.18 4.42 8.59
6/17/2022 2:30:00 AM 17.91 64.238 0.15 7.17 4.13 8.62
6/17/2022 2:45:00 AM 17.85 64.13 0.15 7.18 4.07 8.62
6/17/2022 3:00:00 AM 17.79 64.022 0.15 7.17 4.7 8.63
6/17/2022 3:15:00 AM 17.73 63.914 0.15 7.16 5.56 8.62
6/17/2022 3:30:00 AM 17.65 63.77 0.15 7.16 4.76 8.55
6/17/2022 3:45:00 AM 17.62 63.716 0.15 7.16 6.65 8.59
6/17/2022 4:00:00 AM 17.53 63.554 0.149 7.14 4.35 8.55
6/17/2022 4:15:00 AM 17.52 63.536 0.15 7.18 3.95 8.69
6/17/2022 4:30:00 AM 17.45 63.41 0.15 7.17 3.8 8.64
6/17/2022 4:45:00 AM 17.4 63.32 0.15 7.15 3.87 8.59
6/17/2022 5:00:00 AM 17.39 63.302 0.15 7.18 4.48 8.71
6/17/2022 5:15:00 AM 17.33 63.194 0.15 7.16 2.04 8.7
6/17/2022 5:30:00 AM 17.28 63.104 0.15 7.16 4.45 8.64
6/17/2022 5:45:00 AM 17.26 63.068 0.15 7.17 4.22 8.72
6/17/2022 6:00:00 AM 17.23 63.014 0.15 7.14 4.16 8.69
6/17/2022 6:15:00 AM 17.22 62.996 0.15 7.16 3.74 8.75
6/17/2022 6:30:00 AM 17.21 62.978 0.15 7.19 3.73 8.79
6/17/2022 6:45:00 AM 17.2 62.96 0.15 7.2 3.53 8.84
6/17/2022 7:00:00 AM 17.14 62.852 0.149 7.15 5.01 8.76
6/17/2022 7:15:00 AM 17.14 62.852 0.15 7.14 3.77 8.81
6/17/2022 7:30:00 AM 17.14 62.852 0.15 7.18 3.34 8.83
6/17/2022 7:45:00 AM 17.13 62.834 0.149 7.14 4.27 8.79
6/17/2022 8:00:00 AM 17.18 62.924 0.15 7.15 3.75 8.85
6/17/2022 8:15:00 AM 17.26 63.068 0.15 7.19 4.24 8.91
6/17/2022 8:30:00 AM 17.25 63.05 0.149 7.13 3.7 8.69
6/17/2022 8:45:00 AM 17.38 63.284 0.15 7.2 3.43 8.78
6/17/2022 9:00:00 AM 17.54 63.572 0.15 7.26 3.06 8.97
6/17/2022 9:15:00 AM 17.63 63.734 0.15 7.26 3.43 8.91
6/17/2022 9:30:00 AM 17.79 64.022 0.15 7.29 3.47 8.95
6/17/2022 9:45:00 AM 17.86 64.148 0.15 7.27 3.32 8.84
6/17/2022 10:00:00 AM 18.03 64.454 0.15 7.34 3.44 9.02
6/17/2022 10:15:00 AM 18.21 64.778 0.15 7.36 3.27 9
6/17/2022 10:30:00 AM 18.3 64.94 0.15 7.39 3.42 9.03
6/17/2022 10:45:00 AM 18.38 65.084 0.15 7.37 3.67 9.03
6/17/2022 11:00:00 AM 18.53 65.354 0.15 7.41 3.64 9.02
6/17/2022 11:15:00 AM 18.73 65.714 0.15 7.4 3.35 9.03
6/17/2022 11:30:00 AM 18.92 66.056 0.15 7.44 3.52 9.05
6/17/2022 11:45:00 AM 19.06 66.308 0.15 7.4 4.62 8.97
6/17/2022 12:00:00 PM 19.25 66.65 0.15 7.47 3.59 9.02
6/17/2022 12:15:00 PM 19.33 66.794 0.15 7.46 3.21 8.96
6/17/2022 12:30:00 PM 19.38 66.884 0.15 7.49 3.18 8.97
6/17/2022 12:45:00 PM 19.57 67.226 0.15 7.49 3.39 9
6/17/2022 1:00:00 PM 19.71 67.478 0.15 7.51 3.14 8.98
6/17/2022 1:15:00 PM 19.68 67.424 0.15 7.48 3.51 8.91
6/17/2022 1:30:00 PM 19.73 67.514 0.15 7.5 3.07 8.93
6/17/2022 1:45:00 PM 19.91 67.838 0.15 7.54 3.2 8.94
6/17/2022 2:00:00 PM 20.14 68.252 0.151 7.57 3.54 8.95
6/17/2022 2:15:00 PM 20.26 68.468 0.15 7.56 3.27 8.92
6/17/2022 2:30:00 PM 20.26 68.468 0.15 7.43 3.67 8.56
6/17/2022 2:45:00 PM 20.54 68.972 0.151 7.57 3.59 8.89
6/17/2022 3:00:00 PM 20.59 69.062 0.151 7.56 3.5 8.87
6/17/2022 3:15:00 PM 20.67 69.206 0.15 7.55 3.36 8.85
6/17/2022 3:30:00 PM 20.69 69.242 0.151 7.54 3.82 8.84
6/17/2022 3:45:00 PM 20.74 69.332 0.151 7.56 3.48 8.84
6/17/2022 4:00:00 PM 20.75 69.35 0.151 7.56 3.44 8.83
6/17/2022 4:15:00 PM 20.73 69.314 0.151 7.48 3.47 8.72
6/17/2022 4:30:00 PM 20.73 69.314 0.151 7.54 3.49 8.77
6/17/2022 4:45:00 PM 20.69 69.242 0.151 7.51 1.81 8.76
6/17/2022 5:00:00 PM 20.63 69.134 0.151 7.51 3.48 8.7
6/17/2022 5:15:00 PM 20.55 68.99 0.151 7.52 3.68 8.7
6/17/2022 5:30:00 PM 20.52 68.936 0.151 7.49 3.41 8.66
6/17/2022 5:45:00 PM 20.41 68.738 0.151 7.43 3.19 8.62
6/17/2022 6:00:00 PM 20.39 68.702 0.151 7.47 3.73 8.63
6/17/2022 6:15:00 PM 20.28 68.504 0.151 7.44 3.99 8.62
6/17/2022 6:30:00 PM 20.13 68.234 0.152 7.43 4.66 8.58
6/17/2022 6:45:00 PM 20.07 68.126 0.152 7.4 3.56 8.55
6/17/2022 7:00:00 PM 19.91 67.838 0.151 7.39 3.53 8.51
6/17/2022 7:15:00 PM 19.76 67.568 0.152 7.34 3.76 8.45
6/17/2022 7:30:00 PM 19.65 67.37 0.152 7.35 3.58 8.47
6/17/2022 7:45:00 PM 19.56 67.208 0.152 7.34 3.67 8.46
6/17/2022 8:00:00 PM 19.44 66.992 0.152 7.25 3.45 8.39
6/17/2022 8:15:00 PM 19.35 66.83 0.153 7.3 3.36 8.42
6/17/2022 8:30:00 PM 19.24 66.632 0.152 7.27 3.54 8.37
6/17/2022 8:45:00 PM 19.14 66.452 0.153 7.22 4.23 8.32
6/17/2022 9:00:00 PM 19.08 66.344 0.153 7.26 3.95 8.37
6/17/2022 9:15:00 PM 18.96 66.128 0.152 7.14 3.6 8.23
6/17/2022 9:30:00 PM 18.91 66.038 0.153 7.24 3.78 8.36
6/17/2022 9:45:00 PM 18.83 65.894 0.153 7.21 3.67 8.34
6/17/2022 10:00:00 PM 18.77 65.786 0.153 7.24 3.54 8.36
6/17/2022 10:15:00 PM 18.69 65.642 0.153 7.2 3.67 8.34
6/17/2022 10:30:00 PM 18.59 65.462 0.153 7.14 5.21 8.32
6/17/2022 10:45:00 PM 18.57 65.426 0.152 7.19 4.1 8.35
6/17/2022 11:00:00 PM 18.51 65.318 0.153 7.2 3.68 8.4
6/17/2022 11:15:00 PM 18.45 65.21 0.153 7.21 3.89 8.45
6/17/2022 11:30:00 PM 18.36 65.048 0.153 7.2 4.42 8.35
6/17/2022 11:45:00 PM 18.26 64.868 0.152 7.2 3.88 8.4
6/18/2022 12:00:00 AM 18.14 64.652 0.152 7.11 3.92 8.26
6/18/2022 12:15:00 AM 18.12 64.616 0.153 7.2 3.65 8.49
6/18/2022 12:30:00 AM 18.02 64.436 0.153 7.18 4.08 8.44
6/18/2022 12:45:00 AM 17.97 64.346 0.152 7.21 3.71 8.5
6/18/2022 1:00:00 AM 17.89 64.202 0.153 7.2 4.26 8.51
6/18/2022 1:15:00 AM 17.81 64.058 0.152 7.16 3.84 8.43
6/18/2022 1:30:00 AM 17.76 63.968 0.153 7.19 4.22 8.46
6/18/2022 1:45:00 AM 17.68 63.824 0.153 7.21 4.42 8.55
6/18/2022 2:00:00 AM 17.61 63.698 0.153 7.23 3.85 8.6
6/18/2022 2:15:00 AM 17.52 63.536 0.153 7.22 3.97 8.57
6/18/2022 2:30:00 AM 17.43 63.374 0.153 7.18 6.37 8.59
6/18/2022 2:45:00 AM 17.34 63.212 0.153 7.18 5.03 8.57
6/18/2022 3:00:00 AM 17.27 63.086 0.153 7.19 5.14 8.57
6/18/2022 3:15:00 AM 17.22 62.996 0.153 7.24 4.29 8.68
6/18/2022 3:30:00 AM 17.15 62.87 0.153 7.22 5.74 8.69
6/18/2022 3:45:00 AM 17.09 62.762 0.153 7.24 4.35 8.71
6/18/2022 4:00:00 AM 17.04 62.672 0.153 7.22 5.15 8.69
6/18/2022 4:15:00 AM 16.99 62.582 0.153 7.2 4.07 8.64
6/18/2022 4:30:00 AM 16.93 62.474 0.153 7.19 3.99 8.67
6/18/2022 4:45:00 AM 16.87 62.366 0.153 7.22 3.92 8.69
6/18/2022 5:00:00 AM 16.81 62.258 0.153 7.21 3.98 8.74
6/18/2022 5:15:00 AM 16.73 62.114 0.153 7.18 3.82 8.63
6/18/2022 5:30:00 AM 16.7 62.06 0.153 7.23 3.84 8.78
6/18/2022 5:45:00 AM 16.64 61.952 0.153 7.2 3.42 8.8
6/18/2022 6:00:00 AM 16.56 61.808 0.153 7.21 4.41 8.81
6/18/2022 6:15:00 AM 16.49 61.682 0.153 7.22 5.97 8.81
6/18/2022 6:30:00 AM 16.39 61.502 0.154 7.19 4.12 8.74
6/18/2022 6:45:00 AM 16.32 61.376 0.154 7.21 4.38 8.88
6/18/2022 7:00:00 AM 16.23 61.214 0.154 7.21 4.51 8.88
6/18/2022 7:15:00 AM 16.15 61.07 0.154 7.24 3.76 8.94
6/18/2022 7:30:00 AM 16.1 60.98 0.154 7.26 3.77 9.01
6/18/2022 7:45:00 AM 16.03 60.854 0.154 7.25 3.4 9.07
6/18/2022 8:00:00 AM 15.97 60.746 0.154 7.29 3.35 9.09
6/18/2022 8:15:00 AM 15.91 60.638 0.154 7.26 3.24 9.11
6/18/2022 8:30:00 AM 15.86 60.548 0.154 7.31 3.46 9.25
6/18/2022 8:45:00 AM 15.81 60.458 0.154 7.29 3.3 9.27
6/18/2022 9:00:00 AM 15.79 60.422 0.153 7.29 3.33 9.33
6/18/2022 9:15:00 AM 15.81 60.458 0.154 7.37 3.29 9.43
6/18/2022 9:30:00 AM 15.79 60.422 0.154 7.34 3.55 9.4
6/18/2022 9:45:00 AM 15.77 60.386 0.153 7.32 2.95 9.42
6/18/2022 10:00:00 AM 15.76 60.368 0.153 7.32 3.29 9.42
6/18/2022 10:15:00 AM 15.78 60.404 0.153 7.38 3.46 9.52
6/18/2022 10:30:00 AM 15.75 60.35 0.153 7.36 3.38 9.5
6/18/2022 10:45:00 AM 15.74 60.332 0.153 7.36 4.07 9.52
6/18/2022 11:00:00 AM 15.72 60.296 0.154 7.39 3.29 9.52
6/18/2022 11:15:00 AM 15.68 60.224 0.154 7.39 3.26 9.45
6/18/2022 11:30:00 AM 15.66 60.188 0.154 7.43 4.6 9.57
6/18/2022 11:45:00 AM 15.64 60.152 0.154 7.41 4.33 9.52
6/18/2022 12:00:00 PM 15.6 60.08 0.154 7.42 3.57 9.58
6/18/2022 12:15:00 PM 15.59 60.062 0.154 7.39 3.32 9.6
6/18/2022 12:30:00 PM 15.55 59.99 0.153 7.4 3.39 9.57
6/18/2022 12:45:00 PM 15.54 59.972 0.154 7.39 3.47 9.62
6/18/2022 1:00:00 PM 15.59 60.062 0.154 7.44 3.27 9.64
6/18/2022 1:15:00 PM 15.61 60.098 0.154 7.45 4.22 9.7
6/18/2022 1:30:00 PM 15.6 60.08 0.154 7.46 3.58 9.71
6/18/2022 1:45:00 PM 15.57 60.026 0.154 7.43 3.16 9.69
6/18/2022 2:00:00 PM 15.53 59.954 0.154 7.42 3.09 9.66
6/18/2022 2:15:00 PM 15.48 59.864 0.154 7.37 3.84 9.59
6/18/2022 2:30:00 PM 15.45 59.81 0.154 7.36 5.91 9.55
6/18/2022 2:45:00 PM 15.48 59.864 0.154 7.39 3.59 9.57
6/18/2022 3:00:00 PM 15.64 60.152 0.154 7.48 3.59 9.77
6/18/2022 3:15:00 PM 15.82 60.476 0.154 7.48 3.53 9.77
6/18/2022 3:30:00 PM 15.91 60.638 0.154 7.5 3.22 9.8
6/18/2022 3:45:00 PM 15.95 60.71 0.154 7.51 3.39 9.8
6/18/2022 4:00:00 PM 15.96 60.728 0.154 7.52 3.45 9.7
6/18/2022 4:15:00 PM 15.96 60.728 0.154 7.52 3.78 9.75
6/18/2022 4:30:00 PM 15.96 60.728 0.155 7.52 3.15 9.74
6/18/2022 4:45:00 PM 15.97 60.746 0.154 7.51 3.44 9.73
6/18/2022 5:00:00 PM 15.98 60.764 0.154 7.53 3.15 9.7
6/18/2022 5:15:00 PM 15.95 60.71 0.154 7.51 3.24 9.69
6/18/2022 5:30:00 PM 16.03 60.854 0.154 7.51 3.24 9.68
6/18/2022 5:45:00 PM 16.01 60.818 0.154 7.5 3.28 9.68
6/18/2022 6:00:00 PM 15.99 60.782 0.154 7.5 3.71 9.68
6/18/2022 6:15:00 PM 16 60.8 0.155 7.52 3.16 9.69
6/18/2022 6:30:00 PM 15.92 60.656 0.155 7.48 3.55 9.66
6/18/2022 6:45:00 PM 15.9 60.62 0.155 7.46 3.34 9.64
6/18/2022 7:00:00 PM 15.83 60.494 0.155 7.48 3.52 9.65
6/18/2022 7:15:00 PM 15.73 60.314 0.155 7.46 3.58 9.58
6/18/2022 7:30:00 PM 15.62 60.116 0.156 7.43 3.62 9.51
6/18/2022 7:45:00 PM 15.53 59.954 0.156 7.44 3.73 9.47
6/18/2022 8:00:00 PM 15.42 59.756 0.156 7.39 3.96 9.42
6/18/2022 8:15:00 PM 15.33 59.594 0.156 7.36 4.07 9.38
6/18/2022 8:30:00 PM 15.24 59.432 0.156 7.34 4.09 9.34
6/18/2022 8:45:00 PM 15.16 59.288 0.156 7.35 3.87 9.36
6/18/2022 9:00:00 PM 15.08 59.144 0.157 7.31 3.98 9.34
6/18/2022 9:15:00 PM 15.02 59.036 0.156 7.32 3.55 9.31
6/18/2022 9:30:00 PM 14.93 58.874 0.157 7.28 3.7 9.26
6/18/2022 9:45:00 PM 14.85 58.73 0.155 7.24 3.14 9.3
6/18/2022 10:00:00 PM 14.77 58.586 0.149 7.06 3.74 9.26
6/18/2022 10:15:00 PM 14.65 58.37 0.155 7.06 3.2 8.78
6/18/2022 10:30:00 PM 14.64 58.352 0.157 7.24 3.6 9.34
6/18/2022 10:45:00 PM 14.59 58.262 0.157 7.26 3.45 9.31
6/18/2022 11:00:00 PM 14.52 58.136 0.157 7.28 3.38 9.34
6/18/2022 11:15:00 PM 14.45 58.01 0.157 7.26 3.7 9.34
6/18/2022 11:30:00 PM 14.38 57.884 0.148 7.02 3.66 9.26
6/18/2022 11:45:00 PM 14.32 57.776 0.155 6.95 3.52 9.36
6/19/2022 12:00:00 AM 14.23 57.614 0.148 6.6 3.94 9.05
6/19/2022 12:15:00 AM 14.18 57.524 0.156 6.68 3.4 9.27
6/19/2022 12:30:00 AM 14.15 57.47 0.157 7.12 3.3 9.41
6/19/2022 12:45:00 AM 14.09 57.362 0.157 7.23 4.37 9.42
6/19/2022 1:00:00 AM 14.06 57.308 0.157 7.26 3.41 9.45
6/19/2022 1:15:00 AM 13.99 57.182 0.157 7.26 3.5 9.45
6/19/2022 1:30:00 AM 13.94 57.092 0.157 7.26 3.34 9.47
6/19/2022 1:45:00 AM 13.88 56.984 0.157 7.26 3.13 9.48
6/19/2022 2:00:00 AM 13.82 56.876 0.157 7.27 3.68 9.45
6/19/2022 2:15:00 AM 13.77 56.786 0.157 7.26 4.85 9.51
6/19/2022 2:30:00 AM 13.71 56.678 0.157 7.26 4.08 9.53
6/19/2022 2:45:00 AM 13.65 56.57 0.157 7.27 3.24 9.53
6/19/2022 3:00:00 AM 13.59 56.462 0.157 7.26 3.73 9.55
6/19/2022 3:15:00 AM 13.54 56.372 0.157 7.26 3.92 9.56
6/19/2022 3:30:00 AM 13.48 56.264 0.157 7.27 3.47 9.59
6/19/2022 3:45:00 AM 13.41 56.138 0.157 7.27 3.44 9.54
6/19/2022 4:00:00 AM 13.36 56.048 0.157 7.27 3.56 9.64
6/19/2022 4:15:00 AM 13.29 55.922 0.157 7.27 3.52 9.64
6/19/2022 4:30:00 AM 13.23 55.814 0.157 7.26 3.6 9.64
6/19/2022 4:45:00 AM 13.16 55.688 0.157 7.24 4.36 9.65
6/19/2022 5:00:00 AM 13.1 55.58 0.157 7.17 3.85 9.67
6/19/2022 5:15:00 AM 13.03 55.454 0.157 7.15 3.99 9.68
6/19/2022 5:30:00 AM 12.97 55.346 0.157 7.15 5.95 9.71
6/19/2022 5:45:00 AM 12.91 55.238 0.157 7.16 4.18 9.74
6/19/2022 6:00:00 AM 12.86 55.148 0.157 7.15 4.31 9.75
6/19/2022 6:15:00 AM 12.8 55.04 0.157 7.17 3.86 9.79
6/19/2022 6:30:00 AM 12.76 54.968 0.157 7.18 5.66 9.81
6/19/2022 6:45:00 AM 12.72 54.896 0.157 7.19 4.34 9.84
6/19/2022 7:00:00 AM 12.69 54.842 0.157 7.19 3.35 9.88
6/19/2022 7:15:00 AM 12.67 54.806 0.157 7.2 3.83 9.9
6/19/2022 7:30:00 AM 12.66 54.788 0.157 7.22 3.51 9.89
6/19/2022 7:45:00 AM 12.65 54.77 0.157 7.23 3.05 9.93
6/19/2022 8:00:00 AM 12.66 54.788 0.156 7.23 3.36 9.96
6/19/2022 8:15:00 AM 12.68 54.824 0.156 7.26 3.42 10
6/19/2022 8:30:00 AM 12.71 54.878 0.156 7.27 2.96 10.02
6/19/2022 8:45:00 AM 12.75 54.95 0.156 7.29 2.85 10.04
6/19/2022 9:00:00 AM 12.8 55.04 0.156 7.24 3.6 10
6/19/2022 9:15:00 AM 12.87 55.166 0.156 7.31 3.49 10.06
6/19/2022 9:30:00 AM 13 55.4 0.156 7.35 3.15 10.08
6/19/2022 9:45:00 AM 13.12 55.616 0.156 7.32 3.1 10.04
6/19/2022 10:00:00 AM 13.22 55.796 0.15 7.3 3.13 10.07
6/19/2022 10:15:00 AM 13.39 56.102 0.154 7.31 3.07 10.08
6/19/2022 10:30:00 AM 13.56 56.408 0.156 7.33 3.37 10.08
6/19/2022 10:45:00 AM 13.82 56.876 0.155 7.35 3.08 10.07
6/19/2022 11:00:00 AM 14.03 57.254 0.155 7.21 3.11 9.96
6/19/2022 11:15:00 AM 14.25 57.65 0.156 7.39 3.39 10.06
6/19/2022 11:30:00 AM 14.43 57.974 0.156 7.4 3.31 9.94
6/19/2022 11:45:00 AM 14.82 58.676 0.156 7.46 3.84 10.01
6/19/2022 12:00:00 PM 15.04 59.072 0.155 7.49 3.04 9.86
6/19/2022 12:15:00 PM 15.28 59.504 0.156 7.5 3.17 9.96
6/19/2022 12:30:00 PM 15.57 60.026 0.156 7.52 3.33 9.92
6/19/2022 12:45:00 PM 15.77 60.386 0.155 7.55 2.99 9.94
6/19/2022 1:00:00 PM 15.99 60.782 0.156 7.57 2.97 9.85
6/19/2022 1:15:00 PM 16.22 61.196 0.156 7.57 3.27 9.88
6/19/2022 1:30:00 PM 16.45 61.61 0.156 7.6 3.3 9.82
6/19/2022 1:45:00 PM 16.69 62.042 0.156 7.62 3.19 9.8
6/19/2022 2:00:00 PM 16.89 62.402 0.156 7.62 2.88 9.82
6/19/2022 2:15:00 PM 17.08 62.744 0.156 7.64 3.52 9.66
6/19/2022 2:30:00 PM 17.23 63.014 0.156 7.64 3.43 9.67
6/19/2022 2:45:00 PM 17.35 63.23 0.156 7.62 3.16 9.66
6/19/2022 3:00:00 PM 17.45 63.41 0.156 7.64 3.18 9.7
6/19/2022 3:15:00 PM 17.5 63.5 0.156 7.61 3.91 9.65
6/19/2022 3:30:00 PM 17.52 63.536 0.156 7.6 4.1 8.97
6/19/2022 3:45:00 PM 17.48 63.464 0.157 7.55 6.82 9.57
6/19/2022 4:00:00 PM 17.46 63.428 0.157 7.59 3.62 9.63
6/19/2022 4:15:00 PM 17.42 63.356 0.157 7.59 3.29 9.57
6/19/2022 4:30:00 PM 17.37 63.266 0.157 7.56 3.45 9.59
6/19/2022 4:45:00 PM 17.3 63.14 0.157 7.5 3.55 9.56
6/19/2022 5:00:00 PM 17.27 63.086 0.156 7.51 3.27 9.52
6/19/2022 5:15:00 PM 17.16 62.888 0.157 7.49 3.63 9.54
6/19/2022 5:30:00 PM 17.13 62.834 0.157 7.5 3.53 9.53
6/19/2022 5:45:00 PM 17.03 62.654 0.157 7.46 1.73 9.51
6/19/2022 6:00:00 PM 16.96 62.528 0.157 7.45 3.38 9.5
6/19/2022 6:15:00 PM 16.86 62.348 0.157 7.42 3.5 9.52
6/19/2022 6:30:00 PM 16.72 62.096 0.157 7.45 3.63 9.5
6/19/2022 6:45:00 PM 16.62 61.916 0.157 7.47 3.54 9.44
6/19/2022 7:00:00 PM 16.47 61.646 0.158 7.42 3.25 9.43
6/19/2022 7:15:00 PM 16.32 61.376 0.158 7.44 3.3 9.42
6/19/2022 7:30:00 PM 16.16 61.088 0.158 7.35 4.07 9.39
6/19/2022 7:45:00 PM 16.04 60.872 0.159 7.41 4.88 9.29
6/19/2022 8:00:00 PM 15.9 60.62 0.159 7.35 4.02 9.33
6/19/2022 8:15:00 PM 15.78 60.404 0.159 7.36 3.94 9.33
6/19/2022 8:30:00 PM 15.67 60.206 0.159 7.36 4.26 9.3
6/19/2022 8:45:00 PM 15.56 60.008 0.159 7.35 4.02 9.31
6/19/2022 9:00:00 PM 15.45 59.81 0.16 7.37 3.66 9.32
6/19/2022 9:15:00 PM 15.34 59.612 0.16 7.31 3.21 9.28
6/19/2022 9:30:00 PM 15.25 59.45 0.16 7.32 3.77 9.27
6/19/2022 9:45:00 PM 15.13 59.234 0.159 7.31 3.56 9.23
6/19/2022 10:00:00 PM 15.04 59.072 0.16 7.27 3.55 9.21
6/19/2022 10:15:00 PM 14.95 58.91 0.16 7.27 3.46 9.24
6/19/2022 10:30:00 PM 14.85 58.73 0.16 7.27 3.12 9.28
6/19/2022 10:45:00 PM 14.75 58.55 0.16 7.29 3.22 9.3
6/19/2022 11:00:00 PM 14.64 58.352 0.159 7.07 4.64 9.16
6/19/2022 11:15:00 PM 14.56 58.208 0.159 7.14 3.48 9.3
6/19/2022 11:30:00 PM 14.46 58.028 0.16 7.25 3.27 9.32
6/19/2022 11:45:00 PM 14.37 57.866 0.158 7.27 3.33 9.33
6/20/2022 12:00:00 AM 14.26 57.668 0.16 7.27 3.41 9.4
6/20/2022 12:15:00 AM 14.17 57.506 0.16 7.27 3.4 9.41
6/20/2022 12:30:00 AM 14.07 57.326 0.16 7.27 3.23 9.44
6/20/2022 12:45:00 AM 13.98 57.164 0.16 7.13 3.46 9.47
6/20/2022 1:00:00 AM 13.88 56.984 0.16 7.22 3.67 9.48
6/20/2022 1:15:00 AM 13.78 56.804 0.158 7.18 3.71 9.51
6/20/2022 1:30:00 AM 13.68 56.624 0.16 7.15 3.27 9.53
6/20/2022 1:45:00 AM 13.59 56.462 0.154 7.07 3.23 9.57
6/20/2022 2:00:00 AM 13.5 56.3 0.16 7.18 3.55 9.57
6/20/2022 2:15:00 AM 13.4 56.12 0.16 7.2 3.48 9.62
6/20/2022 2:30:00 AM 13.32 55.976 0.16 7.2 3.46 9.62
6/20/2022 2:45:00 AM 13.23 55.814 0.16 7.19 3.43 9.6
6/20/2022 3:00:00 AM 13.15 55.67 0.16 7.19 3.4 9.54
6/20/2022 3:15:00 AM 13.05 55.49 0.16 7.19 3.23 9.71
6/20/2022 3:30:00 AM 12.97 55.346 0.16 7.19 3.5 9.71
6/20/2022 3:45:00 AM 12.89 55.202 0.16 7.18 3.62 9.76
6/20/2022 4:00:00 AM 12.81 55.058 0.16 7.18 3.47 9.76
6/20/2022 4:15:00 AM 12.73 54.914 0.16 7.18 3.6 9.77
6/20/2022 4:30:00 AM 12.65 54.77 0.16 7.18 3.4 9.81
6/20/2022 4:45:00 AM 12.58 54.644 0.16 7.18 3.43 9.84
6/20/2022 5:00:00 AM 12.51 54.518 0.16 7.17 9.71 9.79
6/20/2022 5:15:00 AM 12.43 54.374 0.16 7.17 8.31 9.84
6/20/2022 5:30:00 AM 12.36 54.248 0.16 7.16 3.92 9.87
6/20/2022 5:45:00 AM 12.29 54.122 0.16 7.16 3.81 9.87
6/20/2022 6:00:00 AM 12.23 54.014 0.16 7.16 3.52 9.93
6/20/2022 6:15:00 AM 12.16 53.888 0.16 7.17 3.54 9.96
6/20/2022 6:30:00 AM 12.12 53.816 0.16 7.17 3.55 9.96
6/20/2022 6:45:00 AM 12.07 53.726 0.16 7.17 3.45 9.99
6/20/2022 7:00:00 AM 12.02 53.636 0.159 7.19 3.43 10.06
6/20/2022 7:15:00 AM 12 53.6 0.159 7.2 3.42 10.08
6/20/2022 7:30:00 AM 11.98 53.564 0.159 7.2 3.1 10.11
6/20/2022 7:45:00 AM 11.97 53.546 0.159 7.22 2.96 10.16
6/20/2022 8:00:00 AM 11.98 53.564 0.159 7.23 3.33 10.16
6/20/2022 8:15:00 AM 12.01 53.618 0.159 7.26 3.28 10.23
6/20/2022 8:30:00 AM 12.06 53.708 0.159 7.27 3.12 10.23
6/20/2022 8:45:00 AM 12.12 53.816 0.159 7.29 3.23 10.23
6/20/2022 9:00:00 AM 12.2 53.96 0.159 7.3 3.22 10.27
6/20/2022 9:15:00 AM 12.31 54.158 0.159 7.3 3 10.27
6/20/2022 9:30:00 AM 12.43 54.374 0.158 7.29 3.27 10.22
6/20/2022 9:45:00 AM 12.57 54.626 0.159 7.31 3.23 10.22
6/20/2022 10:00:00 AM 12.75 54.95 0.158 7.27 3.58 10.16
6/20/2022 10:15:00 AM 12.97 55.346 0.158 7.3 3.55 10.07
6/20/2022 10:30:00 AM 13.23 55.814 0.158 7.34 3.27 10.15
6/20/2022 10:45:00 AM 13.57 56.426 0.158 7.38 3.07 10.13
6/20/2022 11:00:00 AM 13.9 57.02 0.158 7.4 3.43 10.12
6/20/2022 11:15:00 AM 14.23 57.614 0.158 7.43 3.23 10.04
6/20/2022 11:30:00 AM 14.57 58.226 0.158 7.45 3.84 9.9
6/20/2022 11:45:00 AM 14.95 58.91 0.158 7.47 3.25 9.98
6/20/2022 12:00:00 PM 15.29 59.522 0.158 7.51 3.11 10.02
6/20/2022 12:15:00 PM 15.65 60.17 0.158 7.53 3.05 9.99
6/20/2022 12:30:00 PM 15.97 60.746 0.158 7.55 3.11 9.94
6/20/2022 12:45:00 PM 16.27 61.286 0.158 7.58 3.06 9.88
6/20/2022 1:00:00 PM 16.57 61.826 0.158 7.6 3.24 9.84
6/20/2022 1:15:00 PM 16.83 62.294 0.158 7.62 3.15 9.81
6/20/2022 1:30:00 PM 17.11 62.798 0.158 7.63 3.14 9.77
6/20/2022 1:45:00 PM 17.37 63.266 0.158 7.66 3.21 9.76
6/20/2022 2:00:00 PM 17.59 63.662 0.159 7.67 3.19 9.73
6/20/2022 2:15:00 PM 17.83 64.094 0.159 7.7 3.26 9.71
6/20/2022 2:30:00 PM 18 64.4 0.159 7.71 3.57 9.66
6/20/2022 2:45:00 PM 18.17 64.706 0.159 7.7 3.36 9.66
6/20/2022 3:00:00 PM 18.27 64.886 0.159 7.68 3.23 9.57
6/20/2022 3:15:00 PM 18.34 65.012 0.159 7.7 3.45 9.61
6/20/2022 3:30:00 PM 18.35 65.03 0.159 7.7 3.34 9.55
6/20/2022 3:45:00 PM 18.33 64.994 0.159 7.66 3.21 9.38
6/20/2022 4:00:00 PM 18.3 64.94 0.159 7.65 3.2 9.55
6/20/2022 4:15:00 PM 18.29 64.922 0.159 7.63 3.39 9.51
6/20/2022 4:30:00 PM 18.25 64.85 0.159 7.63 2.94 9.55
6/20/2022 4:45:00 PM 18.23 64.814 0.159 7.62 3.36 9.54
6/20/2022 5:00:00 PM 18.21 64.778 0.159 7.61 3.3 9.47
6/20/2022 5:15:00 PM 18.14 64.652 0.16 7.59 3.31 9.47
6/20/2022 5:30:00 PM 18.09 64.562 0.159 7.55 3.53 9.43
6/20/2022 5:45:00 PM 18.05 64.49 0.16 7.55 3.4 9.4
6/20/2022 6:00:00 PM 18.01 64.418 0.16 7.56 3.39 9.41
6/20/2022 6:15:00 PM 17.95 64.31 0.16 7.53 3.91 9.35
6/20/2022 6:30:00 PM 17.86 64.148 0.16 7.52 3.17 9.36
6/20/2022 6:45:00 PM 17.82 64.076 0.16 7.52 3.27 9.32
6/20/2022 7:00:00 PM 17.69 63.842 0.16 7.47 3.13 9.24
6/20/2022 7:15:00 PM 17.58 63.644 0.16 7.48 2.86 9.23
6/20/2022 7:30:00 PM 17.46 63.428 0.161 7.45 3.16 9.15
6/20/2022 7:45:00 PM 17.34 63.212 0.161 7.43 3.57 9.09
6/20/2022 8:00:00 PM 17.21 62.978 0.161 7.4 3.59 9.07
6/20/2022 8:15:00 PM 17.09 62.762 0.161 7.4 3.92 9.03
6/20/2022 8:30:00 PM 16.97 62.546 0.162 7.38 4.19 8.98
6/20/2022 8:45:00 PM 16.85 62.33 0.162 7.37 3.92 9.02
6/20/2022 9:00:00 PM 16.72 62.096 0.162 7.34 3.76 8.99
6/20/2022 9:15:00 PM 16.6 61.88 0.162 7.31 3.78 8.96
6/20/2022 9:30:00 PM 16.49 61.682 0.162 7.33 3.67 9
6/20/2022 9:45:00 PM 16.38 61.484 0.162 7.32 3.58 8.97
6/20/2022 10:00:00 PM 16.25 61.25 0.162 7.28 3.83 8.94
6/20/2022 10:15:00 PM 16.15 61.07 0.162 7.3 3.44 9.01
6/20/2022 10:30:00 PM 16.04 60.872 0.162 7.3 3.94 9.02
6/20/2022 10:45:00 PM 15.93 60.674 0.162 7.26 3.47 9.01
6/20/2022 11:00:00 PM 15.83 60.494 0.162 7.27 3.44 9.05
6/20/2022 11:15:00 PM 15.74 60.332 0.162 7.26 3.57 9.06
6/20/2022 11:30:00 PM 15.63 60.134 0.162 7.27 3.48 9.1
6/20/2022 11:45:00 PM 15.53 59.954 0.162 7.27 3.42 9.12
6/21/2022 12:00:00 AM 15.43 59.774 0.162 7.27 3.21 9.15
6/21/2022 12:15:00 AM 15.34 59.612 0.162 7.27 3.4 9.11
6/21/2022 12:30:00 AM 15.25 59.45 0.162 7.26 3.29 9.15
6/21/2022 12:45:00 AM 15.15 59.27 0.162 7.27 3.43 9.2
6/21/2022 1:00:00 AM 15.07 59.126 0.162 7.26 3.29 9.2
6/21/2022 1:15:00 AM 14.98 58.964 0.162 7.26 3.89 9.21
6/21/2022 1:30:00 AM 14.88 58.784 0.162 7.26 3.47 9.27
6/21/2022 1:45:00 AM 14.8 58.64 0.162 7.26 3.37 9
6/21/2022 2:00:00 AM 14.72 58.496 0.162 7.25 3.44 9.29
6/21/2022 2:15:00 AM 14.64 58.352 0.162 7.26 3.42 9.32
6/21/2022 2:30:00 AM 14.57 58.226 0.162 7.25 3.5 9.32
6/21/2022 2:45:00 AM 14.49 58.082 0.162 7.25 3.47 9.34
6/21/2022 3:00:00 AM 14.41 57.938 0.162 7.24 3.36 9.37
6/21/2022 3:15:00 AM 14.32 57.776 0.162 7.24 3.14 9.4
6/21/2022 3:30:00 AM 14.25 57.65 0.162 7.25 3.41 9.41
6/21/2022 3:45:00 AM 14.18 57.524 0.162 7.25 3.2 9.41
6/21/2022 4:00:00 AM 14.11 57.398 0.162 7.25 3.53 9.45
6/21/2022 4:15:00 AM 14.03 57.254 0.162 7.25 3.49 9.47
6/21/2022 4:30:00 AM 13.96 57.128 0.162 7.25 3.58 9.49
6/21/2022 4:45:00 AM 13.89 57.002 0.162 7.24 3.48 9.48
6/21/2022 5:00:00 AM 13.82 56.876 0.162 7.24 3.57 9.52
6/21/2022 5:15:00 AM 13.76 56.768 0.162 7.24 3.53 9.53
6/21/2022 5:30:00 AM 13.7 56.66 0.162 7.24 4.25 9.53
6/21/2022 5:45:00 AM 13.63 56.534 0.162 7.24 3.92 9.55
6/21/2022 6:00:00 AM 13.58 56.444 0.162 7.23 3.54 9.51
6/21/2022 6:15:00 AM 13.54 56.372 0.162 7.24 3.46 9.61
6/21/2022 6:30:00 AM 13.52 56.336 0.162 7.24 3.45 9.65
6/21/2022 6:45:00 AM 13.5 56.3 0.162 7.25 3.47 9.68
6/21/2022 7:00:00 AM 13.49 56.282 0.162 7.26 3.46 9.7
6/21/2022 7:15:00 AM 13.49 56.282 0.162 7.26 3.27 9.71
6/21/2022 7:30:00 AM 13.5 56.3 0.162 7.26 3.32 9.73
6/21/2022 7:45:00 AM 13.51 56.318 0.162 7.27 3.34 9.77
6/21/2022 8:00:00 AM 13.52 56.336 0.162 7.28 3.24 9.83
6/21/2022 8:15:00 AM 13.53 56.354 0.162 7.29 3.38 9.83
6/21/2022 8:30:00 AM 13.55 56.39 0.162 7.28 3.45 9.8
6/21/2022 8:45:00 AM 13.57 56.426 0.162 7.3 3.51 9.89
6/21/2022 9:00:00 AM 13.59 56.462 0.162 7.3 3.25 9.84
6/21/2022 9:15:00 AM 13.63 56.534 0.161 7.31 3.09 9.91
6/21/2022 9:30:00 AM 13.69 56.642 0.162 7.33 3.15 9.97
6/21/2022 9:45:00 AM 13.73 56.714 0.161 7.32 3.19 9.97
6/21/2022 10:00:00 AM 13.82 56.876 0.161 7.33 5.18 10.02
6/21/2022 10:15:00 AM 13.91 57.038 0.161 7.37 3.57 10.06
6/21/2022 10:30:00 AM 13.97 57.146 0.16 7.35 3.24 10.03
6/21/2022 10:45:00 AM 14.07 57.326 0.161 7.36 3.16 10.09
6/21/2022 11:00:00 AM 14.16 57.488 0.161 7.37 2.99 10.14
6/21/2022 11:15:00 AM 14.26 57.668 0.161 7.38 3.12 10.13
6/21/2022 11:30:00 AM 14.37 57.866 0.16 7.41 3.19 10.14
6/21/2022 11:45:00 AM 14.49 58.082 0.16 7.44 3.15 10.17
6/21/2022 12:00:00 PM 14.63 58.334 0.16 7.47 3.39 10.15
6/21/2022 12:15:00 PM 14.78 58.604 0.16 7.49 3.16 10.16
6/21/2022 12:30:00 PM 14.94 58.892 0.16 7.49 3.35 10.12
6/21/2022 12:45:00 PM 15.16 59.288 0.16 7.55 3.17 10.19
6/21/2022 1:00:00 PM 15.34 59.612 0.16 7.57 3.16 10.2
6/21/2022 1:15:00 PM 15.48 59.864 0.16 7.6 3.02 10.1
6/21/2022 1:30:00 PM 15.61 60.098 0.16 7.63 3 10.1
6/21/2022 1:45:00 PM 15.69 60.242 0.16 7.59 3.3 10.09
6/21/2022 2:00:00 PM 15.78 60.404 0.16 7.62 2.94 10.07
6/21/2022 2:15:00 PM 15.89 60.602 0.16 7.62 3.26 10.07
6/21/2022 2:30:00 PM 16.07 60.926 0.16 7.67 3.02 10.06
6/21/2022 2:45:00 PM 16.24 61.232 0.16 7.69 3.31 9.9
6/21/2022 3:00:00 PM 16.5 61.7 0.16 7.72 3.1 10.07
6/21/2022 3:15:00 PM 16.71 62.078 0.16 7.73 2.91 10.02
6/21/2022 3:30:00 PM 16.93 62.474 0.16 7.74 3.24 9.97
6/21/2022 3:45:00 PM 17.07 62.726 0.16 7.72 3.36 9.82
6/21/2022 4:00:00 PM 17.19 62.942 0.16 7.74 2.88 9.76
6/21/2022 4:15:00 PM 17.29 63.122 0.16 7.74 2.96 9.79
6/21/2022 4:30:00 PM 17.41 63.338 0.16 7.73 3.32 9.85
6/21/2022 4:45:00 PM 17.47 63.446 0.16 7.74 3.19 9.73
6/21/2022 5:00:00 PM 17.53 63.554 0.16 7.73 3 9.61
6/21/2022 5:15:00 PM 17.55 63.59 0.161 7.72 3.01 9.73
6/21/2022 5:30:00 PM 17.55 63.59 0.161 7.68 3.32 9.68
6/21/2022 5:45:00 PM 17.59 63.662 0.16 7.69 3.07 9.64
6/21/2022 6:00:00 PM 17.68 63.824 0.161 7.67 3.11 9.58
6/21/2022 6:15:00 PM 17.72 63.896 0.161 7.67 3.16 9.55
6/21/2022 6:30:00 PM 17.69 63.842 0.161 7.64 3.26 9.47
6/21/2022 6:45:00 PM 17.69 63.842 0.161 7.61 3.13 9.46
6/21/2022 7:00:00 PM 17.65 63.77 0.161 7.59 3.53 9.42
6/21/2022 7:15:00 PM 17.58 63.644 0.162 7.55 3.02 9.34
6/21/2022 7:30:00 PM 17.49 63.482 0.162 7.51 3.93 9.24
6/21/2022 7:45:00 PM 17.41 63.338 0.162 7.48 3.35 9.19
6/21/2022 8:00:00 PM 17.33 63.194 0.162 7.46 3.41 9.14
6/21/2022 8:15:00 PM 17.27 63.086 0.162 7.42 3.39 9.08
6/21/2022 8:30:00 PM 17.18 62.924 0.162 7.39 3.57 9.01
6/21/2022 8:45:00 PM 17.11 62.798 0.163 7.39 3.9 9.01
6/21/2022 9:00:00 PM 17.03 62.654 0.163 7.36 3.53 8.99
6/21/2022 9:15:00 PM 16.97 62.546 0.163 7.34 3.75 8.96
6/21/2022 9:30:00 PM 16.89 62.402 0.163 7.33 4.1 8.91
6/21/2022 9:45:00 PM 16.84 62.312 0.163 7.31 5.84 8.87
6/21/2022 10:00:00 PM 16.77 62.186 0.163 7.3 3.5 8.87
6/21/2022 10:15:00 PM 16.72 62.096 0.163 7.29 3.65 8.86
6/21/2022 10:30:00 PM 16.67 62.006 0.164 7.27 3.67 8.85
6/21/2022 10:45:00 PM 16.62 61.916 0.164 7.27 3.27 8.86
6/21/2022 11:00:00 PM 16.58 61.844 0.164 7.28 3.29 8.89
6/21/2022 11:15:00 PM 16.54 61.772 0.164 7.27 3.28 8.87
6/21/2022 11:30:00 PM 16.46 61.628 0.163 7.23 3.35 8.78
6/21/2022 11:45:00 PM 16.43 61.574 0.163 7.22 3.51 8.81
6/22/2022 12:00:00 AM 16.41 61.538 0.164 7.25 3.32 8.85
6/22/2022 12:15:00 AM 16.37 61.466 0.164 7.26 3.6 8.91
6/22/2022 12:30:00 AM 16.33 61.394 0.164 7.25 3.67 8.92
6/22/2022 12:45:00 AM 16.28 61.304 0.164 7.24 3.45 8.88
6/22/2022 1:00:00 AM 16.25 61.25 0.164 7.25 3.4 8.9
6/22/2022 1:15:00 AM 16.21 61.178 0.164 7.26 3.97 8.93
6/22/2022 1:30:00 AM 16.17 61.106 0.164 7.25 3.96 8.95
6/22/2022 1:45:00 AM 16.13 61.034 0.164 7.24 3.6 8.95
6/22/2022 2:00:00 AM 16.09 60.962 0.164 7.24 3.77 8.94
6/22/2022 2:15:00 AM 16.05 60.89 0.164 7.25 3.54 8.94
6/22/2022 2:30:00 AM 16.01 60.818 0.164 7.25 3.58 8.99
6/22/2022 2:45:00 AM 15.97 60.746 0.164 7.25 3.43 9.01
6/22/2022 3:00:00 AM 15.93 60.674 0.164 7.24 3.64 9
6/22/2022 3:15:00 AM 15.88 60.584 0.163 7.23 3.73 8.99
6/22/2022 3:30:00 AM 15.85 60.53 0.163 7.24 3.3 9
6/22/2022 3:45:00 AM 15.81 60.458 0.163 7.25 3.37 9.02
6/22/2022 4:00:00 AM 15.77 60.386 0.163 7.25 3.25 9.04
6/22/2022 4:15:00 AM 15.73 60.314 0.163 7.25 3.2 9.05
6/22/2022 4:30:00 AM 15.69 60.242 0.163 7.24 3.75 9.03
6/22/2022 4:45:00 AM 15.65 60.17 0.163 7.24 3.28 9.04
6/22/2022 5:00:00 AM 15.62 60.116 0.163 7.25 3.43 9.06
6/22/2022 5:15:00 AM 15.58 60.044 0.163 7.24 3.64 9.07
6/22/2022 5:30:00 AM 15.54 59.972 0.163 7.23 3.72 8.96
6/22/2022 5:45:00 AM 15.51 59.918 0.163 7.24 3.61 9
6/22/2022 6:00:00 AM 15.47 59.846 0.163 7.23 6.82 9.08
6/22/2022 6:15:00 AM 15.44 59.792 0.163 7.24 3.54 9.13
6/22/2022 6:30:00 AM 15.42 59.756 0.163 7.25 3.46 9.14
6/22/2022 6:45:00 AM 15.4 59.72 0.163 7.26 3.34 9.19
6/22/2022 7:00:00 AM 15.39 59.702 0.163 7.26 3.87 9.2
6/22/2022 7:15:00 AM 15.39 59.702 0.163 7.28 4.01 9.27
6/22/2022 7:30:00 AM 15.39 59.702 0.163 7.28 3.25 9.3
6/22/2022 7:45:00 AM 15.4 59.72 0.163 7.27 3.43 9.32
6/22/2022 8:00:00 AM 15.42 59.756 0.163 7.28 3.24 9.33
6/22/2022 8:15:00 AM 15.46 59.828 0.162 7.29 3.44 9.41
6/22/2022 8:30:00 AM 15.5 59.9 0.162 7.29 3.14 9.36
6/22/2022 8:45:00 AM 15.61 60.098 0.162 7.32 3.27 9.45
6/22/2022 9:00:00 AM 15.71 60.278 0.162 7.34 3.74 9.54
6/22/2022 9:15:00 AM 15.79 60.422 0.162 7.36 3.18 9.55
6/22/2022 9:30:00 AM 15.87 60.566 0.162 7.34 3.29 9.51
6/22/2022 9:45:00 AM 16.01 60.818 0.162 7.41 3.35 9.6
6/22/2022 10:00:00 AM 16.11 60.998 0.162 7.42 3.05 9.61
6/22/2022 10:15:00 AM 16.24 61.232 0.162 7.44 3.06 9.67
6/22/2022 10:30:00 AM 16.39 61.502 0.162 7.48 2.86 9.73
6/22/2022 10:45:00 AM 16.54 61.772 0.161 7.51 3.14 9.75
6/22/2022 11:00:00 AM 16.7 62.06 0.161 7.53 3.17 9.75
6/22/2022 11:15:00 AM 16.83 62.294 0.161 7.51 3.12 9.69
6/22/2022 11:30:00 AM 17.05 62.69 0.161 7.6 2.97 9.43
6/22/2022 11:45:00 AM 17.3 63.14 0.161 7.63 3.17 9.7
6/22/2022 12:00:00 PM 17.56 63.608 0.162 7.67 3.08 9.7
6/22/2022 12:15:00 PM 17.83 64.094 0.161 7.68 3.02 9.76
6/22/2022 12:30:00 PM 18.05 64.49 0.161 7.73 3.13 9.67
6/22/2022 12:45:00 PM 18.31 64.958 0.161 7.76 3.08 9.71
6/22/2022 1:00:00 PM 18.55 65.39 0.161 7.78 3.08 9.54
6/22/2022 1:15:00 PM 18.73 65.714 0.161 7.81 2.86 9.63
6/22/2022 1:30:00 PM 18.86 65.948 0.161 7.8 2.95 9.61
6/22/2022 1:45:00 PM 19.04 66.272 0.161 7.82 3.14 9.4
6/22/2022 2:00:00 PM 19.25 66.65 0.161 7.84 3 9.57
6/22/2022 2:15:00 PM 19.48 67.064 0.161 7.87 3.04 9.52
6/22/2022 2:30:00 PM 19.61 67.298 0.161 7.86 3.23 9.51
6/22/2022 2:45:00 PM 19.74 67.532 0.161 7.88 3.74 9.42
6/22/2022 3:00:00 PM 19.86 67.748 0.161 7.89 3.27 9.48
6/22/2022 3:15:00 PM 19.92 67.856 0.161 7.9 3.15 9.42
6/22/2022 3:30:00 PM 19.97 67.946 0.161 7.88 3.15 9.4
6/22/2022 3:45:00 PM 20.01 68.018 0.161 7.88 3.24 9.31
6/22/2022 4:00:00 PM 20.05 68.09 0.161 7.87 3.08 9.41
6/22/2022 4:15:00 PM 20.05 68.09 0.161 7.84 3.15 9.34
6/22/2022 4:30:00 PM 20.03 68.054 0.161 7.86 3.3 9.36
6/22/2022 4:45:00 PM 19.96 67.92799 0.161 7.84 3.22 9.32
6/22/2022 5:00:00 PM 19.9 67.82 0.161 7.83 3.22 9.28
6/22/2022 5:15:00 PM 19.82 67.676 0.161 7.8 3.38 9.2
6/22/2022 5:30:00 PM 19.7 67.46 0.161 7.71 3.18 9.05
6/22/2022 5:45:00 PM 19.61 67.298 0.162 7.72 3.22 9.08
6/22/2022 6:00:00 PM 19.46 67.028 0.162 7.66 3.35 8.99
6/22/2022 6:15:00 PM 19.33 66.794 0.162 7.61 3.86 8.93
6/22/2022 6:30:00 PM 19.18 66.524 0.162 7.51 3.43 8.77
6/22/2022 6:45:00 PM 19.06 66.308 0.163 7.51 3.43 8.74
6/22/2022 7:00:00 PM 18.91 66.038 0.163 7.5 3.25 8.71
6/22/2022 7:15:00 PM 18.78 65.804 0.163 7.48 3.33 8.71
6/22/2022 7:30:00 PM 18.66 65.588 0.163 7.47 3.25 8.67
6/22/2022 7:45:00 PM 18.53 65.354 0.164 7.44 3.45 8.66
6/22/2022 8:00:00 PM 18.42 65.156 0.164 7.42 3.25 8.61
6/22/2022 8:15:00 PM 18.31 64.958 0.164 7.4 3.46 8.62
6/22/2022 8:30:00 PM 18.21 64.778 0.164 7.4 3.53 8.63
6/22/2022 8:45:00 PM 18.1 64.58 0.165 7.38 3.61 8.61
6/22/2022 9:00:00 PM 18.01 64.418 0.165 7.37 3.34 8.58
6/22/2022 9:15:00 PM 17.92 64.256 0.165 7.35 3.41 8.62
6/22/2022 9:30:00 PM 17.84 64.112 0.165 7.35 3.5 8.63
6/22/2022 9:45:00 PM 17.77 63.986 0.165 7.34 3.7 8.62
6/22/2022 10:00:00 PM 17.68 63.824 0.162 7.34 6.45 8.66
6/22/2022 10:15:00 PM 17.64 63.752 0.16 7.29 7.29 8.58
6/22/2022 10:30:00 PM 17.61 63.698 0.156 7.29 8.5 8.65
6/22/2022 10:45:00 PM 17.57 63.626 0.153 7.28 9.08 8.63
6/22/2022 11:00:00 PM 17.48 63.464 0.152 7.23 10.05 8.58
6/22/2022 11:15:00 PM 17.38 63.284 0.153 7.25 10.7 8.62
6/22/2022 11:30:00 PM 17.28 63.104 0.153 7.22 12.12 8.61
6/22/2022 11:45:00 PM 17.2 62.96 0.153 7.2 12.48 8.57
6/23/2022 12:00:00 AM 17.13 62.834 0.152 7.2 11.12 8.6
6/23/2022 12:15:00 AM 17.07 62.726 0.151 7.18 9.54 8.6
6/23/2022 12:30:00 AM 17.01 62.618 0.15 7.17 7.72 8.58
6/23/2022 12:45:00 AM 16.97 62.546 0.149 7.17 7.48 8.66
6/23/2022 1:00:00 AM 16.93 62.474 0.149 7.17 6.18 8.61
6/23/2022 1:15:00 AM 16.89 62.402 0.149 7.17 5.39 8.67
6/23/2022 1:30:00 AM 16.83 62.294 0.149 7.13 5.37 8.57
6/23/2022 1:45:00 AM 16.82 62.276 0.15 7.18 5.08 8.71
6/23/2022 2:00:00 AM 16.78 62.204 0.15 7.18 4.83 8.72
6/23/2022 2:15:00 AM 16.75 62.15 0.15 7.17 9.31 8.75
6/23/2022 2:30:00 AM 16.69 62.042 0.151 7.17 5.06 8.7
6/23/2022 2:45:00 AM 16.67 62.006 0.152 7.2 4.17 8.78
6/23/2022 3:00:00 AM 16.64 61.952 0.152 7.2 4.36 8.8
6/23/2022 3:15:00 AM 16.61 61.898 0.153 7.21 4.46 8.82
6/23/2022 3:30:00 AM 16.58 61.844 0.153 7.2 4.16 8.74
6/23/2022 3:45:00 AM 16.55 61.79 0.154 7.21 4.31 8.83
6/23/2022 4:00:00 AM 16.52 61.736 0.154 7.21 3.94 8.82
6/23/2022 4:15:00 AM 16.49 61.682 0.155 7.21 3.89 8.79
6/23/2022 4:30:00 AM 16.45 61.61 0.155 7.18 4.09 8.74
6/23/2022 4:45:00 AM 16.42 61.556 0.155 7.18 4.08 8.75
6/23/2022 5:00:00 AM 16.4 61.52 0.155 7.19 4.07 8.79
6/23/2022 5:15:00 AM 16.38 61.484 0.156 7.21 2.85 8.75
6/23/2022 5:30:00 AM 16.35 61.43 0.156 7.2 4.07 8.82
6/23/2022 5:45:00 AM 16.32 61.376 0.156 7.2 3.54 8.81
6/23/2022 6:00:00 AM 16.3 61.34 0.156 7.19 3.97 8.85
6/23/2022 6:15:00 AM 16.25 61.25 0.156 7.17 4.06 8.71
6/23/2022 6:30:00 AM 16.26 61.268 0.157 7.21 4.17 8.89
6/23/2022 6:45:00 AM 16.23 61.214 0.157 7.21 3.99 8.86
6/23/2022 7:00:00 AM 16.21 61.178 0.157 7.2 4.34 8.88
6/23/2022 7:15:00 AM 16.19 61.142 0.157 7.21 3.67 8.92
6/23/2022 7:30:00 AM 16.17 61.106 0.158 7.19 3.98 8.92
6/23/2022 7:45:00 AM 16.15 61.07 0.158 7.2 3.75 8.94
6/23/2022 8:00:00 AM 16.14 61.052 0.158 7.22 3.84 8.97
6/23/2022 8:15:00 AM 16.12 61.016 0.158 7.22 3.43 8.93
6/23/2022 8:30:00 AM 16.12 61.016 0.158 7.24 4.04 9.04
6/23/2022 8:45:00 AM 16.1 60.98 0.158 7.25 3.54 9.03
6/23/2022 9:00:00 AM 16.1 60.98 0.158 7.26 3.83 9.06
6/23/2022 9:15:00 AM 16.1 60.98 0.158 7.24 3.52 9.09
6/23/2022 9:30:00 AM 16.11 60.998 0.158 7.26 3.84 9.05
6/23/2022 9:45:00 AM 16.11 60.998 0.158 7.27 3.63 9.19
6/23/2022 10:00:00 AM 16.12 61.016 0.158 7.3 3.31 9.22
6/23/2022 10:15:00 AM 16.12 61.016 0.158 7.29 3.25 9.22
6/23/2022 10:30:00 AM 16.11 60.998 0.159 7.29 3.69 9.18
6/23/2022 10:45:00 AM 16.2 61.16 0.159 7.3 3.39 9.26
6/23/2022 11:00:00 AM 16.33 61.394 0.157 7.31 3.62 9.18
6/23/2022 11:15:00 AM 16.59 61.862 0.158 7.36 3.34 9.45
6/23/2022 11:30:00 AM 16.84 62.312 0.159 7.39 3.34 9.39
6/23/2022 11:45:00 AM 17.15 62.87 0.159 7.43 3.4 9.49
6/23/2022 12:00:00 PM 17.41 63.338 0.158 7.46 3.06 9.5
6/23/2022 12:15:00 PM 17.55 63.59 0.159 7.49 3.49 9.53
6/23/2022 12:30:00 PM 17.59 63.662 0.159 7.52 3.37 9.52
6/23/2022 12:45:00 PM 17.56 63.608 0.158 7.48 3.49 9.43
6/23/2022 1:00:00 PM 17.53 63.554 0.158 7.49 3.47 9.38
6/23/2022 1:15:00 PM 17.5 63.5 0.159 7.48 3.45 9.4
6/23/2022 1:30:00 PM 17.43 63.374 0.159 7.48 4.6 9.36
6/23/2022 1:45:00 PM 17.36 63.248 0.159 7.44 4.13 9.34
6/23/2022 2:00:00 PM 17.33 63.194 0.159 7.46 3.64 9.41
6/23/2022 2:15:00 PM 17.34 63.212 0.159 7.53 3.84 9.48
6/23/2022 2:30:00 PM 17.35 63.23 0.159 7.51 3.68 9.47
6/23/2022 2:45:00 PM 17.35 63.23 0.159 7.46 3.74 9.42
6/23/2022 3:00:00 PM 17.42 63.356 0.159 7.58 3.33 9.57
6/23/2022 3:15:00 PM 17.43 63.374 0.159 7.56 3.41 9.54
6/23/2022 3:30:00 PM 17.55 63.59 0.159 7.62 3.3 9.51
6/23/2022 3:45:00 PM 17.7 63.86 0.159 7.63 3.39 9.59
6/23/2022 4:00:00 PM 17.79 64.022 0.159 7.63 3.53 9.59
6/23/2022 4:15:00 PM 17.84 64.112 0.16 7.63 3.33 9.55
6/23/2022 4:30:00 PM 17.8 64.04 0.16 7.61 3.07 9.5
6/23/2022 4:45:00 PM 17.77 63.986 0.16 7.56 3.28 9.48
6/23/2022 5:00:00 PM 17.77 63.986 0.16 7.6 3.27 9.46
6/23/2022 5:15:00 PM 17.77 63.986 0.16 7.62 3.5 9.46
6/23/2022 5:30:00 PM 17.74 63.932 0.16 7.59 3.21 9.41
6/23/2022 5:45:00 PM 17.71 63.878 0.16 7.56 3.52 9.37
6/23/2022 6:00:00 PM 17.69 63.842 0.16 7.55 3.38 9.36
6/23/2022 6:15:00 PM 17.65 63.77 0.16 7.5 3.62 9.2
6/23/2022 6:30:00 PM 17.69 63.842 0.16 7.53 3.18 9.32
6/23/2022 6:45:00 PM 17.7 63.86 0.16 7.56 1.84 9.3
6/23/2022 7:00:00 PM 17.69 63.842 0.16 7.54 3.01 9.35
6/23/2022 7:15:00 PM 17.63 63.734 0.16 7.51 3.35 9.31
6/23/2022 7:30:00 PM 17.57 63.626 0.161 7.51 3.41 9.24
6/23/2022 7:45:00 PM 17.51 63.518 0.161 7.49 9.06 9.18
6/23/2022 8:00:00 PM 17.43 63.374 0.161 7.48 3.19 9.15
6/23/2022 8:15:00 PM 17.35 63.23 0.161 7.45 3.22 9.1
6/23/2022 8:30:00 PM 17.26 63.068 0.161 7.43 3.15 9.05
6/23/2022 8:45:00 PM 17.18 62.924 0.161 7.41 3.32 9.01
6/23/2022 9:00:00 PM 17.1 62.78 0.162 7.39 3.43 8.94
6/23/2022 9:15:00 PM 17.02 62.636 0.162 7.38 3.86 8.96
6/23/2022 9:30:00 PM 16.95 62.51 0.162 7.35 3.76 8.93
6/23/2022 9:45:00 PM 16.88 62.384 0.162 7.35 3.39 8.92
6/23/2022 10:00:00 PM 16.82 62.276 0.162 7.34 3.26 8.91
6/23/2022 10:15:00 PM 16.76 62.168 0.162 7.33 3.43 8.89
6/23/2022 10:30:00 PM 16.69 62.042 0.162 7.31 3.78 8.89
6/23/2022 10:45:00 PM 16.63 61.934 0.162 7.31 3.52 8.91
6/23/2022 11:00:00 PM 16.56 61.808 0.162 7.31 3.75 8.92
6/23/2022 11:15:00 PM 16.52 61.736 0.162 7.29 3.77 8.91
6/23/2022 11:30:00 PM 16.48 61.664 0.162 7.29 3.73 8.89
6/23/2022 11:45:00 PM 16.44 61.592 0.162 7.29 3.6 8.93
6/24/2022 12:00:00 AM 16.4 61.52 0.163 7.29 3.5 8.92
6/24/2022 12:15:00 AM 16.36 61.448 0.163 7.28 3.4 8.94
6/24/2022 12:30:00 AM 16.33 61.394 0.163 7.28 3.56 8.93
6/24/2022 12:45:00 AM 16.28 61.304 0.163 7.28 3.8 8.97
6/24/2022 1:00:00 AM 16.24 61.232 0.163 7.27 3.95 8.97
6/24/2022 1:15:00 AM 16.18 61.124 0.163 7.26 3.91 8.93
6/24/2022 1:30:00 AM 16.13 61.034 0.163 7.27 3.83 8.99
6/24/2022 1:45:00 AM 16.08 60.944 0.163 7.26 3.66 8.96
6/24/2022 2:00:00 AM 16.02 60.836 0.163 7.26 3.54 9.03
6/24/2022 2:15:00 AM 15.96 60.728 0.163 7.26 6.03 9
6/24/2022 2:30:00 AM 15.9 60.62 0.163 7.26 3.62 9.05
6/24/2022 2:45:00 AM 15.85 60.53 0.163 7.27 3.9 9.06
6/24/2022 3:00:00 AM 15.8 60.44 0.163 7.26 3.63 9.07
6/24/2022 3:15:00 AM 15.75 60.35 0.163 7.26 3.4 9.08
6/24/2022 3:30:00 AM 15.71 60.278 0.163 7.26 3.36 9.11
6/24/2022 3:45:00 AM 15.67 60.206 0.162 7.26 3.42 9.1
6/24/2022 4:00:00 AM 15.63 60.134 0.162 7.26 3.32 9.12
6/24/2022 4:15:00 AM 15.61 60.098 0.162 7.26 3.59 9.13
6/24/2022 4:30:00 AM 15.58 60.044 0.162 7.26 3.59 9.14
6/24/2022 4:45:00 AM 15.55 59.99 0.162 7.25 3.62 9.15
6/24/2022 5:00:00 AM 15.53 59.954 0.162 7.25 3.73 9.12
6/24/2022 5:15:00 AM 15.51 59.918 0.162 7.25 3.73 9.14
6/24/2022 5:30:00 AM 15.49 59.882 0.162 7.25 3.51 9.15
6/24/2022 5:45:00 AM 15.47 59.846 0.162 7.25 4.01 9.14
6/24/2022 6:00:00 AM 15.45 59.81 0.162 7.25 3.83 9.17
6/24/2022 6:15:00 AM 15.44 59.792 0.162 7.25 4.18 9.17
6/24/2022 6:30:00 AM 15.43 59.774 0.162 7.26 3.77 9.21
6/24/2022 6:45:00 AM 15.42 59.756 0.162 7.28 3.51 9.26
6/24/2022 7:00:00 AM 15.42 59.756 0.162 7.27 3.44 9.27
6/24/2022 7:15:00 AM 15.43 59.774 0.162 7.29 3.23 9.34
6/24/2022 7:30:00 AM 15.44 59.792 0.162 7.3 3.22 9.38
6/24/2022 7:45:00 AM 15.45 59.81 0.162 7.31 3.74 9.41
6/24/2022 8:00:00 AM 15.47 59.846 0.162 7.32 3.58 9.45
6/24/2022 8:15:00 AM 15.52 59.936 0.162 7.32 3.35 9.51
6/24/2022 8:30:00 AM 15.56 60.008 0.161 7.33 3.44 9.5
6/24/2022 8:45:00 AM 15.6 60.08 0.161 7.33 3.4 9.45
6/24/2022 9:00:00 AM 15.7 60.26 0.161 7.39 3.6 9.62
6/24/2022 9:15:00 AM 15.74 60.332 0.161 7.35 3.58 9.61
6/24/2022 9:30:00 AM 15.82 60.476 0.161 7.39 3.29 9.68
6/24/2022 9:45:00 AM 15.87 60.566 0.161 7.38 3.15 9.68
6/24/2022 10:00:00 AM 15.97 60.746 0.161 7.43 3.38 9.69
6/24/2022 10:15:00 AM 16.11 60.998 0.161 7.44 3.24 9.74
6/24/2022 10:30:00 AM 16.37 61.466 0.161 7.48 3.16 9.69
6/24/2022 10:45:00 AM 16.54 61.772 0.161 7.5 3.17 9.72
6/24/2022 11:00:00 AM 16.68 62.024 0.161 7.54 3.13 9.65
6/24/2022 11:15:00 AM 16.89 62.402 0.16 7.57 3.47 9.6
6/24/2022 11:30:00 AM 17.07 62.726 0.16 7.58 3.1 9.74
6/24/2022 11:45:00 AM 17.38 63.284 0.161 7.63 3.38 9.61
6/24/2022 12:00:00 PM 17.74 63.932 0.161 7.65 2.93 9.44
6/24/2022 12:15:00 PM 18.03 64.454 0.161 7.65 3.23 9.43
6/24/2022 12:30:00 PM 18.32 64.976 0.161 7.66 3.12 9.51
6/24/2022 12:45:00 PM 18.64 65.552 0.161 7.67 3.21 9.5
6/24/2022 1:00:00 PM 18.94 66.092 0.161 7.69 3.14 9.37
6/24/2022 1:15:00 PM 19.21 66.578 0.161 7.68 3.24 9.28
6/24/2022 1:30:00 PM 19.47 67.046 0.161 7.7 3.36 9.23
6/24/2022 1:45:00 PM 19.72 67.496 0.161 7.7 3.76 9.25
6/24/2022 2:00:00 PM 19.96 67.92799 0.162 7.73 3.41 9.19
6/24/2022 2:15:00 PM 20.17 68.306 0.162 7.75 3.51 9.24
6/24/2022 2:30:00 PM 20.33 68.594 0.162 7.74 3.46 9.2
6/24/2022 2:45:00 PM 20.46 68.828 0.162 7.73 3.29 9.06
6/24/2022 3:00:00 PM 20.57 69.026 0.162 7.75 3.61 9.13
6/24/2022 3:15:00 PM 20.64 69.152 0.162 7.73 3.22 9.04
6/24/2022 3:30:00 PM 20.68 69.224 0.162 7.73 3.19 9.12
6/24/2022 3:45:00 PM 20.68 69.224 0.162 7.71 3.71 9.12
6/24/2022 4:00:00 PM 20.67 69.206 0.162 7.7 3.52 9.09
6/24/2022 4:15:00 PM 20.66 69.188 0.162 7.69 3.46 9.06
6/24/2022 4:30:00 PM 20.64 69.152 0.162 7.68 3.67 9.08
6/24/2022 4:45:00 PM 20.58 69.044 0.163 7.65 3.61 9.04
6/24/2022 5:00:00 PM 20.55 68.99 0.163 7.65 3.69 9.03
6/24/2022 5:15:00 PM 20.52 68.936 0.162 7.62 3.62 8.97
6/24/2022 5:30:00 PM 20.49 68.882 0.163 7.61 3.5 8.98
6/24/2022 5:45:00 PM 20.42 68.756 0.163 7.59 3.47 8.97
6/24/2022 6:00:00 PM 20.37 68.666 0.163 7.57 3.64 8.92
6/24/2022 6:15:00 PM 20.27 68.486 0.163 7.54 3.53 8.88
6/24/2022 6:30:00 PM 20.15 68.27 0.163 7.52 3.5 8.87
6/24/2022 6:45:00 PM 20.04 68.07201 0.163 7.43 3.37 8.81
6/24/2022 7:00:00 PM 19.94 67.892 0.163 7.45 3.77 8.79
6/24/2022 7:15:00 PM 19.79 67.622 0.164 7.41 3.25 8.65
6/24/2022 7:30:00 PM 19.68 67.424 0.164 7.43 5.6 8.58
6/24/2022 7:45:00 PM 19.55 67.19 0.164 7.42 3.9 8.67
6/24/2022 8:00:00 PM 19.42 66.956 0.164 7.39 3.6 8.61
6/24/2022 8:15:00 PM 19.3 66.74 0.164 7.37 3.68 8.57
6/24/2022 8:30:00 PM 19.19 66.542 0.164 7.34 3.72 8.54
6/24/2022 8:45:00 PM 19.08 66.344 0.165 7.34 4.73 8.55
6/24/2022 9:00:00 PM 18.98 66.164 0.165 7.34 4.01 8.54
6/24/2022 9:15:00 PM 18.88 65.984 0.165 7.32 3.65 8.52
6/24/2022 9:30:00 PM 18.77 65.786 0.165 7.29 4.2 8.46
6/24/2022 9:45:00 PM 18.7 65.66 0.165 7.3 3.66 8.51
6/24/2022 10:00:00 PM 18.6 65.48 0.165 7.27 3.88 8.47
6/24/2022 10:15:00 PM 18.53 65.354 0.165 7.27 3.79 8.49
6/24/2022 10:30:00 PM 18.44 65.192 0.165 7.28 3.98 8.51
6/24/2022 10:45:00 PM 18.37 65.066 0.165 7.26 4.26 8.53
6/24/2022 11:00:00 PM 18.29 64.922 0.165 7.26 3.34 8.53
6/24/2022 11:15:00 PM 18.22 64.796 0.165 7.26 3.48 8.54
6/24/2022 11:30:00 PM 18.14 64.652 0.164 7.22 3.49 8.5
6/24/2022 11:45:00 PM 18.08 64.544 0.164 7.25 3.42 8.55
6/25/2022 12:00:00 AM 18.01 64.418 0.164 7.23 6.55 8.52
6/25/2022 12:15:00 AM 17.94 64.292 0.164 7.25 3.58 8.61
6/25/2022 12:30:00 AM 17.87 64.166 0.164 7.24 3.69 8.59
6/25/2022 12:45:00 AM 17.8 64.04 0.164 7.24 3.45 8.64
6/25/2022 1:00:00 AM 17.73 63.914 0.164 7.24 3.41 8.65
6/25/2022 1:15:00 AM 17.67 63.806 0.164 7.24 3.83 8.64
6/25/2022 1:30:00 AM 17.6 63.68 0.164 7.24 4.3 8.64
6/25/2022 1:45:00 AM 17.53 63.554 0.164 7.24 3.89 8.68
6/25/2022 2:00:00 AM 17.46 63.428 0.164 7.24 3.84 8.71
6/25/2022 2:15:00 AM 17.39 63.302 0.164 7.22 3.61 8.69
6/25/2022 2:30:00 AM 17.33 63.194 0.164 7.24 3.4 8.72
6/25/2022 2:45:00 AM 17.27 63.086 0.164 7.24 3.67 8.75
6/25/2022 3:00:00 AM 17.21 62.978 0.164 7.24 3.78 8.77
6/25/2022 3:15:00 AM 17.15 62.87 0.164 7.24 3.34 8.78
6/25/2022 3:30:00 AM 17.09 62.762 0.164 7.24 3.8 8.79
6/25/2022 3:45:00 AM 17.01 62.618 0.165 7.22 3.55 8.74
6/25/2022 4:00:00 AM 16.96 62.528 0.164 7.25 1.8 8.83
6/25/2022 4:15:00 AM 16.89 62.402 0.165 7.24 3.86 8.83
6/25/2022 4:30:00 AM 16.82 62.276 0.164 7.24 3.46 8.87
6/25/2022 4:45:00 AM 16.77 62.186 0.165 7.24 3.62 8.87
6/25/2022 5:00:00 AM 16.73 62.114 0.164 7.22 3.83 8.88
6/25/2022 5:15:00 AM 16.68 62.024 0.165 7.23 3.69 8.88
6/25/2022 5:30:00 AM 16.64 61.952 0.165 7.23 3.98 8.89
6/25/2022 5:45:00 AM 16.61 61.898 0.164 7.23 3.79 8.9
6/25/2022 6:00:00 AM 16.57 61.826 0.165 7.22 3.7 8.92
6/25/2022 6:15:00 AM 16.54 61.772 0.164 7.23 3.31 8.94
6/25/2022 6:30:00 AM 16.51 61.718 0.164 7.23 3.68 8.89
6/25/2022 6:45:00 AM 16.5 61.7 0.164 7.24 3.78 8.98
6/25/2022 7:00:00 AM 16.48 61.664 0.164 7.24 3.17 9.02
6/25/2022 7:15:00 AM 16.47 61.646 0.164 7.27 3.84 9.09
6/25/2022 7:30:00 AM 16.47 61.646 0.164 7.27 3.6 9.12
6/25/2022 7:45:00 AM 16.47 61.646 0.164 7.28 3.76 9.15
6/25/2022 8:00:00 AM 16.47 61.646 0.164 7.28 3.66 9.19
6/25/2022 8:15:00 AM 16.49 61.682 0.164 7.29 3.54 9.25
6/25/2022 8:30:00 AM 16.51 61.718 0.164 7.3 3.26 9.27
6/25/2022 8:45:00 AM 16.55 61.79 0.164 7.29 3.4 9.31
6/25/2022 9:00:00 AM 16.59 61.862 0.164 7.34 3.49 9.39
6/25/2022 9:15:00 AM 16.63 61.934 0.164 7.34 3.54 9.38
6/25/2022 9:30:00 AM 16.68 62.024 0.163 7.33 3.51 9.34
6/25/2022 9:45:00 AM 16.8 62.24 0.163 7.35 3.81 9.33
6/25/2022 10:00:00 AM 16.91 62.438 0.163 7.3 3.33 9.33
6/25/2022 10:15:00 AM 17.1 62.78 0.163 7.36 3.36 9.32
6/25/2022 10:30:00 AM 17.32 63.176 0.163 7.38 3.76 9.29
6/25/2022 10:45:00 AM 17.58 63.644 0.163 7.4 3.48 9.26
6/25/2022 11:00:00 AM 17.87 64.166 0.163 7.42 3.52 9.12
6/25/2022 11:15:00 AM 18.16 64.688 0.163 7.45 3.57 9.19
6/25/2022 11:30:00 AM 18.52 65.336 0.163 7.5 3.38 9.3
6/25/2022 11:45:00 AM 18.84 65.912 0.163 7.52 3.76 9.22
6/25/2022 12:00:00 PM 19.15 66.47 0.164 7.54 3.55 9.2
6/25/2022 12:15:00 PM 19.48 67.064 0.163 7.58 3.95 9.24
6/25/2022 12:30:00 PM 19.78 67.604 0.163 7.6 3.64 9.23
6/25/2022 12:45:00 PM 20.08 68.144 0.164 7.62 3.58 9.13
6/25/2022 1:00:00 PM 20.32 68.576 0.164 7.64 3.56 9.16
6/25/2022 1:15:00 PM 20.59 69.062 0.164 7.67 3.52 9.15
6/25/2022 1:30:00 PM 20.82 69.476 0.164 7.68 3.53 9.08
6/25/2022 1:45:00 PM 21.05 69.89 0.164 7.7 3.44 9.08
6/25/2022 2:00:00 PM 21.26 70.268 0.164 7.73 3.62 9.04
6/25/2022 2:15:00 PM 21.47 70.646 0.164 7.75 3.43 9.08
6/25/2022 2:30:00 PM 21.63 70.934 0.164 7.75 3.52 9.06
6/25/2022 2:45:00 PM 21.75 71.15 0.164 7.76 3.5 9.02
6/25/2022 3:00:00 PM 21.85 71.33 0.164 7.76 3.33 9.05
6/25/2022 3:15:00 PM 21.89 71.402 0.164 7.76 3.51 9.01
6/25/2022 3:30:00 PM 21.91 71.438 0.164 7.76 3.73 8.99
6/25/2022 3:45:00 PM 21.84 71.312 0.164 7.72 3.39 8.78
6/25/2022 4:00:00 PM 21.85 71.33 0.164 7.73 4.04 8.66
6/25/2022 4:15:00 PM 21.82 71.276 0.164 7.68 4.18 8.75
6/25/2022 4:30:00 PM 21.8 71.24 0.164 7.69 3.77 8.91
6/25/2022 4:45:00 PM 21.76 71.168 0.164 7.69 3.8 8.92
6/25/2022 5:00:00 PM 21.72 71.096 0.164 7.64 3.36 8.89
6/25/2022 5:15:00 PM 21.66 70.988 0.164 7.64 3.84 8.88
6/25/2022 5:30:00 PM 21.64 70.952 0.164 7.62 3.61 8.83
6/25/2022 5:45:00 PM 21.58 70.844 0.164 7.6 3.67 8.83
6/25/2022 6:00:00 PM 21.52 70.736 0.165 7.6 3.16 8.77
6/25/2022 6:15:00 PM 21.42 70.556 0.165 7.55 3.67 8.67
6/25/2022 6:30:00 PM 21.29 70.32201 0.165 7.53 3.49 8.71
6/25/2022 6:45:00 PM 21.2 70.16 0.165 7.53 4.03 8.66
6/25/2022 7:00:00 PM 21.08 69.944 0.166 7.5 4.37 8.59
6/25/2022 7:15:00 PM 20.95 69.71 0.166 7.47 3.54 8.56
6/25/2022 7:30:00 PM 20.82 69.476 0.166 7.45 3.6 8.53
6/25/2022 7:45:00 PM 20.68 69.224 0.166 7.42 3.95 8.47
6/25/2022 8:00:00 PM 20.55 68.99 0.166 7.4 3.94 8.24
6/25/2022 8:15:00 PM 20.41 68.738 0.167 7.38 3.99 8.08
6/25/2022 8:30:00 PM 20.28 68.504 0.167 7.37 4.82 8.35
6/25/2022 8:45:00 PM 20.14 68.252 0.167 7.35 3.59 8.33
6/25/2022 9:00:00 PM 20.02 68.036 0.167 7.34 3.83 8.33
6/25/2022 9:15:00 PM 19.91 67.838 0.167 7.32 5.35 8.3
6/25/2022 9:30:00 PM 19.8 67.64 0.167 7.31 4.93 8.27
6/25/2022 9:45:00 PM 19.7 67.46 0.167 7.3 4.35 8.28
6/25/2022 10:00:00 PM 19.59 67.262 0.167 7.29 4.22 8.31
6/25/2022 10:15:00 PM 19.5 67.1 0.167 7.29 3.95 8.31
6/25/2022 10:30:00 PM 19.4 66.92 0.167 7.28 3.55 8.34
6/25/2022 10:45:00 PM 19.31 66.758 0.167 7.27 3.67 8.33
6/25/2022 11:00:00 PM 19.22 66.596 0.167 7.28 3.43 8.35
6/25/2022 11:15:00 PM 19.13 66.434 0.167 7.26 3.78 8.35
6/25/2022 11:30:00 PM 19.05 66.29 0.167 7.27 3.3 8.37
6/25/2022 11:45:00 PM 18.96 66.128 0.167 7.26 3.78 8.36
6/26/2022 12:00:00 AM 18.89 66.002 0.167 7.27 3.56 8.41
6/26/2022 12:15:00 AM 18.81 65.858 0.167 7.27 3.61 8.36
6/26/2022 12:30:00 AM 18.72 65.696 0.167 7.26 3.48 8.44
6/26/2022 12:45:00 AM 18.65 65.57 0.167 7.26 3.51 8.46
6/26/2022 1:00:00 AM 18.58 65.444 0.167 7.26 3.8 8.43
6/26/2022 1:15:00 AM 18.49 65.282 0.166 7.25 3.53 8.5
6/26/2022 1:30:00 AM 18.42 65.156 0.167 7.26 3.61 8.51
6/26/2022 1:45:00 AM 18.34 65.012 0.167 7.26 4.83 8.51
6/26/2022 2:00:00 AM 18.27 64.886 0.166 7.25 4.23 8.55
6/26/2022 2:15:00 AM 18.19 64.742 0.166 7.26 3.43 8.55
6/26/2022 2:30:00 AM 18.12 64.616 0.167 7.25 3.43 8.57
6/26/2022 2:45:00 AM 18.05 64.49 0.166 7.26 3.23 8.58
6/26/2022 3:00:00 AM 17.97 64.346 0.166 7.26 3.43 8.6
6/26/2022 3:15:00 AM 17.9 64.22 0.166 7.26 3.48 8.62
6/26/2022 3:30:00 AM 17.83 64.094 0.166 7.25 3.53 8.64
6/26/2022 3:45:00 AM 17.76 63.968 0.166 7.26 3.98 8.66
6/26/2022 4:00:00 AM 17.7 63.86 0.166 7.25 3.82 8.65
6/26/2022 4:15:00 AM 17.63 63.734 0.166 7.25 3.81 8.66
6/26/2022 4:30:00 AM 17.57 63.626 0.166 7.26 3.62 8.71
6/26/2022 4:45:00 AM 17.5 63.5 0.166 7.25 3.86 8.71
6/26/2022 5:00:00 AM 17.45 63.41 0.166 7.25 5.34 8.72
6/26/2022 5:15:00 AM 17.41 63.338 0.166 7.25 9.13 8.67
6/26/2022 5:30:00 AM 17.36 63.248 0.166 7.25 4.38 8.74
6/26/2022 5:45:00 AM 17.31 63.158 0.166 7.24 3.86 8.72
6/26/2022 6:00:00 AM 17.27 63.086 0.166 7.24 4.33 8.7
6/26/2022 6:15:00 AM 17.24 63.032 0.166 7.24 3.6 8.79
6/26/2022 6:30:00 AM 17.21 62.978 0.166 7.25 3.73 8.83
6/26/2022 6:45:00 AM 17.19 62.942 0.166 7.26 3.51 8.88
6/26/2022 7:00:00 AM 17.18 62.924 0.166 7.26 4.1 8.92
6/26/2022 7:15:00 AM 17.17 62.906 0.166 7.27 3.57 8.95
6/26/2022 7:30:00 AM 17.16 62.888 0.166 7.28 3.62 8.98
6/26/2022 7:45:00 AM 17.15 62.87 0.166 7.3 4.11 9.02
6/26/2022 8:00:00 AM 17.15 62.87 0.166 7.3 3.32 9.05
6/26/2022 8:15:00 AM 17.16 62.888 0.166 7.3 3.46 9.03
6/26/2022 8:30:00 AM 17.18 62.924 0.166 7.31 3.44 9.03
6/26/2022 8:45:00 AM 17.23 63.014 0.165 7.32 3.51 9.13
6/26/2022 9:00:00 AM 17.29 63.122 0.165 7.34 3.31 9.14
6/26/2022 9:15:00 AM 17.37 63.266 0.165 7.32 3.51 9.15
6/26/2022 9:30:00 AM 17.44 63.392 0.165 7.32 3.56 8.97
6/26/2022 9:45:00 AM 17.6 63.68 0.165 7.35 3.46 9.17
6/26/2022 10:00:00 AM 17.74 63.932 0.165 7.35 3.41 9.1
6/26/2022 10:15:00 AM 17.92 64.256 0.165 7.38 3.56 9.16
6/26/2022 10:30:00 AM 18.19 64.742 0.165 7.42 3.48 9.19
6/26/2022 10:45:00 AM 18.46 65.228 0.165 7.46 3.39 8.71
6/26/2022 11:00:00 AM 18.74 65.732 0.165 7.46 3.41 8.83
6/26/2022 11:15:00 AM 19.05 66.29 0.165 7.5 3.27 9.05
6/26/2022 11:30:00 AM 19.44 66.992 0.165 7.54 3.89 8.94
6/26/2022 11:45:00 AM 19.79 67.622 0.165 7.58 3.3 8.84
6/26/2022 12:00:00 PM 20.06 68.108 0.165 7.61 3.88 9.14
6/26/2022 12:15:00 PM 20.32 68.576 0.165 7.63 3.35 9.09
6/26/2022 12:30:00 PM 20.63 69.134 0.165 7.67 3.08 9.06
6/26/2022 12:45:00 PM 20.92 69.656 0.165 7.69 3.55 9.02
6/26/2022 1:00:00 PM 21.15 70.07 0.165 7.72 3.27 9.09
6/26/2022 1:15:00 PM 21.34 70.412 0.165 7.71 3.48 8.92
6/26/2022 1:30:00 PM 21.58 70.844 0.165 7.76 3.24 8.94
6/26/2022 1:45:00 PM 21.84 71.312 0.165 7.77 3.03 9.06
6/26/2022 2:00:00 PM 21.92 71.456 0.165 7.74 4.05 8.92
6/26/2022 2:15:00 PM 22.1 71.78 0.165 7.77 3.45 8.97
6/26/2022 2:30:00 PM 22.22 71.996 0.165 7.8 3.64 8.91
6/26/2022 2:45:00 PM 22.33 72.194 0.165 7.8 3.61 8.75
6/26/2022 3:00:00 PM 22.41 72.338 0.165 7.81 3.86 8.9
6/26/2022 3:15:00 PM 22.44 72.392 0.165 7.8 3.49 8.89
6/26/2022 3:30:00 PM 22.42 72.356 0.165 7.81 3.56 8.88
6/26/2022 3:45:00 PM 22.32 72.176 0.165 7.76 3.47 8.8
6/26/2022 4:00:00 PM 22.21 71.978 0.165 7.78 3.49 8.85
6/26/2022 4:15:00 PM 22.09 71.762 0.165 7.75 3.81 8.79
6/26/2022 4:30:00 PM 21.97 71.546 0.165 7.73 3.58 8.79
6/26/2022 4:45:00 PM 21.87 71.366 0.165 7.69 3.54 8.73
6/26/2022 5:00:00 PM 21.77 71.186 0.165 7.68 3.5 8.72
6/26/2022 5:15:00 PM 21.71 71.078 0.165 7.67 3.75 8.76
6/26/2022 5:30:00 PM 21.63 70.934 0.165 7.67 3.66 8.73
6/26/2022 5:45:00 PM 21.5 70.7 0.166 7.61 3.49 8.61
6/26/2022 6:00:00 PM 21.4 70.52 0.166 7.57 3.58 8.52
6/26/2022 6:15:00 PM 21.27 70.286 0.166 7.53 3.46 8.45
6/26/2022 6:30:00 PM 21.16 70.088 0.167 7.49 3.48 8.4
6/26/2022 6:45:00 PM 21.08 69.944 0.167 7.48 3.64 8.39
6/26/2022 7:00:00 PM 20.99 69.782 0.167 7.47 3.47 8.39
6/26/2022 7:15:00 PM 20.91 69.638 0.167 7.47 3.41 8.43
6/26/2022 7:30:00 PM 20.81 69.458 0.167 7.43 1.91 8.41
6/26/2022 7:45:00 PM 20.74 69.332 0.167 7.44 3.43 8.37
6/26/2022 8:00:00 PM 20.64 69.152 0.167 7.41 3.52 8.35
6/26/2022 8:15:00 PM 20.56 69.008 0.168 7.41 3.44 8.32
6/26/2022 8:30:00 PM 20.46 68.828 0.168 7.38 3.53 8.28
6/26/2022 8:45:00 PM 20.37 68.666 0.168 7.37 4.28 8.25
6/26/2022 9:00:00 PM 20.3 68.54 0.168 7.36 3.54 8.24
6/26/2022 9:15:00 PM 20.21 68.378 0.168 7.35 3.55 8.19
6/26/2022 9:30:00 PM 20.14 68.252 0.168 7.33 3.73 8.19
6/26/2022 9:45:00 PM 20.06 68.108 0.168 7.32 3.44 8.18
6/26/2022 10:00:00 PM 20 68 0.168 7.32 3.48 8.22
6/26/2022 10:15:00 PM 19.92 67.856 0.168 7.29 3.57 8.18
6/26/2022 10:30:00 PM 19.87 67.766 0.168 7.29 4 8.21
6/26/2022 10:45:00 PM 19.81 67.658 0.168 7.29 4.83 8.15
6/26/2022 11:00:00 PM 19.75 67.55 0.168 7.28 5.32 8.22
6/26/2022 11:15:00 PM 19.69 67.442 0.168 7.28 4.24 8.24
6/26/2022 11:30:00 PM 19.62 67.316 0.168 7.27 3.87 8.2
6/26/2022 11:45:00 PM 19.58 67.244 0.168 7.28 3.71 8.27
6/27/2022 12:00:00 AM 19.53 67.154 0.168 7.27 4.05 8.28
6/27/2022 12:15:00 AM 19.47 67.046 0.168 7.27 4.18 8.28
6/27/2022 12:30:00 AM 19.42 66.956 0.168 7.27 4.33 8.29
6/27/2022 12:45:00 AM 19.36 66.848 0.168 7.26 3.49 8.27
6/27/2022 1:00:00 AM 19.32 66.776 0.168 7.25 4.36 8.26
6/27/2022 1:15:00 AM 19.28 66.704 0.168 7.27 3.69 8.33
6/27/2022 1:30:00 AM 19.24 66.632 0.168 7.27 3.86 8.33
6/27/2022 1:45:00 AM 19.19 66.542 0.168 7.25 4.41 8.28
6/27/2022 2:00:00 AM 19.15 66.47 0.168 7.26 3.9 8.35
6/27/2022 2:15:00 AM 19.11 66.398 0.168 7.25 3.81 8.34
6/27/2022 2:30:00 AM 19.07 66.326 0.167 7.25 4.23 8.35
6/27/2022 2:45:00 AM 19.04 66.272 0.167 7.25 3.65 8.34
6/27/2022 3:00:00 AM 19 66.2 0.167 7.25 3.66 8.34
6/27/2022 3:15:00 AM 18.96 66.128 0.167 7.23 3.85 8.28
6/27/2022 3:30:00 AM 18.93 66.074 0.167 7.24 4 8.34
6/27/2022 3:45:00 AM 18.9 66.02 0.167 7.23 3.83 8.33
6/27/2022 4:00:00 AM 18.88 65.984 0.167 7.24 3.69 8.37
6/27/2022 4:15:00 AM 18.84 65.912 0.167 7.24 3.51 8.35
6/27/2022 4:30:00 AM 18.81 65.858 0.167 7.24 3.73 8.38
6/27/2022 4:45:00 AM 18.78 65.804 0.167 7.24 4.11 8.4
6/27/2022 5:00:00 AM 18.75 65.75 0.167 7.24 4.02 8.4
6/27/2022 5:15:00 AM 18.71 65.67799 0.167 7.23 4.1 8.37
6/27/2022 5:30:00 AM 18.69 65.642 0.167 7.24 4.33 8.4
6/27/2022 5:45:00 AM 18.66 65.588 0.167 7.23 3.96 8.4
6/27/2022 6:00:00 AM 18.61 65.498 0.166 7.2 4.09 8.31
6/27/2022 6:15:00 AM 18.6 65.48 0.166 7.22 4.44 8.35
6/27/2022 6:30:00 AM 18.57 65.426 0.165 7.2 4.58 8.33
6/27/2022 6:45:00 AM 18.6 65.48 0.165 7.22 5.07 8.43
6/27/2022 7:00:00 AM 18.58 65.444 0.165 7.23 4.96 8.43
6/27/2022 7:15:00 AM 18.56 65.408 0.165 7.23 4.84 8.46
6/27/2022 7:30:00 AM 18.54 65.372 0.165 7.24 4.59 8.53
6/27/2022 7:45:00 AM 18.53 65.354 0.165 7.22 4.23 8.53
6/27/2022 8:00:00 AM 18.51 65.318 0.165 7.23 4.13 8.55
6/27/2022 8:15:00 AM 18.49 65.282 0.165 7.22 4.18 8.55
6/27/2022 8:30:00 AM 18.49 65.282 0.164 7.24 4.48 8.57
6/27/2022 8:45:00 AM 18.49 65.282 0.163 7.26 4.98 8.64
6/27/2022 9:00:00 AM 18.44 65.192 0.163 7.26 5.43 8.63
6/27/2022 9:15:00 AM 18.4 65.12 0.163 7.26 8.98 8.57
6/27/2022 9:30:00 AM 18.37 65.066 0.163 7.25 5.6 8.74
6/27/2022 9:45:00 AM 18.38 65.084 0.162 7.28 4.79 8.8
6/27/2022 10:00:00 AM 18.44 65.192 0.162 7.34 4.56 8.92
6/27/2022 10:15:00 AM 18.51 65.318 0.162 7.34 2.6 8.94
6/27/2022 10:30:00 AM 18.64 65.552 0.162 7.37 4.54 9.01
6/27/2022 10:45:00 AM 18.74